<?xml version="1.0" encoding="UTF-8" standalone="no" ?>
<gpx xmlns="http://www.topografix.com/GPX/1/1" xmlns:xsi="http://www.w3.org/2001/XMLSchema-instance" xsi:schemaLocation="http://www.topografix.com/GPX/1/1 http://www.topografix.com/GPX/1/1/gpx.xsd" version="1.1" creator="VisuGPX - https://www.visugpx.com">
  <metadata>
    <name>Etape 2 Saint-Amand-Montrond &gt; Saint-Florent-sur-Cher</name>
    <desc><![CDATA[Etape 2 qui va de Saint-Amand-Montrond à Saint-Florent-sur-Cher
Parcours du 14 juin]]></desc>
  </metadata>
  <trk>
    <name><![CDATA[20180610195922-k1GEa]]></name>
    <trkseg>
      <trkpt lat="46.90253" lon="2.31458">
        <ele>150</ele>
        <time>2018-04-16T16:08:12Z</time>
      </trkpt>
      <trkpt lat="46.9025" lon="2.31462">
        <ele>150</ele>
        <time>2018-04-16T16:08:14Z</time>
      </trkpt>
      <trkpt lat="46.90195" lon="2.31479">
        <ele>152</ele>
        <time>2018-04-16T16:08:28Z</time>
      </trkpt>
      <trkpt lat="46.90142" lon="2.31497">
        <ele>153</ele>
        <time>2018-04-16T16:08:42Z</time>
      </trkpt>
      <trkpt lat="46.90104" lon="2.3151">
        <ele>152</ele>
        <time>2018-04-16T16:08:53Z</time>
      </trkpt>
      <trkpt lat="46.90055" lon="2.31527">
        <ele>152</ele>
        <time>2018-04-16T16:09:06Z</time>
      </trkpt>
      <trkpt lat="46.89999" lon="2.31545">
        <ele>152</ele>
        <time>2018-04-16T16:09:20Z</time>
      </trkpt>
      <trkpt lat="46.89943" lon="2.31564">
        <ele>152</ele>
        <time>2018-04-16T16:09:35Z</time>
      </trkpt>
      <trkpt lat="46.89933" lon="2.31575">
        <ele>152</ele>
        <time>2018-04-16T16:09:39Z</time>
      </trkpt>
      <trkpt lat="46.89935" lon="2.31622">
        <ele>151</ele>
        <time>2018-04-16T16:09:48Z</time>
      </trkpt>
      <trkpt lat="46.89903" lon="2.31638">
        <ele>151</ele>
        <time>2018-04-16T16:09:57Z</time>
      </trkpt>
      <trkpt lat="46.89848" lon="2.31655">
        <ele>151</ele>
        <time>2018-04-16T16:10:10Z</time>
      </trkpt>
      <trkpt lat="46.89795" lon="2.31672">
        <ele>150</ele>
        <time>2018-04-16T16:10:23Z</time>
      </trkpt>
      <trkpt lat="46.89743" lon="2.31694">
        <ele>149</ele>
        <time>2018-04-16T16:10:41Z</time>
      </trkpt>
      <trkpt lat="46.89741" lon="2.31691">
        <ele>149</ele>
        <time>2018-04-16T16:11:19Z</time>
      </trkpt>
      <trkpt lat="46.89741" lon="2.31691">
        <ele>149</ele>
        <time>2018-04-16T16:11:27Z</time>
      </trkpt>
      <trkpt lat="46.89741" lon="2.3169">
        <ele>149</ele>
        <time>2018-04-16T16:11:34Z</time>
      </trkpt>
      <trkpt lat="46.89741" lon="2.31691">
        <ele>149</ele>
        <time>2018-04-16T16:11:42Z</time>
      </trkpt>
      <trkpt lat="46.89741" lon="2.3169">
        <ele>149</ele>
        <time>2018-04-16T16:11:56Z</time>
      </trkpt>
      <trkpt lat="46.89741" lon="2.3169">
        <ele>149</ele>
        <time>2018-04-16T16:11:57Z</time>
      </trkpt>
      <trkpt lat="46.89741" lon="2.3169">
        <ele>149</ele>
        <time>2018-04-16T16:11:58Z</time>
      </trkpt>
      <trkpt lat="46.89741" lon="2.3169">
        <ele>149</ele>
        <time>2018-04-16T16:11:59Z</time>
      </trkpt>
      <trkpt lat="46.89741" lon="2.31691">
        <ele>149</ele>
        <time>2018-04-16T16:12:05Z</time>
      </trkpt>
      <trkpt lat="46.89741" lon="2.3169">
        <ele>149</ele>
        <time>2018-04-16T16:12:18Z</time>
      </trkpt>
      <trkpt lat="46.8974" lon="2.31684">
        <ele>149</ele>
        <time>2018-04-16T16:12:44Z</time>
      </trkpt>
      <trkpt lat="46.89719" lon="2.31628">
        <ele>150</ele>
        <time>2018-04-16T16:12:57Z</time>
      </trkpt>
      <trkpt lat="46.89716" lon="2.31619">
        <ele>151</ele>
        <time>2018-04-16T16:12:59Z</time>
      </trkpt>
      <trkpt lat="46.89712" lon="2.31606">
        <ele>151</ele>
        <time>2018-04-16T16:13:02Z</time>
      </trkpt>
      <trkpt lat="46.8971" lon="2.31601">
        <ele>151</ele>
        <time>2018-04-16T16:13:03Z</time>
      </trkpt>
      <trkpt lat="46.89707" lon="2.31592">
        <ele>151</ele>
        <time>2018-04-16T16:13:05Z</time>
      </trkpt>
      <trkpt lat="46.89704" lon="2.31583">
        <ele>152</ele>
        <time>2018-04-16T16:13:07Z</time>
      </trkpt>
      <trkpt lat="46.89694" lon="2.31557">
        <ele>152</ele>
        <time>2018-04-16T16:13:13Z</time>
      </trkpt>
      <trkpt lat="46.89683" lon="2.31525">
        <ele>153</ele>
        <time>2018-04-16T16:13:20Z</time>
      </trkpt>
      <trkpt lat="46.89674" lon="2.31502">
        <ele>154</ele>
        <time>2018-04-16T16:13:25Z</time>
      </trkpt>
      <trkpt lat="46.89671" lon="2.31493">
        <ele>154</ele>
        <time>2018-04-16T16:13:27Z</time>
      </trkpt>
      <trkpt lat="46.89661" lon="2.31467">
        <ele>154</ele>
        <time>2018-04-16T16:13:33Z</time>
      </trkpt>
      <trkpt lat="46.89647" lon="2.31432">
        <ele>154</ele>
        <time>2018-04-16T16:13:41Z</time>
      </trkpt>
      <trkpt lat="46.8964" lon="2.31413">
        <ele>154</ele>
        <time>2018-04-16T16:13:45Z</time>
      </trkpt>
      <trkpt lat="46.89638" lon="2.31408">
        <ele>154</ele>
        <time>2018-04-16T16:13:46Z</time>
      </trkpt>
      <trkpt lat="46.89606" lon="2.31343">
        <ele>154</ele>
        <time>2018-04-16T16:14:01Z</time>
      </trkpt>
      <trkpt lat="46.89581" lon="2.31266">
        <ele>153</ele>
        <time>2018-04-16T16:14:14Z</time>
      </trkpt>
      <trkpt lat="46.89559" lon="2.31184">
        <ele>150</ele>
        <time>2018-04-16T16:14:23Z</time>
      </trkpt>
      <trkpt lat="46.89546" lon="2.3112">
        <ele>148</ele>
        <time>2018-04-16T16:14:29Z</time>
      </trkpt>
      <trkpt lat="46.89528" lon="2.31038">
        <ele>146</ele>
        <time>2018-04-16T16:14:38Z</time>
      </trkpt>
      <trkpt lat="46.89521" lon="2.31005">
        <ele>145</ele>
        <time>2018-04-16T16:14:42Z</time>
      </trkpt>
      <trkpt lat="46.89503" lon="2.30927">
        <ele>144</ele>
        <time>2018-04-16T16:14:51Z</time>
      </trkpt>
      <trkpt lat="46.89492" lon="2.30871">
        <ele>143</ele>
        <time>2018-04-16T16:14:58Z</time>
      </trkpt>
      <trkpt lat="46.89482" lon="2.30789">
        <ele>142</ele>
        <time>2018-04-16T16:15:08Z</time>
      </trkpt>
      <trkpt lat="46.89476" lon="2.3071">
        <ele>141</ele>
        <time>2018-04-16T16:15:18Z</time>
      </trkpt>
      <trkpt lat="46.89467" lon="2.30632">
        <ele>141</ele>
        <time>2018-04-16T16:15:28Z</time>
      </trkpt>
      <trkpt lat="46.89461" lon="2.3061">
        <ele>141</ele>
        <time>2018-04-16T16:15:31Z</time>
      </trkpt>
      <trkpt lat="46.89448" lon="2.30581">
        <ele>142</ele>
        <time>2018-04-16T16:15:36Z</time>
      </trkpt>
      <trkpt lat="46.8944" lon="2.30568">
        <ele>142</ele>
        <time>2018-04-16T16:15:39Z</time>
      </trkpt>
      <trkpt lat="46.89435" lon="2.30558">
        <ele>142</ele>
        <time>2018-04-16T16:15:41Z</time>
      </trkpt>
      <trkpt lat="46.8943" lon="2.3055">
        <ele>142</ele>
        <time>2018-04-16T16:15:43Z</time>
      </trkpt>
      <trkpt lat="46.89419" lon="2.30509">
        <ele>142</ele>
        <time>2018-04-16T16:15:53Z</time>
      </trkpt>
      <trkpt lat="46.89433" lon="2.30487">
        <ele>141</ele>
        <time>2018-04-16T16:16:01Z</time>
      </trkpt>
      <trkpt lat="46.89419" lon="2.30449">
        <ele>141</ele>
        <time>2018-04-16T16:16:23Z</time>
      </trkpt>
      <trkpt lat="46.89411" lon="2.30416">
        <ele>139</ele>
        <time>2018-04-16T16:16:32Z</time>
      </trkpt>
      <trkpt lat="46.89427" lon="2.30381">
        <ele>138</ele>
        <time>2018-04-16T16:16:40Z</time>
      </trkpt>
      <trkpt lat="46.89462" lon="2.30354">
        <ele>137</ele>
        <time>2018-04-16T16:16:49Z</time>
      </trkpt>
      <trkpt lat="46.89469" lon="2.30345">
        <ele>137</ele>
        <time>2018-04-16T16:16:51Z</time>
      </trkpt>
      <trkpt lat="46.89472" lon="2.3034">
        <ele>137</ele>
        <time>2018-04-16T16:16:52Z</time>
      </trkpt>
      <trkpt lat="46.89473" lon="2.30333">
        <ele>134</ele>
        <time>2018-04-16T16:16:53Z</time>
      </trkpt>
      <trkpt lat="46.89474" lon="2.30325">
        <ele>134</ele>
        <time>2018-04-16T16:16:54Z</time>
      </trkpt>
      <trkpt lat="46.89473" lon="2.30316">
        <ele>134</ele>
        <time>2018-04-16T16:16:55Z</time>
      </trkpt>
      <trkpt lat="46.89468" lon="2.30297">
        <ele>134</ele>
        <time>2018-04-16T16:16:57Z</time>
      </trkpt>
      <trkpt lat="46.89466" lon="2.30287">
        <ele>133</ele>
        <time>2018-04-16T16:16:58Z</time>
      </trkpt>
      <trkpt lat="46.89463" lon="2.30277">
        <ele>133</ele>
        <time>2018-04-16T16:16:59Z</time>
      </trkpt>
      <trkpt lat="46.8946" lon="2.30267">
        <ele>133</ele>
        <time>2018-04-16T16:17:00Z</time>
      </trkpt>
      <trkpt lat="46.89452" lon="2.30221">
        <ele>131</ele>
        <time>2018-04-16T16:17:06Z</time>
      </trkpt>
      <trkpt lat="46.89456" lon="2.30207">
        <ele>131</ele>
        <time>2018-04-16T16:17:09Z</time>
      </trkpt>
      <trkpt lat="46.89459" lon="2.30203">
        <ele>131</ele>
        <time>2018-04-16T16:17:10Z</time>
      </trkpt>
      <trkpt lat="46.89461" lon="2.30199">
        <ele>131</ele>
        <time>2018-04-16T16:17:11Z</time>
      </trkpt>
      <trkpt lat="46.89482" lon="2.30175">
        <ele>130</ele>
        <time>2018-04-16T16:17:18Z</time>
      </trkpt>
      <trkpt lat="46.89513" lon="2.30148">
        <ele>130</ele>
        <time>2018-04-16T16:17:26Z</time>
      </trkpt>
      <trkpt lat="46.89536" lon="2.3014">
        <ele>130</ele>
        <time>2018-04-16T16:17:31Z</time>
      </trkpt>
      <trkpt lat="46.89549" lon="2.30135">
        <ele>130</ele>
        <time>2018-04-16T16:17:34Z</time>
      </trkpt>
      <trkpt lat="46.89573" lon="2.30124">
        <ele>130</ele>
        <time>2018-04-16T16:17:40Z</time>
      </trkpt>
      <trkpt lat="46.89604" lon="2.30105">
        <ele>129</ele>
        <time>2018-04-16T16:17:48Z</time>
      </trkpt>
      <trkpt lat="46.89641" lon="2.30079">
        <ele>129</ele>
        <time>2018-04-16T16:17:57Z</time>
      </trkpt>
      <trkpt lat="46.89692" lon="2.30057">
        <ele>129</ele>
        <time>2018-04-16T16:18:10Z</time>
      </trkpt>
      <trkpt lat="46.89743" lon="2.30018">
        <ele>130</ele>
        <time>2018-04-16T16:18:23Z</time>
      </trkpt>
      <trkpt lat="46.89782" lon="2.29962">
        <ele>131</ele>
        <time>2018-04-16T16:18:35Z</time>
      </trkpt>
      <trkpt lat="46.89805" lon="2.29921">
        <ele>131</ele>
        <time>2018-04-16T16:18:48Z</time>
      </trkpt>
      <trkpt lat="46.89808" lon="2.29919">
        <ele>131</ele>
        <time>2018-04-16T16:18:50Z</time>
      </trkpt>
      <trkpt lat="46.89812" lon="2.29921">
        <ele>132</ele>
        <time>2018-04-16T16:19:39Z</time>
      </trkpt>
      <trkpt lat="46.89811" lon="2.29921">
        <ele>132</ele>
        <time>2018-04-16T16:20:31Z</time>
      </trkpt>
      <trkpt lat="46.89811" lon="2.29921">
        <ele>132</ele>
        <time>2018-04-16T16:20:49Z</time>
      </trkpt>
      <trkpt lat="46.89811" lon="2.29921">
        <ele>132</ele>
        <time>2018-04-16T16:20:54Z</time>
      </trkpt>
      <trkpt lat="46.89811" lon="2.29921">
        <ele>132</ele>
        <time>2018-04-16T16:20:56Z</time>
      </trkpt>
      <trkpt lat="46.89811" lon="2.29921">
        <ele>132</ele>
        <time>2018-04-16T16:20:57Z</time>
      </trkpt>
      <trkpt lat="46.89811" lon="2.29921">
        <ele>132</ele>
        <time>2018-04-16T16:20:58Z</time>
      </trkpt>
      <trkpt lat="46.89811" lon="2.29921">
        <ele>132</ele>
        <time>2018-04-16T16:21:00Z</time>
      </trkpt>
      <trkpt lat="46.89811" lon="2.29921">
        <ele>132</ele>
        <time>2018-04-16T16:21:04Z</time>
      </trkpt>
      <trkpt lat="46.89811" lon="2.29921">
        <ele>132</ele>
        <time>2018-04-16T16:21:08Z</time>
      </trkpt>
      <trkpt lat="46.89811" lon="2.29921">
        <ele>132</ele>
        <time>2018-04-16T16:21:18Z</time>
      </trkpt>
      <trkpt lat="46.89811" lon="2.29921">
        <ele>132</ele>
        <time>2018-04-16T16:21:24Z</time>
      </trkpt>
      <trkpt lat="46.89811" lon="2.29921">
        <ele>132</ele>
        <time>2018-04-16T16:21:43Z</time>
      </trkpt>
      <trkpt lat="46.89811" lon="2.29921">
        <ele>132</ele>
        <time>2018-04-16T16:21:47Z</time>
      </trkpt>
      <trkpt lat="46.89811" lon="2.2992">
        <ele>132</ele>
        <time>2018-04-16T16:21:48Z</time>
      </trkpt>
      <trkpt lat="46.89811" lon="2.2992">
        <ele>132</ele>
        <time>2018-04-16T16:21:49Z</time>
      </trkpt>
      <trkpt lat="46.89811" lon="2.29923">
        <ele>132</ele>
        <time>2018-04-16T16:21:57Z</time>
      </trkpt>
      <trkpt lat="46.89811" lon="2.29923">
        <ele>132</ele>
        <time>2018-04-16T16:21:58Z</time>
      </trkpt>
      <trkpt lat="46.89811" lon="2.29923">
        <ele>132</ele>
        <time>2018-04-16T16:21:59Z</time>
      </trkpt>
      <trkpt lat="46.89811" lon="2.29923">
        <ele>132</ele>
        <time>2018-04-16T16:22:01Z</time>
      </trkpt>
      <trkpt lat="46.89811" lon="2.29923">
        <ele>132</ele>
        <time>2018-04-16T16:22:13Z</time>
      </trkpt>
      <trkpt lat="46.89811" lon="2.29922">
        <ele>132</ele>
        <time>2018-04-16T16:22:16Z</time>
      </trkpt>
      <trkpt lat="46.89812" lon="2.29922">
        <ele>132</ele>
        <time>2018-04-16T16:22:20Z</time>
      </trkpt>
      <trkpt lat="46.89815" lon="2.29918">
        <ele>132</ele>
        <time>2018-04-16T16:22:22Z</time>
      </trkpt>
      <trkpt lat="46.89815" lon="2.29904">
        <ele>131</ele>
        <time>2018-04-16T16:22:25Z</time>
      </trkpt>
      <trkpt lat="46.89807" lon="2.29836">
        <ele>131</ele>
        <time>2018-04-16T16:22:37Z</time>
      </trkpt>
      <trkpt lat="46.89799" lon="2.29791">
        <ele>131</ele>
        <time>2018-04-16T16:22:44Z</time>
      </trkpt>
      <trkpt lat="46.89797" lon="2.29779">
        <ele>131</ele>
        <time>2018-04-16T16:22:46Z</time>
      </trkpt>
      <trkpt lat="46.89789" lon="2.29721">
        <ele>131</ele>
        <time>2018-04-16T16:22:55Z</time>
      </trkpt>
      <trkpt lat="46.89784" lon="2.29689">
        <ele>131</ele>
        <time>2018-04-16T16:23:00Z</time>
      </trkpt>
      <trkpt lat="46.89783" lon="2.29682">
        <ele>131</ele>
        <time>2018-04-16T16:23:01Z</time>
      </trkpt>
      <trkpt lat="46.89781" lon="2.2967">
        <ele>131</ele>
        <time>2018-04-16T16:23:03Z</time>
      </trkpt>
      <trkpt lat="46.8978" lon="2.29663">
        <ele>131</ele>
        <time>2018-04-16T16:23:04Z</time>
      </trkpt>
      <trkpt lat="46.89779" lon="2.29657">
        <ele>131</ele>
        <time>2018-04-16T16:23:05Z</time>
      </trkpt>
      <trkpt lat="46.89772" lon="2.29623">
        <ele>131</ele>
        <time>2018-04-16T16:23:11Z</time>
      </trkpt>
      <trkpt lat="46.89746" lon="2.29568">
        <ele>130</ele>
        <time>2018-04-16T16:23:22Z</time>
      </trkpt>
      <trkpt lat="46.89712" lon="2.29504">
        <ele>131</ele>
        <time>2018-04-16T16:23:39Z</time>
      </trkpt>
      <trkpt lat="46.89676" lon="2.2944">
        <ele>133</ele>
        <time>2018-04-16T16:23:54Z</time>
      </trkpt>
      <trkpt lat="46.89653" lon="2.29366">
        <ele>136</ele>
        <time>2018-04-16T16:24:09Z</time>
      </trkpt>
      <trkpt lat="46.89653" lon="2.2934">
        <ele>137</ele>
        <time>2018-04-16T16:24:15Z</time>
      </trkpt>
      <trkpt lat="46.89654" lon="2.29318">
        <ele>140</ele>
        <time>2018-04-16T16:24:26Z</time>
      </trkpt>
      <trkpt lat="46.89653" lon="2.29319">
        <ele>140</ele>
        <time>2018-04-16T16:24:46Z</time>
      </trkpt>
      <trkpt lat="46.89653" lon="2.29319">
        <ele>140</ele>
        <time>2018-04-16T16:24:47Z</time>
      </trkpt>
      <trkpt lat="46.89653" lon="2.29319">
        <ele>140</ele>
        <time>2018-04-16T16:24:48Z</time>
      </trkpt>
      <trkpt lat="46.89653" lon="2.29319">
        <ele>140</ele>
        <time>2018-04-16T16:24:49Z</time>
      </trkpt>
      <trkpt lat="46.89653" lon="2.2932">
        <ele>140</ele>
        <time>2018-04-16T16:24:52Z</time>
      </trkpt>
      <trkpt lat="46.89654" lon="2.2932">
        <ele>140</ele>
        <time>2018-04-16T16:24:53Z</time>
      </trkpt>
      <trkpt lat="46.89653" lon="2.29319">
        <ele>140</ele>
        <time>2018-04-16T16:24:54Z</time>
      </trkpt>
      <trkpt lat="46.89653" lon="2.29319">
        <ele>140</ele>
        <time>2018-04-16T16:25:07Z</time>
      </trkpt>
      <trkpt lat="46.89654" lon="2.29319">
        <ele>140</ele>
        <time>2018-04-16T16:25:27Z</time>
      </trkpt>
      <trkpt lat="46.89654" lon="2.29319">
        <ele>140</ele>
        <time>2018-04-16T16:25:31Z</time>
      </trkpt>
      <trkpt lat="46.89654" lon="2.29319">
        <ele>140</ele>
        <time>2018-04-16T16:25:36Z</time>
      </trkpt>
      <trkpt lat="46.89654" lon="2.29319">
        <ele>140</ele>
        <time>2018-04-16T16:25:41Z</time>
      </trkpt>
      <trkpt lat="46.89654" lon="2.29319">
        <ele>140</ele>
        <time>2018-04-16T16:25:47Z</time>
      </trkpt>
      <trkpt lat="46.89654" lon="2.29319">
        <ele>140</ele>
        <time>2018-04-16T16:25:48Z</time>
      </trkpt>
      <trkpt lat="46.89654" lon="2.29319">
        <ele>140</ele>
        <time>2018-04-16T16:25:49Z</time>
      </trkpt>
      <trkpt lat="46.89654" lon="2.29319">
        <ele>140</ele>
        <time>2018-04-16T16:25:50Z</time>
      </trkpt>
      <trkpt lat="46.89654" lon="2.29319">
        <ele>140</ele>
        <time>2018-04-16T16:25:51Z</time>
      </trkpt>
      <trkpt lat="46.89654" lon="2.29319">
        <ele>140</ele>
        <time>2018-04-16T16:25:57Z</time>
      </trkpt>
      <trkpt lat="46.89654" lon="2.29319">
        <ele>140</ele>
        <time>2018-04-16T16:26:29Z</time>
      </trkpt>
      <trkpt lat="46.89654" lon="2.29319">
        <ele>140</ele>
        <time>2018-04-16T16:26:33Z</time>
      </trkpt>
      <trkpt lat="46.89654" lon="2.29319">
        <ele>140</ele>
        <time>2018-04-16T16:26:36Z</time>
      </trkpt>
      <trkpt lat="46.89654" lon="2.29319">
        <ele>140</ele>
        <time>2018-04-16T16:26:37Z</time>
      </trkpt>
      <trkpt lat="46.89654" lon="2.29319">
        <ele>140</ele>
        <time>2018-04-16T16:26:39Z</time>
      </trkpt>
      <trkpt lat="46.89654" lon="2.29319">
        <ele>140</ele>
        <time>2018-04-16T16:26:43Z</time>
      </trkpt>
      <trkpt lat="46.89654" lon="2.29319">
        <ele>140</ele>
        <time>2018-04-16T16:26:46Z</time>
      </trkpt>
      <trkpt lat="46.89654" lon="2.29319">
        <ele>140</ele>
        <time>2018-04-16T16:26:55Z</time>
      </trkpt>
      <trkpt lat="46.89654" lon="2.29319">
        <ele>140</ele>
        <time>2018-04-16T16:26:56Z</time>
      </trkpt>
      <trkpt lat="46.89654" lon="2.29318">
        <ele>140</ele>
        <time>2018-04-16T16:26:58Z</time>
      </trkpt>
      <trkpt lat="46.89654" lon="2.29318">
        <ele>140</ele>
        <time>2018-04-16T16:27:01Z</time>
      </trkpt>
      <trkpt lat="46.89654" lon="2.29318">
        <ele>140</ele>
        <time>2018-04-16T16:27:03Z</time>
      </trkpt>
      <trkpt lat="46.89653" lon="2.29319">
        <ele>140</ele>
        <time>2018-04-16T16:27:17Z</time>
      </trkpt>
      <trkpt lat="46.89653" lon="2.29319">
        <ele>140</ele>
        <time>2018-04-16T16:27:22Z</time>
      </trkpt>
      <trkpt lat="46.89653" lon="2.29319">
        <ele>140</ele>
        <time>2018-04-16T16:27:24Z</time>
      </trkpt>
      <trkpt lat="46.89657" lon="2.29317">
        <ele>140</ele>
        <time>2018-04-16T16:27:29Z</time>
      </trkpt>
      <trkpt lat="46.89674" lon="2.29314">
        <ele>141</ele>
        <time>2018-04-16T16:27:36Z</time>
      </trkpt>
      <trkpt lat="46.89676" lon="2.29314">
        <ele>141</ele>
        <time>2018-04-16T16:27:37Z</time>
      </trkpt>
      <trkpt lat="46.89679" lon="2.29315">
        <ele>141</ele>
        <time>2018-04-16T16:27:38Z</time>
      </trkpt>
      <trkpt lat="46.89691" lon="2.29314">
        <ele>141</ele>
        <time>2018-04-16T16:27:42Z</time>
      </trkpt>
      <trkpt lat="46.89703" lon="2.29315">
        <ele>142</ele>
        <time>2018-04-16T16:27:47Z</time>
      </trkpt>
      <trkpt lat="46.89706" lon="2.29315">
        <ele>142</ele>
        <time>2018-04-16T16:27:48Z</time>
      </trkpt>
      <trkpt lat="46.89708" lon="2.29315">
        <ele>142</ele>
        <time>2018-04-16T16:27:49Z</time>
      </trkpt>
      <trkpt lat="46.8971" lon="2.29314">
        <ele>142</ele>
        <time>2018-04-16T16:27:50Z</time>
      </trkpt>
      <trkpt lat="46.89737" lon="2.2931">
        <ele>142</ele>
        <time>2018-04-16T16:28:02Z</time>
      </trkpt>
      <trkpt lat="46.89749" lon="2.29309">
        <ele>142</ele>
        <time>2018-04-16T16:28:07Z</time>
      </trkpt>
      <trkpt lat="46.89803" lon="2.29301">
        <ele>146</ele>
        <time>2018-04-16T16:28:32Z</time>
      </trkpt>
      <trkpt lat="46.89858" lon="2.2929">
        <ele>149</ele>
        <time>2018-04-16T16:28:58Z</time>
      </trkpt>
      <trkpt lat="46.89912" lon="2.29267">
        <ele>149</ele>
        <time>2018-04-16T16:29:17Z</time>
      </trkpt>
      <trkpt lat="46.89966" lon="2.29243">
        <ele>150</ele>
        <time>2018-04-16T16:29:30Z</time>
      </trkpt>
      <trkpt lat="46.9002" lon="2.2922">
        <ele>149</ele>
        <time>2018-04-16T16:29:44Z</time>
      </trkpt>
      <trkpt lat="46.90056" lon="2.29203">
        <ele>150</ele>
        <time>2018-04-16T16:29:55Z</time>
      </trkpt>
      <trkpt lat="46.90108" lon="2.29179">
        <ele>151</ele>
        <time>2018-04-16T16:30:09Z</time>
      </trkpt>
      <trkpt lat="46.90161" lon="2.29159">
        <ele>154</ele>
        <time>2018-04-16T16:30:22Z</time>
      </trkpt>
      <trkpt lat="46.90189" lon="2.29149">
        <ele>154</ele>
        <time>2018-04-16T16:30:29Z</time>
      </trkpt>
      <trkpt lat="46.90208" lon="2.29141">
        <ele>153</ele>
        <time>2018-04-16T16:30:34Z</time>
      </trkpt>
      <trkpt lat="46.90222" lon="2.29135">
        <ele>153</ele>
        <time>2018-04-16T16:30:38Z</time>
      </trkpt>
      <trkpt lat="46.90226" lon="2.29133">
        <ele>153</ele>
        <time>2018-04-16T16:30:39Z</time>
      </trkpt>
      <trkpt lat="46.90233" lon="2.29129">
        <ele>153</ele>
        <time>2018-04-16T16:30:41Z</time>
      </trkpt>
      <trkpt lat="46.90265" lon="2.29108">
        <ele>150</ele>
        <time>2018-04-16T16:30:49Z</time>
      </trkpt>
      <trkpt lat="46.90278" lon="2.29096">
        <ele>150</ele>
        <time>2018-04-16T16:30:53Z</time>
      </trkpt>
      <trkpt lat="46.90282" lon="2.29092">
        <ele>150</ele>
        <time>2018-04-16T16:30:54Z</time>
      </trkpt>
      <trkpt lat="46.90303" lon="2.29073">
        <ele>153</ele>
        <time>2018-04-16T16:31:00Z</time>
      </trkpt>
      <trkpt lat="46.90349" lon="2.29027">
        <ele>151</ele>
        <time>2018-04-16T16:31:14Z</time>
      </trkpt>
      <trkpt lat="46.90399" lon="2.28996">
        <ele>153</ele>
        <time>2018-04-16T16:31:26Z</time>
      </trkpt>
      <trkpt lat="46.90441" lon="2.28981">
        <ele>150</ele>
        <time>2018-04-16T16:31:33Z</time>
      </trkpt>
      <trkpt lat="46.90495" lon="2.28964">
        <ele>148</ele>
        <time>2018-04-16T16:31:40Z</time>
      </trkpt>
      <trkpt lat="46.90552" lon="2.28948">
        <ele>141</ele>
        <time>2018-04-16T16:31:46Z</time>
      </trkpt>
      <trkpt lat="46.90615" lon="2.28928">
        <ele>137</ele>
        <time>2018-04-16T16:31:52Z</time>
      </trkpt>
      <trkpt lat="46.90671" lon="2.28909">
        <ele>141</ele>
        <time>2018-04-16T16:32:00Z</time>
      </trkpt>
      <trkpt lat="46.90726" lon="2.28889">
        <ele>144</ele>
        <time>2018-04-16T16:32:12Z</time>
      </trkpt>
      <trkpt lat="46.9075" lon="2.28883">
        <ele>144</ele>
        <time>2018-04-16T16:32:18Z</time>
      </trkpt>
      <trkpt lat="46.9078" lon="2.28876">
        <ele>144</ele>
        <time>2018-04-16T16:32:28Z</time>
      </trkpt>
      <trkpt lat="46.90794" lon="2.28873">
        <ele>144</ele>
        <time>2018-04-16T16:32:34Z</time>
      </trkpt>
      <trkpt lat="46.90834" lon="2.28861">
        <ele>143</ele>
        <time>2018-04-16T16:32:51Z</time>
      </trkpt>
      <trkpt lat="46.90884" lon="2.28843">
        <ele>143</ele>
        <time>2018-04-16T16:33:08Z</time>
      </trkpt>
      <trkpt lat="46.90912" lon="2.28835">
        <ele>144</ele>
        <time>2018-04-16T16:33:14Z</time>
      </trkpt>
      <trkpt lat="46.90917" lon="2.28834">
        <ele>145</ele>
        <time>2018-04-16T16:33:15Z</time>
      </trkpt>
      <trkpt lat="46.90921" lon="2.28833">
        <ele>145</ele>
        <time>2018-04-16T16:33:16Z</time>
      </trkpt>
      <trkpt lat="46.90976" lon="2.28817">
        <ele>145</ele>
        <time>2018-04-16T16:33:27Z</time>
      </trkpt>
      <trkpt lat="46.91019" lon="2.28805">
        <ele>142</ele>
        <time>2018-04-16T16:33:35Z</time>
      </trkpt>
      <trkpt lat="46.91073" lon="2.2879">
        <ele>142</ele>
        <time>2018-04-16T16:33:45Z</time>
      </trkpt>
      <trkpt lat="46.91128" lon="2.28775">
        <ele>140</ele>
        <time>2018-04-16T16:33:57Z</time>
      </trkpt>
      <trkpt lat="46.91163" lon="2.28766">
        <ele>141</ele>
        <time>2018-04-16T16:34:06Z</time>
      </trkpt>
      <trkpt lat="46.91213" lon="2.28748">
        <ele>145</ele>
        <time>2018-04-16T16:34:23Z</time>
      </trkpt>
      <trkpt lat="46.91267" lon="2.28733">
        <ele>146</ele>
        <time>2018-04-16T16:34:42Z</time>
      </trkpt>
      <trkpt lat="46.91321" lon="2.28717">
        <ele>147</ele>
        <time>2018-04-16T16:35:00Z</time>
      </trkpt>
      <trkpt lat="46.9133" lon="2.28714">
        <ele>147</ele>
        <time>2018-04-16T16:35:03Z</time>
      </trkpt>
      <trkpt lat="46.91352" lon="2.28707">
        <ele>147</ele>
        <time>2018-04-16T16:35:10Z</time>
      </trkpt>
      <trkpt lat="46.91355" lon="2.28706">
        <ele>147</ele>
        <time>2018-04-16T16:35:11Z</time>
      </trkpt>
      <trkpt lat="46.91358" lon="2.28705">
        <ele>147</ele>
        <time>2018-04-16T16:35:12Z</time>
      </trkpt>
      <trkpt lat="46.91368" lon="2.28701">
        <ele>147</ele>
        <time>2018-04-16T16:35:15Z</time>
      </trkpt>
      <trkpt lat="46.91376" lon="2.28699">
        <ele>146</ele>
        <time>2018-04-16T16:35:17Z</time>
      </trkpt>
      <trkpt lat="46.9138" lon="2.28697">
        <ele>146</ele>
        <time>2018-04-16T16:35:18Z</time>
      </trkpt>
      <trkpt lat="46.91436" lon="2.28681">
        <ele>146</ele>
        <time>2018-04-16T16:35:29Z</time>
      </trkpt>
      <trkpt lat="46.91442" lon="2.28681">
        <ele>146</ele>
        <time>2018-04-16T16:35:30Z</time>
      </trkpt>
      <trkpt lat="46.91496" lon="2.28675">
        <ele>147</ele>
        <time>2018-04-16T16:35:41Z</time>
      </trkpt>
      <trkpt lat="46.91543" lon="2.28658">
        <ele>148</ele>
        <time>2018-04-16T16:35:52Z</time>
      </trkpt>
      <trkpt lat="46.9158" lon="2.28642">
        <ele>147</ele>
        <time>2018-04-16T16:36:00Z</time>
      </trkpt>
      <trkpt lat="46.91631" lon="2.28616">
        <ele>146</ele>
        <time>2018-04-16T16:36:11Z</time>
      </trkpt>
      <trkpt lat="46.91684" lon="2.28591">
        <ele>144</ele>
        <time>2018-04-16T16:36:24Z</time>
      </trkpt>
      <trkpt lat="46.91697" lon="2.28594">
        <ele>143</ele>
        <time>2018-04-16T16:36:30Z</time>
      </trkpt>
      <trkpt lat="46.91696" lon="2.28593">
        <ele>143</ele>
        <time>2018-04-16T16:36:43Z</time>
      </trkpt>
      <trkpt lat="46.91696" lon="2.28593">
        <ele>143</ele>
        <time>2018-04-16T16:36:49Z</time>
      </trkpt>
      <trkpt lat="46.91696" lon="2.28593">
        <ele>143</ele>
        <time>2018-04-16T16:36:59Z</time>
      </trkpt>
      <trkpt lat="46.91696" lon="2.28593">
        <ele>143</ele>
        <time>2018-04-16T16:37:33Z</time>
      </trkpt>
      <trkpt lat="46.91696" lon="2.28593">
        <ele>143</ele>
        <time>2018-04-16T16:37:36Z</time>
      </trkpt>
      <trkpt lat="46.91696" lon="2.28593">
        <ele>143</ele>
        <time>2018-04-16T16:37:40Z</time>
      </trkpt>
      <trkpt lat="46.91696" lon="2.28594">
        <ele>143</ele>
        <time>2018-04-16T16:37:42Z</time>
      </trkpt>
      <trkpt lat="46.91696" lon="2.28594">
        <ele>143</ele>
        <time>2018-04-16T16:37:43Z</time>
      </trkpt>
      <trkpt lat="46.91696" lon="2.28594">
        <ele>143</ele>
        <time>2018-04-16T16:37:44Z</time>
      </trkpt>
      <trkpt lat="46.91696" lon="2.28594">
        <ele>143</ele>
        <time>2018-04-16T16:37:46Z</time>
      </trkpt>
      <trkpt lat="46.91696" lon="2.28594">
        <ele>143</ele>
        <time>2018-04-16T16:37:47Z</time>
      </trkpt>
      <trkpt lat="46.91696" lon="2.28594">
        <ele>143</ele>
        <time>2018-04-16T16:37:48Z</time>
      </trkpt>
      <trkpt lat="46.91696" lon="2.28594">
        <ele>143</ele>
        <time>2018-04-16T16:37:49Z</time>
      </trkpt>
      <trkpt lat="46.91696" lon="2.28594">
        <ele>143</ele>
        <time>2018-04-16T16:37:55Z</time>
      </trkpt>
      <trkpt lat="46.91696" lon="2.28594">
        <ele>143</ele>
        <time>2018-04-16T16:37:57Z</time>
      </trkpt>
      <trkpt lat="46.91696" lon="2.28594">
        <ele>143</ele>
        <time>2018-04-16T16:38:07Z</time>
      </trkpt>
      <trkpt lat="46.91696" lon="2.28594">
        <ele>143</ele>
        <time>2018-04-16T16:38:15Z</time>
      </trkpt>
      <trkpt lat="46.91696" lon="2.28594">
        <ele>143</ele>
        <time>2018-04-16T16:38:18Z</time>
      </trkpt>
      <trkpt lat="46.91696" lon="2.28594">
        <ele>143</ele>
        <time>2018-04-16T16:38:20Z</time>
      </trkpt>
      <trkpt lat="46.91696" lon="2.28594">
        <ele>143</ele>
        <time>2018-04-16T16:38:21Z</time>
      </trkpt>
      <trkpt lat="46.91696" lon="2.28594">
        <ele>143</ele>
        <time>2018-04-16T16:38:23Z</time>
      </trkpt>
      <trkpt lat="46.91696" lon="2.28594">
        <ele>143</ele>
        <time>2018-04-16T16:38:28Z</time>
      </trkpt>
      <trkpt lat="46.91697" lon="2.28598">
        <ele>143</ele>
        <time>2018-04-16T16:38:39Z</time>
      </trkpt>
      <trkpt lat="46.91709" lon="2.28625">
        <ele>142</ele>
        <time>2018-04-16T16:38:44Z</time>
      </trkpt>
      <trkpt lat="46.91731" lon="2.28691">
        <ele>141</ele>
        <time>2018-04-16T16:38:53Z</time>
      </trkpt>
      <trkpt lat="46.91731" lon="2.28708">
        <ele>141</ele>
        <time>2018-04-16T16:38:55Z</time>
      </trkpt>
      <trkpt lat="46.91728" lon="2.28724">
        <ele>140</ele>
        <time>2018-04-16T16:38:57Z</time>
      </trkpt>
      <trkpt lat="46.91724" lon="2.28744">
        <ele>140</ele>
        <time>2018-04-16T16:39:00Z</time>
      </trkpt>
      <trkpt lat="46.91724" lon="2.28758">
        <ele>138</ele>
        <time>2018-04-16T16:39:02Z</time>
      </trkpt>
      <trkpt lat="46.91727" lon="2.2877">
        <ele>137</ele>
        <time>2018-04-16T16:39:04Z</time>
      </trkpt>
      <trkpt lat="46.91737" lon="2.28792">
        <ele>136</ele>
        <time>2018-04-16T16:39:08Z</time>
      </trkpt>
      <trkpt lat="46.91745" lon="2.28799">
        <ele>136</ele>
        <time>2018-04-16T16:39:10Z</time>
      </trkpt>
      <trkpt lat="46.91756" lon="2.28798">
        <ele>134</ele>
        <time>2018-04-16T16:39:12Z</time>
      </trkpt>
      <trkpt lat="46.91799" lon="2.28762">
        <ele>134</ele>
        <time>2018-04-16T16:39:19Z</time>
      </trkpt>
      <trkpt lat="46.91814" lon="2.28757">
        <ele>133</ele>
        <time>2018-04-16T16:39:21Z</time>
      </trkpt>
      <trkpt lat="46.91828" lon="2.28766">
        <ele>133</ele>
        <time>2018-04-16T16:39:23Z</time>
      </trkpt>
      <trkpt lat="46.91835" lon="2.28788">
        <ele>130</ele>
        <time>2018-04-16T16:39:25Z</time>
      </trkpt>
      <trkpt lat="46.91838" lon="2.28876">
        <ele>129</ele>
        <time>2018-04-16T16:39:33Z</time>
      </trkpt>
      <trkpt lat="46.91846" lon="2.28962">
        <ele>129</ele>
        <time>2018-04-16T16:39:41Z</time>
      </trkpt>
      <trkpt lat="46.91868" lon="2.29042">
        <ele>129</ele>
        <time>2018-04-16T16:39:51Z</time>
      </trkpt>
      <trkpt lat="46.91889" lon="2.29118">
        <ele>129</ele>
        <time>2018-04-16T16:40:02Z</time>
      </trkpt>
      <trkpt lat="46.9191" lon="2.29197">
        <ele>130</ele>
        <time>2018-04-16T16:40:13Z</time>
      </trkpt>
      <trkpt lat="46.91929" lon="2.29274">
        <ele>129</ele>
        <time>2018-04-16T16:40:24Z</time>
      </trkpt>
      <trkpt lat="46.91941" lon="2.29323">
        <ele>129</ele>
        <time>2018-04-16T16:40:31Z</time>
      </trkpt>
      <trkpt lat="46.91956" lon="2.29376">
        <ele>129</ele>
        <time>2018-04-16T16:40:39Z</time>
      </trkpt>
      <trkpt lat="46.91992" lon="2.29441">
        <ele>129</ele>
        <time>2018-04-16T16:40:50Z</time>
      </trkpt>
      <trkpt lat="46.92041" lon="2.2948">
        <ele>128</ele>
        <time>2018-04-16T16:41:01Z</time>
      </trkpt>
      <trkpt lat="46.92091" lon="2.29517">
        <ele>128</ele>
        <time>2018-04-16T16:41:12Z</time>
      </trkpt>
      <trkpt lat="46.92141" lon="2.2956">
        <ele>129</ele>
        <time>2018-04-16T16:41:24Z</time>
      </trkpt>
      <trkpt lat="46.92184" lon="2.29616">
        <ele>128</ele>
        <time>2018-04-16T16:41:38Z</time>
      </trkpt>
      <trkpt lat="46.92222" lon="2.29674">
        <ele>129</ele>
        <time>2018-04-16T16:41:52Z</time>
      </trkpt>
      <trkpt lat="46.92231" lon="2.29691">
        <ele>129</ele>
        <time>2018-04-16T16:41:55Z</time>
      </trkpt>
      <trkpt lat="46.92248" lon="2.29746">
        <ele>130</ele>
        <time>2018-04-16T16:42:02Z</time>
      </trkpt>
      <trkpt lat="46.92261" lon="2.29786">
        <ele>131</ele>
        <time>2018-04-16T16:42:08Z</time>
      </trkpt>
      <trkpt lat="46.92263" lon="2.29792">
        <ele>132</ele>
        <time>2018-04-16T16:42:09Z</time>
      </trkpt>
      <trkpt lat="46.923" lon="2.29848">
        <ele>133</ele>
        <time>2018-04-16T16:42:26Z</time>
      </trkpt>
      <trkpt lat="46.92303" lon="2.29851">
        <ele>133</ele>
        <time>2018-04-16T16:42:28Z</time>
      </trkpt>
      <trkpt lat="46.92308" lon="2.29856">
        <ele>133</ele>
        <time>2018-04-16T16:42:31Z</time>
      </trkpt>
      <trkpt lat="46.92315" lon="2.29856">
        <ele>133</ele>
        <time>2018-04-16T16:43:02Z</time>
      </trkpt>
      <trkpt lat="46.92315" lon="2.29856">
        <ele>133</ele>
        <time>2018-04-16T16:43:15Z</time>
      </trkpt>
      <trkpt lat="46.92315" lon="2.29856">
        <ele>133</ele>
        <time>2018-04-16T16:43:32Z</time>
      </trkpt>
      <trkpt lat="46.92315" lon="2.29856">
        <ele>133</ele>
        <time>2018-04-16T16:43:36Z</time>
      </trkpt>
      <trkpt lat="46.92315" lon="2.29856">
        <ele>133</ele>
        <time>2018-04-16T16:43:37Z</time>
      </trkpt>
      <trkpt lat="46.92315" lon="2.29856">
        <ele>133</ele>
        <time>2018-04-16T16:44:03Z</time>
      </trkpt>
      <trkpt lat="46.92315" lon="2.29856">
        <ele>133</ele>
        <time>2018-04-16T16:44:16Z</time>
      </trkpt>
      <trkpt lat="46.92315" lon="2.29856">
        <ele>133</ele>
        <time>2018-04-16T16:44:28Z</time>
      </trkpt>
      <trkpt lat="46.92315" lon="2.29856">
        <ele>133</ele>
        <time>2018-04-16T16:44:43Z</time>
      </trkpt>
      <trkpt lat="46.92363" lon="2.29811">
        <ele>136</ele>
        <time>2018-04-16T16:45:04Z</time>
      </trkpt>
      <trkpt lat="46.92368" lon="2.29806">
        <ele>136</ele>
        <time>2018-04-16T16:45:06Z</time>
      </trkpt>
      <trkpt lat="46.9237" lon="2.29804">
        <ele>136</ele>
        <time>2018-04-16T16:45:07Z</time>
      </trkpt>
      <trkpt lat="46.92373" lon="2.29803">
        <ele>136</ele>
        <time>2018-04-16T16:45:08Z</time>
      </trkpt>
      <trkpt lat="46.92375" lon="2.29803">
        <ele>136</ele>
        <time>2018-04-16T16:45:09Z</time>
      </trkpt>
      <trkpt lat="46.92381" lon="2.29801">
        <ele>136</ele>
        <time>2018-04-16T16:45:12Z</time>
      </trkpt>
      <trkpt lat="46.92383" lon="2.29799">
        <ele>136</ele>
        <time>2018-04-16T16:45:13Z</time>
      </trkpt>
      <trkpt lat="46.92385" lon="2.29797">
        <ele>136</ele>
        <time>2018-04-16T16:45:14Z</time>
      </trkpt>
      <trkpt lat="46.9241" lon="2.29779">
        <ele>137</ele>
        <time>2018-04-16T16:45:23Z</time>
      </trkpt>
      <trkpt lat="46.92416" lon="2.29775">
        <ele>137</ele>
        <time>2018-04-16T16:45:26Z</time>
      </trkpt>
      <trkpt lat="46.9243" lon="2.29758">
        <ele>141</ele>
        <time>2018-04-16T16:45:34Z</time>
      </trkpt>
      <trkpt lat="46.9244" lon="2.29726">
        <ele>141</ele>
        <time>2018-04-16T16:45:46Z</time>
      </trkpt>
      <trkpt lat="46.92439" lon="2.29726">
        <ele>141</ele>
        <time>2018-04-16T16:45:47Z</time>
      </trkpt>
      <trkpt lat="46.92438" lon="2.29725">
        <ele>141</ele>
        <time>2018-04-16T16:45:50Z</time>
      </trkpt>
      <trkpt lat="46.92438" lon="2.29725">
        <ele>141</ele>
        <time>2018-04-16T16:45:53Z</time>
      </trkpt>
      <trkpt lat="46.92438" lon="2.29725">
        <ele>141</ele>
        <time>2018-04-16T16:45:54Z</time>
      </trkpt>
      <trkpt lat="46.92438" lon="2.29725">
        <ele>141</ele>
        <time>2018-04-16T16:45:55Z</time>
      </trkpt>
      <trkpt lat="46.92438" lon="2.29725">
        <ele>141</ele>
        <time>2018-04-16T16:45:56Z</time>
      </trkpt>
      <trkpt lat="46.92438" lon="2.29725">
        <ele>141</ele>
        <time>2018-04-16T16:45:57Z</time>
      </trkpt>
      <trkpt lat="46.92438" lon="2.29725">
        <ele>141</ele>
        <time>2018-04-16T16:46:04Z</time>
      </trkpt>
      <trkpt lat="46.92438" lon="2.29725">
        <ele>141</ele>
        <time>2018-04-16T16:46:11Z</time>
      </trkpt>
      <trkpt lat="46.92439" lon="2.29722">
        <ele>141</ele>
        <time>2018-04-16T16:46:22Z</time>
      </trkpt>
      <trkpt lat="46.92445" lon="2.29707">
        <ele>141</ele>
        <time>2018-04-16T16:46:27Z</time>
      </trkpt>
      <trkpt lat="46.9245" lon="2.29689">
        <ele>141</ele>
        <time>2018-04-16T16:46:33Z</time>
      </trkpt>
      <trkpt lat="46.92452" lon="2.2968">
        <ele>141</ele>
        <time>2018-04-16T16:46:35Z</time>
      </trkpt>
      <trkpt lat="46.92453" lon="2.29676">
        <ele>141</ele>
        <time>2018-04-16T16:46:36Z</time>
      </trkpt>
      <trkpt lat="46.92466" lon="2.29632">
        <ele>138</ele>
        <time>2018-04-16T16:46:43Z</time>
      </trkpt>
      <trkpt lat="46.92477" lon="2.29601">
        <ele>138</ele>
        <time>2018-04-16T16:46:47Z</time>
      </trkpt>
      <trkpt lat="46.92485" lon="2.29575">
        <ele>137</ele>
        <time>2018-04-16T16:46:50Z</time>
      </trkpt>
      <trkpt lat="46.92491" lon="2.29558">
        <ele>136</ele>
        <time>2018-04-16T16:46:52Z</time>
      </trkpt>
      <trkpt lat="46.92493" lon="2.29549">
        <ele>135</ele>
        <time>2018-04-16T16:46:53Z</time>
      </trkpt>
      <trkpt lat="46.92496" lon="2.29539">
        <ele>135</ele>
        <time>2018-04-16T16:46:54Z</time>
      </trkpt>
      <trkpt lat="46.92508" lon="2.2949">
        <ele>138</ele>
        <time>2018-04-16T16:46:59Z</time>
      </trkpt>
      <trkpt lat="46.92516" lon="2.29461">
        <ele>139</ele>
        <time>2018-04-16T16:47:02Z</time>
      </trkpt>
      <trkpt lat="46.92518" lon="2.29452">
        <ele>139</ele>
        <time>2018-04-16T16:47:03Z</time>
      </trkpt>
      <trkpt lat="46.92521" lon="2.29443">
        <ele>139</ele>
        <time>2018-04-16T16:47:04Z</time>
      </trkpt>
      <trkpt lat="46.92527" lon="2.29416">
        <ele>137</ele>
        <time>2018-04-16T16:47:07Z</time>
      </trkpt>
      <trkpt lat="46.92529" lon="2.29407">
        <ele>137</ele>
        <time>2018-04-16T16:47:08Z</time>
      </trkpt>
      <trkpt lat="46.92531" lon="2.29399">
        <ele>138</ele>
        <time>2018-04-16T16:47:09Z</time>
      </trkpt>
      <trkpt lat="46.92532" lon="2.29391">
        <ele>138</ele>
        <time>2018-04-16T16:47:10Z</time>
      </trkpt>
      <trkpt lat="46.92534" lon="2.29383">
        <ele>138</ele>
        <time>2018-04-16T16:47:11Z</time>
      </trkpt>
      <trkpt lat="46.92536" lon="2.29375">
        <ele>138</ele>
        <time>2018-04-16T16:47:12Z</time>
      </trkpt>
      <trkpt lat="46.92541" lon="2.2935">
        <ele>138</ele>
        <time>2018-04-16T16:47:15Z</time>
      </trkpt>
      <trkpt lat="46.92543" lon="2.29342">
        <ele>139</ele>
        <time>2018-04-16T16:47:16Z</time>
      </trkpt>
      <trkpt lat="46.92544" lon="2.29334">
        <ele>139</ele>
        <time>2018-04-16T16:47:17Z</time>
      </trkpt>
      <trkpt lat="46.92545" lon="2.29326">
        <ele>137</ele>
        <time>2018-04-16T16:47:18Z</time>
      </trkpt>
      <trkpt lat="46.92548" lon="2.2931">
        <ele>137</ele>
        <time>2018-04-16T16:47:20Z</time>
      </trkpt>
      <trkpt lat="46.92554" lon="2.29269">
        <ele>137</ele>
        <time>2018-04-16T16:47:25Z</time>
      </trkpt>
      <trkpt lat="46.92555" lon="2.2926">
        <ele>137</ele>
        <time>2018-04-16T16:47:26Z</time>
      </trkpt>
      <trkpt lat="46.92558" lon="2.29236">
        <ele>137</ele>
        <time>2018-04-16T16:47:29Z</time>
      </trkpt>
      <trkpt lat="46.92558" lon="2.29228">
        <ele>137</ele>
        <time>2018-04-16T16:47:30Z</time>
      </trkpt>
      <trkpt lat="46.92559" lon="2.29219">
        <ele>136</ele>
        <time>2018-04-16T16:47:31Z</time>
      </trkpt>
      <trkpt lat="46.92569" lon="2.2914">
        <ele>137</ele>
        <time>2018-04-16T16:47:41Z</time>
      </trkpt>
      <trkpt lat="46.92574" lon="2.29058">
        <ele>137</ele>
        <time>2018-04-16T16:47:53Z</time>
      </trkpt>
      <trkpt lat="46.92576" lon="2.28975">
        <ele>136</ele>
        <time>2018-04-16T16:48:05Z</time>
      </trkpt>
      <trkpt lat="46.92573" lon="2.28893">
        <ele>135</ele>
        <time>2018-04-16T16:48:16Z</time>
      </trkpt>
      <trkpt lat="46.92569" lon="2.28814">
        <ele>135</ele>
        <time>2018-04-16T16:48:26Z</time>
      </trkpt>
      <trkpt lat="46.92568" lon="2.28782">
        <ele>135</ele>
        <time>2018-04-16T16:48:30Z</time>
      </trkpt>
      <trkpt lat="46.92573" lon="2.28702">
        <ele>134</ele>
        <time>2018-04-16T16:48:40Z</time>
      </trkpt>
      <trkpt lat="46.9259" lon="2.28624">
        <ele>139</ele>
        <time>2018-04-16T16:48:51Z</time>
      </trkpt>
      <trkpt lat="46.92594" lon="2.28611">
        <ele>138</ele>
        <time>2018-04-16T16:48:53Z</time>
      </trkpt>
      <trkpt lat="46.92595" lon="2.28604">
        <ele>138</ele>
        <time>2018-04-16T16:48:54Z</time>
      </trkpt>
      <trkpt lat="46.92622" lon="2.28532">
        <ele>136</ele>
        <time>2018-04-16T16:49:06Z</time>
      </trkpt>
      <trkpt lat="46.92655" lon="2.28464">
        <ele>132</ele>
        <time>2018-04-16T16:49:20Z</time>
      </trkpt>
      <trkpt lat="46.92678" lon="2.28432">
        <ele>133</ele>
        <time>2018-04-16T16:49:27Z</time>
      </trkpt>
      <trkpt lat="46.92687" lon="2.28424">
        <ele>133</ele>
        <time>2018-04-16T16:49:29Z</time>
      </trkpt>
      <trkpt lat="46.92722" lon="2.28409">
        <ele>130</ele>
        <time>2018-04-16T16:49:37Z</time>
      </trkpt>
      <trkpt lat="46.9273" lon="2.28407">
        <ele>130</ele>
        <time>2018-04-16T16:49:39Z</time>
      </trkpt>
      <trkpt lat="46.9275" lon="2.28411">
        <ele>131</ele>
        <time>2018-04-16T16:49:44Z</time>
      </trkpt>
      <trkpt lat="46.92797" lon="2.28453">
        <ele>136</ele>
        <time>2018-04-16T16:49:59Z</time>
      </trkpt>
      <trkpt lat="46.9284" lon="2.28504">
        <ele>140</ele>
        <time>2018-04-16T16:50:16Z</time>
      </trkpt>
      <trkpt lat="46.92888" lon="2.28542">
        <ele>143</ele>
        <time>2018-04-16T16:50:34Z</time>
      </trkpt>
      <trkpt lat="46.92939" lon="2.2857">
        <ele>141</ele>
        <time>2018-04-16T16:50:51Z</time>
      </trkpt>
      <trkpt lat="46.92989" lon="2.28601">
        <ele>143</ele>
        <time>2018-04-16T16:51:05Z</time>
      </trkpt>
      <trkpt lat="46.93042" lon="2.28616">
        <ele>139</ele>
        <time>2018-04-16T16:51:20Z</time>
      </trkpt>
      <trkpt lat="46.93092" lon="2.28656">
        <ele>139</ele>
        <time>2018-04-16T16:51:35Z</time>
      </trkpt>
      <trkpt lat="46.93131" lon="2.28681">
        <ele>142</ele>
        <time>2018-04-16T16:51:47Z</time>
      </trkpt>
      <trkpt lat="46.93165" lon="2.28706">
        <ele>142</ele>
        <time>2018-04-16T16:51:57Z</time>
      </trkpt>
      <trkpt lat="46.93201" lon="2.28729">
        <ele>139</ele>
        <time>2018-04-16T16:52:06Z</time>
      </trkpt>
      <trkpt lat="46.93233" lon="2.28735">
        <ele>138</ele>
        <time>2018-04-16T16:52:14Z</time>
      </trkpt>
      <trkpt lat="46.93254" lon="2.28736">
        <ele>136</ele>
        <time>2018-04-16T16:52:19Z</time>
      </trkpt>
      <trkpt lat="46.93303" lon="2.28746">
        <ele>134</ele>
        <time>2018-04-16T16:52:29Z</time>
      </trkpt>
      <trkpt lat="46.93336" lon="2.2878">
        <ele>137</ele>
        <time>2018-04-16T16:52:37Z</time>
      </trkpt>
      <trkpt lat="46.93345" lon="2.28784">
        <ele>137</ele>
        <time>2018-04-16T16:52:39Z</time>
      </trkpt>
      <trkpt lat="46.93397" lon="2.28765">
        <ele>137</ele>
        <time>2018-04-16T16:52:53Z</time>
      </trkpt>
      <trkpt lat="46.93446" lon="2.28755">
        <ele>139</ele>
        <time>2018-04-16T16:53:09Z</time>
      </trkpt>
      <trkpt lat="46.93502" lon="2.28747">
        <ele>138</ele>
        <time>2018-04-16T16:53:24Z</time>
      </trkpt>
      <trkpt lat="46.93551" lon="2.28743">
        <ele>137</ele>
        <time>2018-04-16T16:53:39Z</time>
      </trkpt>
      <trkpt lat="46.93579" lon="2.28756">
        <ele>141</ele>
        <time>2018-04-16T16:53:46Z</time>
      </trkpt>
      <trkpt lat="46.93588" lon="2.28763">
        <ele>142</ele>
        <time>2018-04-16T16:53:51Z</time>
      </trkpt>
      <trkpt lat="46.9359" lon="2.28758">
        <ele>142</ele>
        <time>2018-04-16T16:53:53Z</time>
      </trkpt>
      <trkpt lat="46.93585" lon="2.28738">
        <ele>140</ele>
        <time>2018-04-16T16:53:58Z</time>
      </trkpt>
      <trkpt lat="46.93576" lon="2.28721">
        <ele>137</ele>
        <time>2018-04-16T16:54:02Z</time>
      </trkpt>
      <trkpt lat="46.93568" lon="2.28717">
        <ele>136</ele>
        <time>2018-04-16T16:54:04Z</time>
      </trkpt>
      <trkpt lat="46.93551" lon="2.28715">
        <ele>136</ele>
        <time>2018-04-16T16:54:08Z</time>
      </trkpt>
      <trkpt lat="46.93542" lon="2.28713">
        <ele>135</ele>
        <time>2018-04-16T16:54:10Z</time>
      </trkpt>
      <trkpt lat="46.93539" lon="2.2871">
        <ele>135</ele>
        <time>2018-04-16T16:54:11Z</time>
      </trkpt>
      <trkpt lat="46.93537" lon="2.28704">
        <ele>135</ele>
        <time>2018-04-16T16:54:12Z</time>
      </trkpt>
      <trkpt lat="46.93539" lon="2.2869">
        <ele>134</ele>
        <time>2018-04-16T16:54:14Z</time>
      </trkpt>
      <trkpt lat="46.9355" lon="2.28671">
        <ele>133</ele>
        <time>2018-04-16T16:54:17Z</time>
      </trkpt>
      <trkpt lat="46.93556" lon="2.28661">
        <ele>129</ele>
        <time>2018-04-16T16:54:19Z</time>
      </trkpt>
      <trkpt lat="46.93578" lon="2.28629">
        <ele>129</ele>
        <time>2018-04-16T16:54:26Z</time>
      </trkpt>
      <trkpt lat="46.93629" lon="2.28591">
        <ele>130</ele>
        <time>2018-04-16T16:54:38Z</time>
      </trkpt>
      <trkpt lat="46.93669" lon="2.28562">
        <ele>129</ele>
        <time>2018-04-16T16:54:47Z</time>
      </trkpt>
      <trkpt lat="46.93715" lon="2.28518">
        <ele>129</ele>
        <time>2018-04-16T16:54:58Z</time>
      </trkpt>
      <trkpt lat="46.93737" lon="2.28493">
        <ele>129</ele>
        <time>2018-04-16T16:55:04Z</time>
      </trkpt>
      <trkpt lat="46.9378" lon="2.28433">
        <ele>130</ele>
        <time>2018-04-16T16:55:15Z</time>
      </trkpt>
      <trkpt lat="46.93819" lon="2.28376">
        <ele>129</ele>
        <time>2018-04-16T16:55:25Z</time>
      </trkpt>
      <trkpt lat="46.93856" lon="2.28313">
        <ele>128</ele>
        <time>2018-04-16T16:55:35Z</time>
      </trkpt>
      <trkpt lat="46.93859" lon="2.28305">
        <ele>128</ele>
        <time>2018-04-16T16:55:36Z</time>
      </trkpt>
      <trkpt lat="46.93864" lon="2.28291">
        <ele>128</ele>
        <time>2018-04-16T16:55:38Z</time>
      </trkpt>
      <trkpt lat="46.93875" lon="2.28209">
        <ele>128</ele>
        <time>2018-04-16T16:55:50Z</time>
      </trkpt>
      <trkpt lat="46.93876" lon="2.28129">
        <ele>128</ele>
        <time>2018-04-16T16:56:00Z</time>
      </trkpt>
      <trkpt lat="46.93894" lon="2.28054">
        <ele>128</ele>
        <time>2018-04-16T16:56:10Z</time>
      </trkpt>
      <trkpt lat="46.93915" lon="2.27979">
        <ele>128</ele>
        <time>2018-04-16T16:56:20Z</time>
      </trkpt>
      <trkpt lat="46.93933" lon="2.2791">
        <ele>128</ele>
        <time>2018-04-16T16:56:29Z</time>
      </trkpt>
      <trkpt lat="46.93949" lon="2.2783">
        <ele>130</ele>
        <time>2018-04-16T16:56:39Z</time>
      </trkpt>
      <trkpt lat="46.93955" lon="2.27744">
        <ele>130</ele>
        <time>2018-04-16T16:56:50Z</time>
      </trkpt>
      <trkpt lat="46.93958" lon="2.27663">
        <ele>131</ele>
        <time>2018-04-16T16:57:00Z</time>
      </trkpt>
      <trkpt lat="46.93966" lon="2.27582">
        <ele>133</ele>
        <time>2018-04-16T16:57:10Z</time>
      </trkpt>
      <trkpt lat="46.93983" lon="2.27504">
        <ele>134</ele>
        <time>2018-04-16T16:57:20Z</time>
      </trkpt>
      <trkpt lat="46.94012" lon="2.2743">
        <ele>133</ele>
        <time>2018-04-16T16:57:30Z</time>
      </trkpt>
      <trkpt lat="46.94047" lon="2.27361">
        <ele>133</ele>
        <time>2018-04-16T16:57:40Z</time>
      </trkpt>
      <trkpt lat="46.94079" lon="2.27295">
        <ele>133</ele>
        <time>2018-04-16T16:57:50Z</time>
      </trkpt>
      <trkpt lat="46.94082" lon="2.2729">
        <ele>133</ele>
        <time>2018-04-16T16:57:51Z</time>
      </trkpt>
      <trkpt lat="46.94133" lon="2.27262">
        <ele>134</ele>
        <time>2018-04-16T16:58:09Z</time>
      </trkpt>
      <trkpt lat="46.94187" lon="2.27247">
        <ele>136</ele>
        <time>2018-04-16T16:58:31Z</time>
      </trkpt>
      <trkpt lat="46.94225" lon="2.27233">
        <ele>138</ele>
        <time>2018-04-16T16:58:52Z</time>
      </trkpt>
      <trkpt lat="46.94225" lon="2.27232">
        <ele>138</ele>
        <time>2018-04-16T17:00:29Z</time>
      </trkpt>
      <trkpt lat="46.94225" lon="2.27232">
        <ele>138</ele>
        <time>2018-04-16T17:00:42Z</time>
      </trkpt>
      <trkpt lat="46.94225" lon="2.27232">
        <ele>138</ele>
        <time>2018-04-16T17:00:51Z</time>
      </trkpt>
      <trkpt lat="46.94225" lon="2.27232">
        <ele>138</ele>
        <time>2018-04-16T17:01:06Z</time>
      </trkpt>
      <trkpt lat="46.94225" lon="2.27232">
        <ele>138</ele>
        <time>2018-04-16T17:01:08Z</time>
      </trkpt>
      <trkpt lat="46.94225" lon="2.27232">
        <ele>138</ele>
        <time>2018-04-16T17:01:09Z</time>
      </trkpt>
      <trkpt lat="46.94225" lon="2.27232">
        <ele>138</ele>
        <time>2018-04-16T17:01:13Z</time>
      </trkpt>
      <trkpt lat="46.94225" lon="2.27232">
        <ele>138</ele>
        <time>2018-04-16T17:01:14Z</time>
      </trkpt>
      <trkpt lat="46.94225" lon="2.27232">
        <ele>138</ele>
        <time>2018-04-16T17:01:16Z</time>
      </trkpt>
      <trkpt lat="46.94225" lon="2.27232">
        <ele>138</ele>
        <time>2018-04-16T17:01:17Z</time>
      </trkpt>
      <trkpt lat="46.94225" lon="2.27232">
        <ele>138</ele>
        <time>2018-04-16T17:01:27Z</time>
      </trkpt>
      <trkpt lat="46.94225" lon="2.27232">
        <ele>138</ele>
        <time>2018-04-16T17:01:32Z</time>
      </trkpt>
      <trkpt lat="46.94225" lon="2.27232">
        <ele>138</ele>
        <time>2018-04-16T17:01:37Z</time>
      </trkpt>
      <trkpt lat="46.94225" lon="2.27232">
        <ele>138</ele>
        <time>2018-04-16T17:01:43Z</time>
      </trkpt>
      <trkpt lat="46.94225" lon="2.27232">
        <ele>138</ele>
        <time>2018-04-16T17:01:53Z</time>
      </trkpt>
      <trkpt lat="46.94225" lon="2.27232">
        <ele>138</ele>
        <time>2018-04-16T17:02:02Z</time>
      </trkpt>
      <trkpt lat="46.94225" lon="2.27232">
        <ele>138</ele>
        <time>2018-04-16T17:02:03Z</time>
      </trkpt>
      <trkpt lat="46.94225" lon="2.27232">
        <ele>138</ele>
        <time>2018-04-16T17:02:05Z</time>
      </trkpt>
      <trkpt lat="46.94225" lon="2.27227">
        <ele>138</ele>
        <time>2018-04-16T17:02:10Z</time>
      </trkpt>
      <trkpt lat="46.94225" lon="2.27214">
        <ele>138</ele>
        <time>2018-04-16T17:02:14Z</time>
      </trkpt>
      <trkpt lat="46.9422" lon="2.27191">
        <ele>137</ele>
        <time>2018-04-16T17:02:19Z</time>
      </trkpt>
      <trkpt lat="46.94202" lon="2.27113">
        <ele>136</ele>
        <time>2018-04-16T17:02:33Z</time>
      </trkpt>
      <trkpt lat="46.942" lon="2.27101">
        <ele>136</ele>
        <time>2018-04-16T17:02:35Z</time>
      </trkpt>
      <trkpt lat="46.94199" lon="2.27095">
        <ele>136</ele>
        <time>2018-04-16T17:02:36Z</time>
      </trkpt>
      <trkpt lat="46.94197" lon="2.27083">
        <ele>135</ele>
        <time>2018-04-16T17:02:38Z</time>
      </trkpt>
      <trkpt lat="46.94195" lon="2.27077">
        <ele>135</ele>
        <time>2018-04-16T17:02:39Z</time>
      </trkpt>
      <trkpt lat="46.94193" lon="2.27072">
        <ele>135</ele>
        <time>2018-04-16T17:02:40Z</time>
      </trkpt>
      <trkpt lat="46.9419" lon="2.27068">
        <ele>135</ele>
        <time>2018-04-16T17:02:41Z</time>
      </trkpt>
      <trkpt lat="46.94181" lon="2.27061">
        <ele>135</ele>
        <time>2018-04-16T17:02:43Z</time>
      </trkpt>
      <trkpt lat="46.94171" lon="2.2706">
        <ele>135</ele>
        <time>2018-04-16T17:02:45Z</time>
      </trkpt>
      <trkpt lat="46.94163" lon="2.27068">
        <ele>134</ele>
        <time>2018-04-16T17:02:47Z</time>
      </trkpt>
      <trkpt lat="46.94155" lon="2.2708">
        <ele>134</ele>
        <time>2018-04-16T17:02:49Z</time>
      </trkpt>
      <trkpt lat="46.9415" lon="2.27096">
        <ele>134</ele>
        <time>2018-04-16T17:02:51Z</time>
      </trkpt>
      <trkpt lat="46.9414" lon="2.27123">
        <ele>134</ele>
        <time>2018-04-16T17:02:54Z</time>
      </trkpt>
      <trkpt lat="46.94132" lon="2.27143">
        <ele>133</ele>
        <time>2018-04-16T17:02:56Z</time>
      </trkpt>
      <trkpt lat="46.9412" lon="2.2716">
        <ele>133</ele>
        <time>2018-04-16T17:02:58Z</time>
      </trkpt>
      <trkpt lat="46.94105" lon="2.27172">
        <ele>133</ele>
        <time>2018-04-16T17:03:00Z</time>
      </trkpt>
      <trkpt lat="46.94088" lon="2.27177">
        <ele>133</ele>
        <time>2018-04-16T17:03:02Z</time>
      </trkpt>
      <trkpt lat="46.94071" lon="2.27175">
        <ele>132</ele>
        <time>2018-04-16T17:03:04Z</time>
      </trkpt>
      <trkpt lat="46.94048" lon="2.27165">
        <ele>131</ele>
        <time>2018-04-16T17:03:07Z</time>
      </trkpt>
      <trkpt lat="46.94004" lon="2.27117">
        <ele>130</ele>
        <time>2018-04-16T17:03:14Z</time>
      </trkpt>
      <trkpt lat="46.93958" lon="2.27067">
        <ele>128</ele>
        <time>2018-04-16T17:03:24Z</time>
      </trkpt>
      <trkpt lat="46.93948" lon="2.27054">
        <ele>128</ele>
        <time>2018-04-16T17:03:28Z</time>
      </trkpt>
      <trkpt lat="46.93931" lon="2.27032">
        <ele>127</ele>
        <time>2018-04-16T17:03:36Z</time>
      </trkpt>
      <trkpt lat="46.93887" lon="2.26982">
        <ele>127</ele>
        <time>2018-04-16T17:03:51Z</time>
      </trkpt>
      <trkpt lat="46.9385" lon="2.2694">
        <ele>128</ele>
        <time>2018-04-16T17:04:02Z</time>
      </trkpt>
      <trkpt lat="46.93843" lon="2.26931">
        <ele>128</ele>
        <time>2018-04-16T17:04:04Z</time>
      </trkpt>
      <trkpt lat="46.93832" lon="2.26918">
        <ele>129</ele>
        <time>2018-04-16T17:04:07Z</time>
      </trkpt>
      <trkpt lat="46.93788" lon="2.26866">
        <ele>129</ele>
        <time>2018-04-16T17:04:17Z</time>
      </trkpt>
      <trkpt lat="46.93738" lon="2.26829">
        <ele>128</ele>
        <time>2018-04-16T17:04:27Z</time>
      </trkpt>
      <trkpt lat="46.93723" lon="2.26823">
        <ele>128</ele>
        <time>2018-04-16T17:04:30Z</time>
      </trkpt>
      <trkpt lat="46.93702" lon="2.26818">
        <ele>128</ele>
        <time>2018-04-16T17:04:34Z</time>
      </trkpt>
      <trkpt lat="46.93669" lon="2.26818">
        <ele>128</ele>
        <time>2018-04-16T17:04:40Z</time>
      </trkpt>
      <trkpt lat="46.93664" lon="2.2682">
        <ele>128</ele>
        <time>2018-04-16T17:04:41Z</time>
      </trkpt>
      <trkpt lat="46.93659" lon="2.26821">
        <ele>128</ele>
        <time>2018-04-16T17:04:42Z</time>
      </trkpt>
      <trkpt lat="46.93627" lon="2.26829">
        <ele>128</ele>
        <time>2018-04-16T17:04:49Z</time>
      </trkpt>
      <trkpt lat="46.93615" lon="2.26833">
        <ele>128</ele>
        <time>2018-04-16T17:04:52Z</time>
      </trkpt>
      <trkpt lat="46.93582" lon="2.2684">
        <ele>129</ele>
        <time>2018-04-16T17:05:05Z</time>
      </trkpt>
      <trkpt lat="46.93588" lon="2.26833">
        <ele>128</ele>
        <time>2018-04-16T17:05:22Z</time>
      </trkpt>
      <trkpt lat="46.93624" lon="2.26824">
        <ele>128</ele>
        <time>2018-04-16T17:05:31Z</time>
      </trkpt>
      <trkpt lat="46.93681" lon="2.26813">
        <ele>128</ele>
        <time>2018-04-16T17:05:41Z</time>
      </trkpt>
      <trkpt lat="46.93706" lon="2.26806">
        <ele>128</ele>
        <time>2018-04-16T17:05:46Z</time>
      </trkpt>
      <trkpt lat="46.93716" lon="2.26804">
        <ele>128</ele>
        <time>2018-04-16T17:05:48Z</time>
      </trkpt>
      <trkpt lat="46.93725" lon="2.26799">
        <ele>128</ele>
        <time>2018-04-16T17:05:50Z</time>
      </trkpt>
      <trkpt lat="46.93732" lon="2.26784">
        <ele>127</ele>
        <time>2018-04-16T17:05:53Z</time>
      </trkpt>
      <trkpt lat="46.9374" lon="2.2676">
        <ele>127</ele>
        <time>2018-04-16T17:06:41Z</time>
      </trkpt>
      <trkpt lat="46.9374" lon="2.2676">
        <ele>127</ele>
        <time>2018-04-16T17:06:55Z</time>
      </trkpt>
      <trkpt lat="46.9374" lon="2.2676">
        <ele>127</ele>
        <time>2018-04-16T17:06:59Z</time>
      </trkpt>
      <trkpt lat="46.9374" lon="2.2676">
        <ele>127</ele>
        <time>2018-04-16T17:07:00Z</time>
      </trkpt>
      <trkpt lat="46.9374" lon="2.2676">
        <ele>127</ele>
        <time>2018-04-16T17:07:03Z</time>
      </trkpt>
      <trkpt lat="46.9374" lon="2.2676">
        <ele>127</ele>
        <time>2018-04-16T17:07:28Z</time>
      </trkpt>
      <trkpt lat="46.9374" lon="2.2676">
        <ele>127</ele>
        <time>2018-04-16T17:07:29Z</time>
      </trkpt>
      <trkpt lat="46.9374" lon="2.2676">
        <ele>127</ele>
        <time>2018-04-16T17:07:36Z</time>
      </trkpt>
      <trkpt lat="46.9374" lon="2.2676">
        <ele>127</ele>
        <time>2018-04-16T17:07:37Z</time>
      </trkpt>
      <trkpt lat="46.9374" lon="2.2676">
        <ele>127</ele>
        <time>2018-04-16T17:07:49Z</time>
      </trkpt>
      <trkpt lat="46.9374" lon="2.2676">
        <ele>127</ele>
        <time>2018-04-16T17:07:53Z</time>
      </trkpt>
      <trkpt lat="46.93743" lon="2.26751">
        <ele>127</ele>
        <time>2018-04-16T17:08:02Z</time>
      </trkpt>
      <trkpt lat="46.9375" lon="2.26721">
        <ele>127</ele>
        <time>2018-04-16T17:08:10Z</time>
      </trkpt>
      <trkpt lat="46.93756" lon="2.26696">
        <ele>127</ele>
        <time>2018-04-16T17:08:16Z</time>
      </trkpt>
      <trkpt lat="46.93775" lon="2.26621">
        <ele>126</ele>
        <time>2018-04-16T17:08:30Z</time>
      </trkpt>
      <trkpt lat="46.93783" lon="2.26593">
        <ele>126</ele>
        <time>2018-04-16T17:08:35Z</time>
      </trkpt>
      <trkpt lat="46.9379" lon="2.2657">
        <ele>125</ele>
        <time>2018-04-16T17:08:40Z</time>
      </trkpt>
      <trkpt lat="46.93802" lon="2.26531">
        <ele>125</ele>
        <time>2018-04-16T17:08:48Z</time>
      </trkpt>
      <trkpt lat="46.93824" lon="2.26455">
        <ele>126</ele>
        <time>2018-04-16T17:09:02Z</time>
      </trkpt>
      <trkpt lat="46.93857" lon="2.26389">
        <ele>128</ele>
        <time>2018-04-16T17:09:15Z</time>
      </trkpt>
      <trkpt lat="46.93892" lon="2.26322">
        <ele>127</ele>
        <time>2018-04-16T17:09:28Z</time>
      </trkpt>
      <trkpt lat="46.93922" lon="2.26257">
        <ele>128</ele>
        <time>2018-04-16T17:09:41Z</time>
      </trkpt>
      <trkpt lat="46.93893" lon="2.26193">
        <ele>127</ele>
        <time>2018-04-16T17:09:54Z</time>
      </trkpt>
      <trkpt lat="46.93864" lon="2.26152">
        <ele>126</ele>
        <time>2018-04-16T17:10:03Z</time>
      </trkpt>
      <trkpt lat="46.93823" lon="2.26109">
        <ele>127</ele>
        <time>2018-04-16T17:10:15Z</time>
      </trkpt>
      <trkpt lat="46.93792" lon="2.26074">
        <ele>129</ele>
        <time>2018-04-16T17:11:18Z</time>
      </trkpt>
      <trkpt lat="46.9379" lon="2.26075">
        <ele>129</ele>
        <time>2018-04-16T17:11:26Z</time>
      </trkpt>
      <trkpt lat="46.93784" lon="2.26074">
        <ele>129</ele>
        <time>2018-04-16T17:11:35Z</time>
      </trkpt>
      <trkpt lat="46.93785" lon="2.26074">
        <ele>129</ele>
        <time>2018-04-16T17:11:51Z</time>
      </trkpt>
      <trkpt lat="46.93785" lon="2.26074">
        <ele>129</ele>
        <time>2018-04-16T17:12:00Z</time>
      </trkpt>
      <trkpt lat="46.93785" lon="2.26074">
        <ele>129</ele>
        <time>2018-04-16T17:12:04Z</time>
      </trkpt>
      <trkpt lat="46.93784" lon="2.26074">
        <ele>129</ele>
        <time>2018-04-16T17:12:27Z</time>
      </trkpt>
      <trkpt lat="46.93785" lon="2.26074">
        <ele>129</ele>
        <time>2018-04-16T17:12:37Z</time>
      </trkpt>
      <trkpt lat="46.93785" lon="2.26074">
        <ele>129</ele>
        <time>2018-04-16T17:12:49Z</time>
      </trkpt>
      <trkpt lat="46.93785" lon="2.26074">
        <ele>129</ele>
        <time>2018-04-16T17:12:56Z</time>
      </trkpt>
      <trkpt lat="46.93785" lon="2.26074">
        <ele>129</ele>
        <time>2018-04-16T17:13:11Z</time>
      </trkpt>
      <trkpt lat="46.93785" lon="2.26074">
        <ele>129</ele>
        <time>2018-04-16T17:13:36Z</time>
      </trkpt>
      <trkpt lat="46.93785" lon="2.26074">
        <ele>129</ele>
        <time>2018-04-16T17:13:46Z</time>
      </trkpt>
      <trkpt lat="46.93785" lon="2.26074">
        <ele>129</ele>
        <time>2018-04-16T17:13:54Z</time>
      </trkpt>
      <trkpt lat="46.93785" lon="2.26074">
        <ele>129</ele>
        <time>2018-04-16T17:14:05Z</time>
      </trkpt>
      <trkpt lat="46.93786" lon="2.26077">
        <ele>129</ele>
        <time>2018-04-16T17:14:08Z</time>
      </trkpt>
      <trkpt lat="46.93784" lon="2.26081">
        <ele>129</ele>
        <time>2018-04-16T17:14:12Z</time>
      </trkpt>
      <trkpt lat="46.93778" lon="2.26092">
        <ele>128</ele>
        <time>2018-04-16T17:14:16Z</time>
      </trkpt>
      <trkpt lat="46.93774" lon="2.261">
        <ele>128</ele>
        <time>2018-04-16T17:14:18Z</time>
      </trkpt>
      <trkpt lat="46.93744" lon="2.26163">
        <ele>130</ele>
        <time>2018-04-16T17:14:33Z</time>
      </trkpt>
      <trkpt lat="46.93741" lon="2.26166">
        <ele>130</ele>
        <time>2018-04-16T17:14:35Z</time>
      </trkpt>
      <trkpt lat="46.93738" lon="2.26166">
        <ele>130</ele>
        <time>2018-04-16T17:14:42Z</time>
      </trkpt>
      <trkpt lat="46.93738" lon="2.26166">
        <ele>130</ele>
        <time>2018-04-16T17:14:43Z</time>
      </trkpt>
      <trkpt lat="46.93741" lon="2.26161">
        <ele>130</ele>
        <time>2018-04-16T17:14:49Z</time>
      </trkpt>
      <trkpt lat="46.93751" lon="2.2614">
        <ele>128</ele>
        <time>2018-04-16T17:14:54Z</time>
      </trkpt>
      <trkpt lat="46.9377" lon="2.26102">
        <ele>128</ele>
        <time>2018-04-16T17:15:01Z</time>
      </trkpt>
      <trkpt lat="46.93786" lon="2.26069">
        <ele>129</ele>
        <time>2018-04-16T17:15:07Z</time>
      </trkpt>
      <trkpt lat="46.93791" lon="2.26058">
        <ele>129</ele>
        <time>2018-04-16T17:15:09Z</time>
      </trkpt>
      <trkpt lat="46.93796" lon="2.26048">
        <ele>129</ele>
        <time>2018-04-16T17:15:11Z</time>
      </trkpt>
      <trkpt lat="46.93833" lon="2.25985">
        <ele>130</ele>
        <time>2018-04-16T17:15:27Z</time>
      </trkpt>
      <trkpt lat="46.93867" lon="2.25952">
        <ele>129</ele>
        <time>2018-04-16T17:15:47Z</time>
      </trkpt>
      <trkpt lat="46.93867" lon="2.25949">
        <ele>129</ele>
        <time>2018-04-16T17:16:07Z</time>
      </trkpt>
      <trkpt lat="46.93861" lon="2.25876">
        <ele>135</ele>
        <time>2018-04-16T17:16:24Z</time>
      </trkpt>
      <trkpt lat="46.93869" lon="2.25864">
        <ele>136</ele>
        <time>2018-04-16T17:16:30Z</time>
      </trkpt>
      <trkpt lat="46.9387" lon="2.25863">
        <ele>136</ele>
        <time>2018-04-16T17:16:31Z</time>
      </trkpt>
      <trkpt lat="46.93872" lon="2.2586">
        <ele>136</ele>
        <time>2018-04-16T17:16:33Z</time>
      </trkpt>
      <trkpt lat="46.93874" lon="2.25856">
        <ele>136</ele>
        <time>2018-04-16T17:16:36Z</time>
      </trkpt>
      <trkpt lat="46.93877" lon="2.2585">
        <ele>136</ele>
        <time>2018-04-16T17:16:39Z</time>
      </trkpt>
      <trkpt lat="46.93879" lon="2.25844">
        <ele>136</ele>
        <time>2018-04-16T17:16:42Z</time>
      </trkpt>
      <trkpt lat="46.93883" lon="2.25835">
        <ele>137</ele>
        <time>2018-04-16T17:16:47Z</time>
      </trkpt>
      <trkpt lat="46.93884" lon="2.25833">
        <ele>141</ele>
        <time>2018-04-16T17:16:48Z</time>
      </trkpt>
      <trkpt lat="46.93886" lon="2.25829">
        <ele>141</ele>
        <time>2018-04-16T17:16:50Z</time>
      </trkpt>
      <trkpt lat="46.93899" lon="2.25795">
        <ele>142</ele>
        <time>2018-04-16T17:17:05Z</time>
      </trkpt>
      <trkpt lat="46.93912" lon="2.25768">
        <ele>143</ele>
        <time>2018-04-16T17:17:19Z</time>
      </trkpt>
      <trkpt lat="46.93937" lon="2.25714">
        <ele>146</ele>
        <time>2018-04-16T17:17:46Z</time>
      </trkpt>
      <trkpt lat="46.93939" lon="2.25697">
        <ele>147</ele>
        <time>2018-04-16T17:17:53Z</time>
      </trkpt>
      <trkpt lat="46.9394" lon="2.25689">
        <ele>147</ele>
        <time>2018-04-16T17:17:56Z</time>
      </trkpt>
      <trkpt lat="46.93942" lon="2.25675">
        <ele>148</ele>
        <time>2018-04-16T17:18:02Z</time>
      </trkpt>
      <trkpt lat="46.93943" lon="2.25667">
        <ele>148</ele>
        <time>2018-04-16T17:18:05Z</time>
      </trkpt>
      <trkpt lat="46.93948" lon="2.25647">
        <ele>150</ele>
        <time>2018-04-16T17:18:14Z</time>
      </trkpt>
      <trkpt lat="46.93953" lon="2.25624">
        <ele>149</ele>
        <time>2018-04-16T17:18:38Z</time>
      </trkpt>
      <trkpt lat="46.93953" lon="2.25624">
        <ele>149</ele>
        <time>2018-04-16T17:19:42Z</time>
      </trkpt>
      <trkpt lat="46.93957" lon="2.25625">
        <ele>150</ele>
        <time>2018-04-16T17:19:45Z</time>
      </trkpt>
      <trkpt lat="46.9398" lon="2.25626">
        <ele>149</ele>
        <time>2018-04-16T17:19:56Z</time>
      </trkpt>
      <trkpt lat="46.93986" lon="2.25627">
        <ele>149</ele>
        <time>2018-04-16T17:19:59Z</time>
      </trkpt>
      <trkpt lat="46.93988" lon="2.25627">
        <ele>149</ele>
        <time>2018-04-16T17:20:00Z</time>
      </trkpt>
      <trkpt lat="46.93991" lon="2.25627">
        <ele>149</ele>
        <time>2018-04-16T17:20:01Z</time>
      </trkpt>
      <trkpt lat="46.93995" lon="2.25627">
        <ele>149</ele>
        <time>2018-04-16T17:20:03Z</time>
      </trkpt>
      <trkpt lat="46.93997" lon="2.25627">
        <ele>149</ele>
        <time>2018-04-16T17:20:04Z</time>
      </trkpt>
      <trkpt lat="46.94004" lon="2.2563">
        <ele>149</ele>
        <time>2018-04-16T17:20:07Z</time>
      </trkpt>
      <trkpt lat="46.94016" lon="2.2567">
        <ele>147</ele>
        <time>2018-04-16T17:20:22Z</time>
      </trkpt>
      <trkpt lat="46.94017" lon="2.25724">
        <ele>143</ele>
        <time>2018-04-16T17:20:35Z</time>
      </trkpt>
      <trkpt lat="46.94051" lon="2.25715">
        <ele>143</ele>
        <time>2018-04-16T17:20:50Z</time>
      </trkpt>
      <trkpt lat="46.94106" lon="2.25705">
        <ele>143</ele>
        <time>2018-04-16T17:21:10Z</time>
      </trkpt>
      <trkpt lat="46.94114" lon="2.25702">
        <ele>143</ele>
        <time>2018-04-16T17:21:13Z</time>
      </trkpt>
      <trkpt lat="46.94168" lon="2.25682">
        <ele>145</ele>
        <time>2018-04-16T17:21:33Z</time>
      </trkpt>
      <trkpt lat="46.94221" lon="2.25694">
        <ele>143</ele>
        <time>2018-04-16T17:21:51Z</time>
      </trkpt>
      <trkpt lat="46.94234" lon="2.25693">
        <ele>143</ele>
        <time>2018-04-16T17:21:56Z</time>
      </trkpt>
      <trkpt lat="46.94234" lon="2.25616">
        <ele>148</ele>
        <time>2018-04-16T17:22:21Z</time>
      </trkpt>
      <trkpt lat="46.9422" lon="2.25539">
        <ele>151</ele>
        <time>2018-04-16T17:22:46Z</time>
      </trkpt>
      <trkpt lat="46.94213" lon="2.25469">
        <ele>152</ele>
        <time>2018-04-16T17:23:08Z</time>
      </trkpt>
      <trkpt lat="46.94215" lon="2.25467">
        <ele>152</ele>
        <time>2018-04-16T17:23:10Z</time>
      </trkpt>
      <trkpt lat="46.94217" lon="2.25466">
        <ele>152</ele>
        <time>2018-04-16T17:23:12Z</time>
      </trkpt>
      <trkpt lat="46.94272" lon="2.25448">
        <ele>152</ele>
        <time>2018-04-16T17:23:32Z</time>
      </trkpt>
      <trkpt lat="46.94303" lon="2.25429">
        <ele>151</ele>
        <time>2018-04-16T17:23:41Z</time>
      </trkpt>
      <trkpt lat="46.94336" lon="2.25378">
        <ele>152</ele>
        <time>2018-04-16T17:24:03Z</time>
      </trkpt>
      <trkpt lat="46.94336" lon="2.25378">
        <ele>152</ele>
        <time>2018-04-16T17:24:13Z</time>
      </trkpt>
      <trkpt lat="46.94339" lon="2.2538">
        <ele>152</ele>
        <time>2018-04-16T17:24:25Z</time>
      </trkpt>
      <trkpt lat="46.94376" lon="2.25443">
        <ele>151</ele>
        <time>2018-04-16T17:24:39Z</time>
      </trkpt>
      <trkpt lat="46.94418" lon="2.25501">
        <ele>151</ele>
        <time>2018-04-16T17:24:50Z</time>
      </trkpt>
      <trkpt lat="46.94429" lon="2.25516">
        <ele>149</ele>
        <time>2018-04-16T17:24:53Z</time>
      </trkpt>
      <trkpt lat="46.94433" lon="2.25521">
        <ele>149</ele>
        <time>2018-04-16T17:24:54Z</time>
      </trkpt>
      <trkpt lat="46.94443" lon="2.25537">
        <ele>148</ele>
        <time>2018-04-16T17:24:57Z</time>
      </trkpt>
      <trkpt lat="46.9445" lon="2.25548">
        <ele>148</ele>
        <time>2018-04-16T17:24:59Z</time>
      </trkpt>
      <trkpt lat="46.94454" lon="2.25554">
        <ele>148</ele>
        <time>2018-04-16T17:25:00Z</time>
      </trkpt>
      <trkpt lat="46.94479" lon="2.25593">
        <ele>145</ele>
        <time>2018-04-16T17:25:07Z</time>
      </trkpt>
      <trkpt lat="46.94482" lon="2.25598">
        <ele>145</ele>
        <time>2018-04-16T17:25:08Z</time>
      </trkpt>
      <trkpt lat="46.94486" lon="2.25603">
        <ele>145</ele>
        <time>2018-04-16T17:25:09Z</time>
      </trkpt>
      <trkpt lat="46.9449" lon="2.25609">
        <ele>145</ele>
        <time>2018-04-16T17:25:10Z</time>
      </trkpt>
      <trkpt lat="46.94494" lon="2.25614">
        <ele>145</ele>
        <time>2018-04-16T17:25:11Z</time>
      </trkpt>
      <trkpt lat="46.94513" lon="2.25635">
        <ele>143</ele>
        <time>2018-04-16T17:25:16Z</time>
      </trkpt>
      <trkpt lat="46.9452" lon="2.25641">
        <ele>143</ele>
        <time>2018-04-16T17:25:18Z</time>
      </trkpt>
      <trkpt lat="46.94533" lon="2.25649">
        <ele>143</ele>
        <time>2018-04-16T17:25:23Z</time>
      </trkpt>
      <trkpt lat="46.94552" lon="2.25651">
        <ele>143</ele>
        <time>2018-04-16T17:25:30Z</time>
      </trkpt>
      <trkpt lat="46.94598" lon="2.25636">
        <ele>140</ele>
        <time>2018-04-16T17:25:45Z</time>
      </trkpt>
      <trkpt lat="46.94642" lon="2.25595">
        <ele>138</ele>
        <time>2018-04-16T17:26:19Z</time>
      </trkpt>
      <trkpt lat="46.94642" lon="2.25595">
        <ele>138</ele>
        <time>2018-04-16T17:26:37Z</time>
      </trkpt>
      <trkpt lat="46.94642" lon="2.25595">
        <ele>138</ele>
        <time>2018-04-16T17:26:42Z</time>
      </trkpt>
      <trkpt lat="46.94642" lon="2.25595">
        <ele>138</ele>
        <time>2018-04-16T17:26:43Z</time>
      </trkpt>
      <trkpt lat="46.94642" lon="2.25595">
        <ele>138</ele>
        <time>2018-04-16T17:26:44Z</time>
      </trkpt>
      <trkpt lat="46.94642" lon="2.25595">
        <ele>138</ele>
        <time>2018-04-16T17:26:45Z</time>
      </trkpt>
      <trkpt lat="46.94642" lon="2.25595">
        <ele>138</ele>
        <time>2018-04-16T17:26:46Z</time>
      </trkpt>
      <trkpt lat="46.94642" lon="2.25595">
        <ele>138</ele>
        <time>2018-04-16T17:26:56Z</time>
      </trkpt>
      <trkpt lat="46.94647" lon="2.25586">
        <ele>138</ele>
        <time>2018-04-16T17:27:44Z</time>
      </trkpt>
      <trkpt lat="46.94649" lon="2.25581">
        <ele>137</ele>
        <time>2018-04-16T17:27:45Z</time>
      </trkpt>
      <trkpt lat="46.94651" lon="2.25575">
        <ele>137</ele>
        <time>2018-04-16T17:27:46Z</time>
      </trkpt>
      <trkpt lat="46.94659" lon="2.25557">
        <ele>137</ele>
        <time>2018-04-16T17:27:49Z</time>
      </trkpt>
      <trkpt lat="46.94669" lon="2.25536">
        <ele>134</ele>
        <time>2018-04-16T17:27:52Z</time>
      </trkpt>
      <trkpt lat="46.94673" lon="2.25529">
        <ele>134</ele>
        <time>2018-04-16T17:27:53Z</time>
      </trkpt>
      <trkpt lat="46.9468" lon="2.25514">
        <ele>134</ele>
        <time>2018-04-16T17:27:55Z</time>
      </trkpt>
      <trkpt lat="46.94698" lon="2.25477">
        <ele>134</ele>
        <time>2018-04-16T17:28:00Z</time>
      </trkpt>
      <trkpt lat="46.94708" lon="2.25456">
        <ele>133</ele>
        <time>2018-04-16T17:28:03Z</time>
      </trkpt>
      <trkpt lat="46.94718" lon="2.25437">
        <ele>134</ele>
        <time>2018-04-16T17:28:06Z</time>
      </trkpt>
      <trkpt lat="46.9475" lon="2.25371">
        <ele>135</ele>
        <time>2018-04-16T17:28:19Z</time>
      </trkpt>
      <trkpt lat="46.94761" lon="2.25347">
        <ele>138</ele>
        <time>2018-04-16T17:28:25Z</time>
      </trkpt>
      <trkpt lat="46.94766" lon="2.25337">
        <ele>138</ele>
        <time>2018-04-16T17:28:28Z</time>
      </trkpt>
      <trkpt lat="46.94772" lon="2.25326">
        <ele>140</ele>
        <time>2018-04-16T17:28:31Z</time>
      </trkpt>
      <trkpt lat="46.94803" lon="2.25257">
        <ele>142</ele>
        <time>2018-04-16T17:28:50Z</time>
      </trkpt>
      <trkpt lat="46.94805" lon="2.25254">
        <ele>142</ele>
        <time>2018-04-16T17:28:51Z</time>
      </trkpt>
      <trkpt lat="46.94806" lon="2.25251">
        <ele>142</ele>
        <time>2018-04-16T17:28:52Z</time>
      </trkpt>
      <trkpt lat="46.94807" lon="2.25248">
        <ele>144</ele>
        <time>2018-04-16T17:28:53Z</time>
      </trkpt>
      <trkpt lat="46.94818" lon="2.25224">
        <ele>145</ele>
        <time>2018-04-16T17:29:00Z</time>
      </trkpt>
      <trkpt lat="46.94839" lon="2.25183">
        <ele>147</ele>
        <time>2018-04-16T17:29:12Z</time>
      </trkpt>
      <trkpt lat="46.94841" lon="2.2518">
        <ele>147</ele>
        <time>2018-04-16T17:29:13Z</time>
      </trkpt>
      <trkpt lat="46.94844" lon="2.25173">
        <ele>147</ele>
        <time>2018-04-16T17:29:15Z</time>
      </trkpt>
      <trkpt lat="46.94846" lon="2.25169">
        <ele>147</ele>
        <time>2018-04-16T17:29:16Z</time>
      </trkpt>
      <trkpt lat="46.94847" lon="2.25166">
        <ele>148</ele>
        <time>2018-04-16T17:29:17Z</time>
      </trkpt>
      <trkpt lat="46.94867" lon="2.25128">
        <ele>149</ele>
        <time>2018-04-16T17:29:28Z</time>
      </trkpt>
      <trkpt lat="46.9487" lon="2.25122">
        <ele>149</ele>
        <time>2018-04-16T17:29:30Z</time>
      </trkpt>
      <trkpt lat="46.94883" lon="2.25097">
        <ele>149</ele>
        <time>2018-04-16T17:29:37Z</time>
      </trkpt>
      <trkpt lat="46.94889" lon="2.25082">
        <ele>151</ele>
        <time>2018-04-16T17:29:41Z</time>
      </trkpt>
      <trkpt lat="46.94923" lon="2.25015">
        <ele>153</ele>
        <time>2018-04-16T17:29:59Z</time>
      </trkpt>
      <trkpt lat="46.94947" lon="2.24968">
        <ele>153</ele>
        <time>2018-04-16T17:30:09Z</time>
      </trkpt>
      <trkpt lat="46.9496" lon="2.24944">
        <ele>153</ele>
        <time>2018-04-16T17:30:14Z</time>
      </trkpt>
      <trkpt lat="46.94972" lon="2.24924">
        <ele>152</ele>
        <time>2018-04-16T17:30:18Z</time>
      </trkpt>
      <trkpt lat="46.95" lon="2.24852">
        <ele>152</ele>
        <time>2018-04-16T17:30:31Z</time>
      </trkpt>
      <trkpt lat="46.95027" lon="2.24789">
        <ele>153</ele>
        <time>2018-04-16T17:30:44Z</time>
      </trkpt>
      <trkpt lat="46.95039" lon="2.24767">
        <ele>153</ele>
        <time>2018-04-16T17:30:51Z</time>
      </trkpt>
      <trkpt lat="46.95043" lon="2.24768">
        <ele>153</ele>
        <time>2018-04-16T17:30:53Z</time>
      </trkpt>
      <trkpt lat="46.95084" lon="2.24815">
        <ele>153</ele>
        <time>2018-04-16T17:31:08Z</time>
      </trkpt>
      <trkpt lat="46.95087" lon="2.24819">
        <ele>153</ele>
        <time>2018-04-16T17:31:09Z</time>
      </trkpt>
      <trkpt lat="46.95091" lon="2.24822">
        <ele>153</ele>
        <time>2018-04-16T17:31:10Z</time>
      </trkpt>
      <trkpt lat="46.9511" lon="2.24843">
        <ele>153</ele>
        <time>2018-04-16T17:31:16Z</time>
      </trkpt>
      <trkpt lat="46.95151" lon="2.24889">
        <ele>154</ele>
        <time>2018-04-16T17:31:29Z</time>
      </trkpt>
      <trkpt lat="46.95166" lon="2.24906">
        <ele>154</ele>
        <time>2018-04-16T17:31:34Z</time>
      </trkpt>
      <trkpt lat="46.95211" lon="2.24956">
        <ele>153</ele>
        <time>2018-04-16T17:31:48Z</time>
      </trkpt>
      <trkpt lat="46.95227" lon="2.24973">
        <ele>153</ele>
        <time>2018-04-16T17:31:53Z</time>
      </trkpt>
      <trkpt lat="46.95278" lon="2.25008">
        <ele>152</ele>
        <time>2018-04-16T17:32:07Z</time>
      </trkpt>
      <trkpt lat="46.95293" lon="2.25014">
        <ele>152</ele>
        <time>2018-04-16T17:32:11Z</time>
      </trkpt>
      <trkpt lat="46.9533" lon="2.25022">
        <ele>152</ele>
        <time>2018-04-16T17:32:19Z</time>
      </trkpt>
      <trkpt lat="46.95344" lon="2.25024">
        <ele>151</ele>
        <time>2018-04-16T17:32:22Z</time>
      </trkpt>
      <trkpt lat="46.95348" lon="2.25025">
        <ele>151</ele>
        <time>2018-04-16T17:32:23Z</time>
      </trkpt>
      <trkpt lat="46.95383" lon="2.25031">
        <ele>151</ele>
        <time>2018-04-16T17:32:33Z</time>
      </trkpt>
      <trkpt lat="46.95384" lon="2.25035">
        <ele>151</ele>
        <time>2018-04-16T17:32:35Z</time>
      </trkpt>
      <trkpt lat="46.95386" lon="2.25059">
        <ele>151</ele>
        <time>2018-04-16T17:32:45Z</time>
      </trkpt>
      <trkpt lat="46.95419" lon="2.25068">
        <ele>151</ele>
        <time>2018-04-16T17:32:58Z</time>
      </trkpt>
      <trkpt lat="46.95431" lon="2.25043">
        <ele>152</ele>
        <time>2018-04-16T17:33:06Z</time>
      </trkpt>
      <trkpt lat="46.95448" lon="2.25042">
        <ele>152</ele>
        <time>2018-04-16T17:33:12Z</time>
      </trkpt>
      <trkpt lat="46.95505" lon="2.25052">
        <ele>152</ele>
        <time>2018-04-16T17:33:31Z</time>
      </trkpt>
      <trkpt lat="46.95526" lon="2.25058">
        <ele>151</ele>
        <time>2018-04-16T17:33:38Z</time>
      </trkpt>
      <trkpt lat="46.95554" lon="2.25063">
        <ele>151</ele>
        <time>2018-04-16T17:34:04Z</time>
      </trkpt>
      <trkpt lat="46.95554" lon="2.25063">
        <ele>151</ele>
        <time>2018-04-16T17:34:05Z</time>
      </trkpt>
      <trkpt lat="46.95554" lon="2.25063">
        <ele>151</ele>
        <time>2018-04-16T17:34:07Z</time>
      </trkpt>
      <trkpt lat="46.95554" lon="2.25063">
        <ele>151</ele>
        <time>2018-04-16T17:34:09Z</time>
      </trkpt>
      <trkpt lat="46.95554" lon="2.25063">
        <ele>151</ele>
        <time>2018-04-16T17:34:11Z</time>
      </trkpt>
      <trkpt lat="46.95554" lon="2.25063">
        <ele>151</ele>
        <time>2018-04-16T17:34:36Z</time>
      </trkpt>
      <trkpt lat="46.95602" lon="2.25072">
        <ele>149</ele>
        <time>2018-04-16T17:35:02Z</time>
      </trkpt>
      <trkpt lat="46.9562" lon="2.25075">
        <ele>149</ele>
        <time>2018-04-16T17:35:08Z</time>
      </trkpt>
      <trkpt lat="46.95643" lon="2.25079">
        <ele>148</ele>
        <time>2018-04-16T17:35:14Z</time>
      </trkpt>
      <trkpt lat="46.957" lon="2.25089">
        <ele>146</ele>
        <time>2018-04-16T17:35:27Z</time>
      </trkpt>
      <trkpt lat="46.95737" lon="2.25096">
        <ele>147</ele>
        <time>2018-04-16T17:35:35Z</time>
      </trkpt>
      <trkpt lat="46.95769" lon="2.25102">
        <ele>147</ele>
        <time>2018-04-16T17:35:44Z</time>
      </trkpt>
      <trkpt lat="46.95775" lon="2.25103">
        <ele>147</ele>
        <time>2018-04-16T17:35:48Z</time>
      </trkpt>
      <trkpt lat="46.95791" lon="2.25108">
        <ele>147</ele>
        <time>2018-04-16T17:36:12Z</time>
      </trkpt>
      <trkpt lat="46.95791" lon="2.25108">
        <ele>147</ele>
        <time>2018-04-16T17:36:35Z</time>
      </trkpt>
      <trkpt lat="46.95791" lon="2.25108">
        <ele>147</ele>
        <time>2018-04-16T17:36:39Z</time>
      </trkpt>
      <trkpt lat="46.95791" lon="2.25108">
        <ele>147</ele>
        <time>2018-04-16T17:36:47Z</time>
      </trkpt>
      <trkpt lat="46.95791" lon="2.25108">
        <ele>147</ele>
        <time>2018-04-16T17:36:48Z</time>
      </trkpt>
      <trkpt lat="46.95791" lon="2.25108">
        <ele>147</ele>
        <time>2018-04-16T17:36:50Z</time>
      </trkpt>
      <trkpt lat="46.95791" lon="2.25108">
        <ele>147</ele>
        <time>2018-04-16T17:36:55Z</time>
      </trkpt>
      <trkpt lat="46.95791" lon="2.25108">
        <ele>147</ele>
        <time>2018-04-16T17:36:59Z</time>
      </trkpt>
      <trkpt lat="46.95791" lon="2.25108">
        <ele>147</ele>
        <time>2018-04-16T17:37:16Z</time>
      </trkpt>
      <trkpt lat="46.95791" lon="2.25108">
        <ele>147</ele>
        <time>2018-04-16T17:37:17Z</time>
      </trkpt>
      <trkpt lat="46.95791" lon="2.25109">
        <ele>147</ele>
        <time>2018-04-16T17:37:19Z</time>
      </trkpt>
      <trkpt lat="46.9578" lon="2.25102">
        <ele>147</ele>
        <time>2018-04-16T17:37:33Z</time>
      </trkpt>
      <trkpt lat="46.95788" lon="2.25089">
        <ele>147</ele>
        <time>2018-04-16T17:37:42Z</time>
      </trkpt>
      <trkpt lat="46.95792" lon="2.25085">
        <ele>147</ele>
        <time>2018-04-16T17:37:45Z</time>
      </trkpt>
      <trkpt lat="46.95798" lon="2.2508">
        <ele>149</ele>
        <time>2018-04-16T17:37:48Z</time>
      </trkpt>
      <trkpt lat="46.9581" lon="2.25067">
        <ele>149</ele>
        <time>2018-04-16T17:37:53Z</time>
      </trkpt>
      <trkpt lat="46.95843" lon="2.25033">
        <ele>149</ele>
        <time>2018-04-16T17:38:04Z</time>
      </trkpt>
      <trkpt lat="46.95874" lon="2.25004">
        <ele>149</ele>
        <time>2018-04-16T17:38:12Z</time>
      </trkpt>
      <trkpt lat="46.9588" lon="2.24995">
        <ele>149</ele>
        <time>2018-04-16T17:38:14Z</time>
      </trkpt>
      <trkpt lat="46.95894" lon="2.24961">
        <ele>149</ele>
        <time>2018-04-16T17:38:20Z</time>
      </trkpt>
      <trkpt lat="46.959" lon="2.24945">
        <ele>149</ele>
        <time>2018-04-16T17:38:23Z</time>
      </trkpt>
      <trkpt lat="46.95901" lon="2.24941">
        <ele>149</ele>
        <time>2018-04-16T17:38:24Z</time>
      </trkpt>
      <trkpt lat="46.95903" lon="2.24936">
        <ele>149</ele>
        <time>2018-04-16T17:38:25Z</time>
      </trkpt>
      <trkpt lat="46.95904" lon="2.24931">
        <ele>149</ele>
        <time>2018-04-16T17:38:26Z</time>
      </trkpt>
      <trkpt lat="46.95939" lon="2.24878">
        <ele>149</ele>
        <time>2018-04-16T17:38:42Z</time>
      </trkpt>
      <trkpt lat="46.95988" lon="2.2484">
        <ele>148</ele>
        <time>2018-04-16T17:38:55Z</time>
      </trkpt>
      <trkpt lat="46.96024" lon="2.24815">
        <ele>147</ele>
        <time>2018-04-16T17:39:04Z</time>
      </trkpt>
      <trkpt lat="46.9604" lon="2.24804">
        <ele>146</ele>
        <time>2018-04-16T17:39:08Z</time>
      </trkpt>
      <trkpt lat="46.96076" lon="2.24778">
        <ele>146</ele>
        <time>2018-04-16T17:39:15Z</time>
      </trkpt>
      <trkpt lat="46.96112" lon="2.24755">
        <ele>144</ele>
        <time>2018-04-16T17:39:21Z</time>
      </trkpt>
      <trkpt lat="46.96163" lon="2.2472">
        <ele>145</ele>
        <time>2018-04-16T17:39:34Z</time>
      </trkpt>
      <trkpt lat="46.96194" lon="2.247">
        <ele>144</ele>
        <time>2018-04-16T17:39:46Z</time>
      </trkpt>
      <trkpt lat="46.9621" lon="2.24685">
        <ele>144</ele>
        <time>2018-04-16T17:39:56Z</time>
      </trkpt>
      <trkpt lat="46.96259" lon="2.24652">
        <ele>142</ele>
        <time>2018-04-16T17:40:19Z</time>
      </trkpt>
      <trkpt lat="46.96265" lon="2.2465">
        <ele>141</ele>
        <time>2018-04-16T17:40:31Z</time>
      </trkpt>
      <trkpt lat="46.96265" lon="2.2465">
        <ele>141</ele>
        <time>2018-04-16T17:40:40Z</time>
      </trkpt>
      <trkpt lat="46.96265" lon="2.2465">
        <ele>141</ele>
        <time>2018-04-16T17:40:41Z</time>
      </trkpt>
      <trkpt lat="46.96265" lon="2.2465">
        <ele>141</ele>
        <time>2018-04-16T17:40:42Z</time>
      </trkpt>
      <trkpt lat="46.96265" lon="2.2465">
        <ele>141</ele>
        <time>2018-04-16T17:40:52Z</time>
      </trkpt>
      <trkpt lat="46.96265" lon="2.2465">
        <ele>141</ele>
        <time>2018-04-16T17:41:06Z</time>
      </trkpt>
      <trkpt lat="46.96265" lon="2.2465">
        <ele>141</ele>
        <time>2018-04-16T17:41:11Z</time>
      </trkpt>
      <trkpt lat="46.96265" lon="2.2465">
        <ele>141</ele>
        <time>2018-04-16T17:41:23Z</time>
      </trkpt>
      <trkpt lat="46.96265" lon="2.2465">
        <ele>141</ele>
        <time>2018-04-16T17:41:28Z</time>
      </trkpt>
      <trkpt lat="46.96265" lon="2.2465">
        <ele>141</ele>
        <time>2018-04-16T17:41:32Z</time>
      </trkpt>
      <trkpt lat="46.96265" lon="2.2465">
        <ele>141</ele>
        <time>2018-04-16T17:41:33Z</time>
      </trkpt>
      <trkpt lat="46.96265" lon="2.2465">
        <ele>141</ele>
        <time>2018-04-16T17:41:35Z</time>
      </trkpt>
      <trkpt lat="46.96265" lon="2.2465">
        <ele>141</ele>
        <time>2018-04-16T17:41:36Z</time>
      </trkpt>
      <trkpt lat="46.96265" lon="2.2465">
        <ele>141</ele>
        <time>2018-04-16T17:41:37Z</time>
      </trkpt>
      <trkpt lat="46.96265" lon="2.2465">
        <ele>141</ele>
        <time>2018-04-16T17:41:50Z</time>
      </trkpt>
      <trkpt lat="46.96265" lon="2.2465">
        <ele>141</ele>
        <time>2018-04-16T17:41:54Z</time>
      </trkpt>
      <trkpt lat="46.96265" lon="2.2465">
        <ele>141</ele>
        <time>2018-04-16T17:41:58Z</time>
      </trkpt>
      <trkpt lat="46.96265" lon="2.2465">
        <ele>141</ele>
        <time>2018-04-16T17:42:05Z</time>
      </trkpt>
      <trkpt lat="46.96265" lon="2.2465">
        <ele>141</ele>
        <time>2018-04-16T17:42:07Z</time>
      </trkpt>
      <trkpt lat="46.96265" lon="2.2465">
        <ele>141</ele>
        <time>2018-04-16T17:42:08Z</time>
      </trkpt>
      <trkpt lat="46.96265" lon="2.2465">
        <ele>141</ele>
        <time>2018-04-16T17:42:09Z</time>
      </trkpt>
      <trkpt lat="46.96265" lon="2.2465">
        <ele>141</ele>
        <time>2018-04-16T17:42:11Z</time>
      </trkpt>
      <trkpt lat="46.96265" lon="2.2465">
        <ele>141</ele>
        <time>2018-04-16T17:42:12Z</time>
      </trkpt>
      <trkpt lat="46.96265" lon="2.2465">
        <ele>141</ele>
        <time>2018-04-16T17:42:13Z</time>
      </trkpt>
      <trkpt lat="46.96265" lon="2.2465">
        <ele>141</ele>
        <time>2018-04-16T17:42:23Z</time>
      </trkpt>
      <trkpt lat="46.96265" lon="2.2465">
        <ele>141</ele>
        <time>2018-04-16T17:42:26Z</time>
      </trkpt>
      <trkpt lat="46.96265" lon="2.2465">
        <ele>141</ele>
        <time>2018-04-16T17:42:27Z</time>
      </trkpt>
      <trkpt lat="46.96265" lon="2.24651">
        <ele>141</ele>
        <time>2018-04-16T17:42:40Z</time>
      </trkpt>
      <trkpt lat="46.96265" lon="2.24651">
        <ele>141</ele>
        <time>2018-04-16T17:42:41Z</time>
      </trkpt>
      <trkpt lat="46.96265" lon="2.24651">
        <ele>141</ele>
        <time>2018-04-16T17:42:51Z</time>
      </trkpt>
      <trkpt lat="46.96265" lon="2.24651">
        <ele>141</ele>
        <time>2018-04-16T17:43:08Z</time>
      </trkpt>
      <trkpt lat="46.96265" lon="2.24651">
        <ele>141</ele>
        <time>2018-04-16T17:43:18Z</time>
      </trkpt>
      <trkpt lat="46.96265" lon="2.24651">
        <ele>141</ele>
        <time>2018-04-16T17:43:27Z</time>
      </trkpt>
      <trkpt lat="46.96265" lon="2.24651">
        <ele>141</ele>
        <time>2018-04-16T17:43:28Z</time>
      </trkpt>
      <trkpt lat="46.96265" lon="2.24651">
        <ele>141</ele>
        <time>2018-04-16T17:43:32Z</time>
      </trkpt>
      <trkpt lat="46.96265" lon="2.24651">
        <ele>141</ele>
        <time>2018-04-16T17:43:35Z</time>
      </trkpt>
      <trkpt lat="46.96268" lon="2.2465">
        <ele>141</ele>
        <time>2018-04-16T17:43:37Z</time>
      </trkpt>
      <trkpt lat="46.96277" lon="2.24647">
        <ele>141</ele>
        <time>2018-04-16T17:43:40Z</time>
      </trkpt>
      <trkpt lat="46.96291" lon="2.24638">
        <ele>140</ele>
        <time>2018-04-16T17:43:44Z</time>
      </trkpt>
      <trkpt lat="46.96302" lon="2.24632">
        <ele>140</ele>
        <time>2018-04-16T17:43:47Z</time>
      </trkpt>
      <trkpt lat="46.9631" lon="2.24627">
        <ele>140</ele>
        <time>2018-04-16T17:43:49Z</time>
      </trkpt>
      <trkpt lat="46.96319" lon="2.24621">
        <ele>140</ele>
        <time>2018-04-16T17:43:51Z</time>
      </trkpt>
      <trkpt lat="46.96344" lon="2.24604">
        <ele>136</ele>
        <time>2018-04-16T17:43:56Z</time>
      </trkpt>
      <trkpt lat="46.96349" lon="2.246">
        <ele>136</ele>
        <time>2018-04-16T17:43:57Z</time>
      </trkpt>
      <trkpt lat="46.96355" lon="2.24596">
        <ele>136</ele>
        <time>2018-04-16T17:43:58Z</time>
      </trkpt>
      <trkpt lat="46.96367" lon="2.24588">
        <ele>135</ele>
        <time>2018-04-16T17:44:00Z</time>
      </trkpt>
      <trkpt lat="46.96382" lon="2.24579">
        <ele>134</ele>
        <time>2018-04-16T17:44:02Z</time>
      </trkpt>
      <trkpt lat="46.96397" lon="2.2457">
        <ele>134</ele>
        <time>2018-04-16T17:44:04Z</time>
      </trkpt>
      <trkpt lat="46.9645" lon="2.2455">
        <ele>135</ele>
        <time>2018-04-16T17:44:12Z</time>
      </trkpt>
      <trkpt lat="46.96481" lon="2.2454">
        <ele>136</ele>
        <time>2018-04-16T17:44:23Z</time>
      </trkpt>
      <trkpt lat="46.96534" lon="2.24517">
        <ele>139</ele>
        <time>2018-04-16T17:44:47Z</time>
      </trkpt>
      <trkpt lat="46.96549" lon="2.24509">
        <ele>139</ele>
        <time>2018-04-16T17:44:55Z</time>
      </trkpt>
      <trkpt lat="46.96563" lon="2.24503">
        <ele>140</ele>
        <time>2018-04-16T17:45:03Z</time>
      </trkpt>
      <trkpt lat="46.96571" lon="2.245">
        <ele>140</ele>
        <time>2018-04-16T17:45:07Z</time>
      </trkpt>
      <trkpt lat="46.96581" lon="2.24496">
        <ele>141</ele>
        <time>2018-04-16T17:45:12Z</time>
      </trkpt>
      <trkpt lat="46.96597" lon="2.24489">
        <ele>141</ele>
        <time>2018-04-16T17:45:19Z</time>
      </trkpt>
      <trkpt lat="46.966" lon="2.24488">
        <ele>141</ele>
        <time>2018-04-16T17:45:20Z</time>
      </trkpt>
      <trkpt lat="46.96602" lon="2.24487">
        <ele>141</ele>
        <time>2018-04-16T17:45:21Z</time>
      </trkpt>
      <trkpt lat="46.96605" lon="2.24487">
        <ele>141</ele>
        <time>2018-04-16T17:45:22Z</time>
      </trkpt>
      <trkpt lat="46.96607" lon="2.24486">
        <ele>141</ele>
        <time>2018-04-16T17:45:23Z</time>
      </trkpt>
      <trkpt lat="46.96628" lon="2.24477">
        <ele>141</ele>
        <time>2018-04-16T17:45:45Z</time>
      </trkpt>
      <trkpt lat="46.96651" lon="2.24451">
        <ele>141</ele>
        <time>2018-04-16T17:45:51Z</time>
      </trkpt>
      <trkpt lat="46.96663" lon="2.24441">
        <ele>141</ele>
        <time>2018-04-16T17:45:54Z</time>
      </trkpt>
      <trkpt lat="46.96705" lon="2.24437">
        <ele>144</ele>
        <time>2018-04-16T17:46:07Z</time>
      </trkpt>
      <trkpt lat="46.96761" lon="2.24445">
        <ele>148</ele>
        <time>2018-04-16T17:46:28Z</time>
      </trkpt>
      <trkpt lat="46.96816" lon="2.24437">
        <ele>148</ele>
        <time>2018-04-16T17:46:50Z</time>
      </trkpt>
      <trkpt lat="46.96868" lon="2.24424">
        <ele>149</ele>
        <time>2018-04-16T17:47:11Z</time>
      </trkpt>
      <trkpt lat="46.96907" lon="2.24417">
        <ele>149</ele>
        <time>2018-04-16T17:47:27Z</time>
      </trkpt>
      <trkpt lat="46.96937" lon="2.24419">
        <ele>150</ele>
        <time>2018-04-16T17:47:39Z</time>
      </trkpt>
      <trkpt lat="46.96992" lon="2.24432">
        <ele>151</ele>
        <time>2018-04-16T17:48:01Z</time>
      </trkpt>
      <trkpt lat="46.97008" lon="2.24435">
        <ele>151</ele>
        <time>2018-04-16T17:48:08Z</time>
      </trkpt>
      <trkpt lat="46.97025" lon="2.24439">
        <ele>151</ele>
        <time>2018-04-16T17:48:15Z</time>
      </trkpt>
      <trkpt lat="46.97037" lon="2.24441">
        <ele>151</ele>
        <time>2018-04-16T17:48:20Z</time>
      </trkpt>
      <trkpt lat="46.97046" lon="2.24442">
        <ele>151</ele>
        <time>2018-04-16T17:48:24Z</time>
      </trkpt>
      <trkpt lat="46.97056" lon="2.24444">
        <ele>151</ele>
        <time>2018-04-16T17:48:28Z</time>
      </trkpt>
      <trkpt lat="46.97108" lon="2.24446">
        <ele>152</ele>
        <time>2018-04-16T17:48:49Z</time>
      </trkpt>
      <trkpt lat="46.9711" lon="2.24445">
        <ele>152</ele>
        <time>2018-04-16T17:48:50Z</time>
      </trkpt>
      <trkpt lat="46.97138" lon="2.24441">
        <ele>153</ele>
        <time>2018-04-16T17:49:00Z</time>
      </trkpt>
      <trkpt lat="46.97141" lon="2.2444">
        <ele>153</ele>
        <time>2018-04-16T17:49:01Z</time>
      </trkpt>
      <trkpt lat="46.97144" lon="2.2444">
        <ele>153</ele>
        <time>2018-04-16T17:49:02Z</time>
      </trkpt>
      <trkpt lat="46.97152" lon="2.24438">
        <ele>153</ele>
        <time>2018-04-16T17:49:05Z</time>
      </trkpt>
      <trkpt lat="46.97154" lon="2.24437">
        <ele>153</ele>
        <time>2018-04-16T17:49:06Z</time>
      </trkpt>
      <trkpt lat="46.97162" lon="2.24433">
        <ele>153</ele>
        <time>2018-04-16T17:49:09Z</time>
      </trkpt>
      <trkpt lat="46.97177" lon="2.24429">
        <ele>154</ele>
        <time>2018-04-16T17:49:14Z</time>
      </trkpt>
      <trkpt lat="46.97232" lon="2.24412">
        <ele>155</ele>
        <time>2018-04-16T17:49:32Z</time>
      </trkpt>
      <trkpt lat="46.97269" lon="2.244">
        <ele>154</ele>
        <time>2018-04-16T17:49:45Z</time>
      </trkpt>
      <trkpt lat="46.97304" lon="2.24388">
        <ele>153</ele>
        <time>2018-04-16T17:49:56Z</time>
      </trkpt>
      <trkpt lat="46.97307" lon="2.24387">
        <ele>153</ele>
        <time>2018-04-16T17:49:57Z</time>
      </trkpt>
      <trkpt lat="46.97313" lon="2.24385">
        <ele>153</ele>
        <time>2018-04-16T17:49:59Z</time>
      </trkpt>
      <trkpt lat="46.97339" lon="2.24374">
        <ele>152</ele>
        <time>2018-04-16T17:50:09Z</time>
      </trkpt>
      <trkpt lat="46.97382" lon="2.24359">
        <ele>152</ele>
        <time>2018-04-16T17:50:22Z</time>
      </trkpt>
      <trkpt lat="46.97438" lon="2.24341">
        <ele>153</ele>
        <time>2018-04-16T17:50:37Z</time>
      </trkpt>
      <trkpt lat="46.97474" lon="2.24324">
        <ele>152</ele>
        <time>2018-04-16T17:50:48Z</time>
      </trkpt>
      <trkpt lat="46.97493" lon="2.24317">
        <ele>153</ele>
        <time>2018-04-16T17:50:53Z</time>
      </trkpt>
      <trkpt lat="46.97543" lon="2.24295">
        <ele>154</ele>
        <time>2018-04-16T17:51:07Z</time>
      </trkpt>
      <trkpt lat="46.97596" lon="2.24265">
        <ele>154</ele>
        <time>2018-04-16T17:51:25Z</time>
      </trkpt>
      <trkpt lat="46.97602" lon="2.2426">
        <ele>154</ele>
        <time>2018-04-16T17:51:27Z</time>
      </trkpt>
      <trkpt lat="46.97604" lon="2.24258">
        <ele>154</ele>
        <time>2018-04-16T17:51:28Z</time>
      </trkpt>
      <trkpt lat="46.97613" lon="2.2425">
        <ele>154</ele>
        <time>2018-04-16T17:51:31Z</time>
      </trkpt>
      <trkpt lat="46.97615" lon="2.24248">
        <ele>155</ele>
        <time>2018-04-16T17:51:32Z</time>
      </trkpt>
      <trkpt lat="46.97618" lon="2.24245">
        <ele>155</ele>
        <time>2018-04-16T17:51:33Z</time>
      </trkpt>
      <trkpt lat="46.97646" lon="2.24239">
        <ele>154</ele>
        <time>2018-04-16T17:51:44Z</time>
      </trkpt>
      <trkpt lat="46.97651" lon="2.24239">
        <ele>154</ele>
        <time>2018-04-16T17:51:47Z</time>
      </trkpt>
      <trkpt lat="46.97653" lon="2.24239">
        <ele>154</ele>
        <time>2018-04-16T17:51:48Z</time>
      </trkpt>
      <trkpt lat="46.9766" lon="2.24239">
        <ele>154</ele>
        <time>2018-04-16T17:51:54Z</time>
      </trkpt>
      <trkpt lat="46.97663" lon="2.24239">
        <ele>154</ele>
        <time>2018-04-16T17:51:57Z</time>
      </trkpt>
      <trkpt lat="46.9767" lon="2.24243">
        <ele>154</ele>
        <time>2018-04-16T17:52:02Z</time>
      </trkpt>
      <trkpt lat="46.97671" lon="2.24243">
        <ele>154</ele>
        <time>2018-04-16T17:52:08Z</time>
      </trkpt>
      <trkpt lat="46.97671" lon="2.24243">
        <ele>154</ele>
        <time>2018-04-16T17:52:29Z</time>
      </trkpt>
      <trkpt lat="46.97671" lon="2.24243">
        <ele>154</ele>
        <time>2018-04-16T17:52:34Z</time>
      </trkpt>
      <trkpt lat="46.97671" lon="2.24243">
        <ele>154</ele>
        <time>2018-04-16T17:52:38Z</time>
      </trkpt>
      <trkpt lat="46.97671" lon="2.24243">
        <ele>154</ele>
        <time>2018-04-16T17:52:52Z</time>
      </trkpt>
      <trkpt lat="46.97671" lon="2.24243">
        <ele>154</ele>
        <time>2018-04-16T17:53:07Z</time>
      </trkpt>
      <trkpt lat="46.97671" lon="2.24243">
        <ele>154</ele>
        <time>2018-04-16T17:53:22Z</time>
      </trkpt>
      <trkpt lat="46.97671" lon="2.24243">
        <ele>154</ele>
        <time>2018-04-16T17:53:44Z</time>
      </trkpt>
      <trkpt lat="46.97671" lon="2.24243">
        <ele>154</ele>
        <time>2018-04-16T17:53:49Z</time>
      </trkpt>
      <trkpt lat="46.97671" lon="2.24243">
        <ele>154</ele>
        <time>2018-04-16T17:53:55Z</time>
      </trkpt>
      <trkpt lat="46.97671" lon="2.24243">
        <ele>154</ele>
        <time>2018-04-16T17:53:56Z</time>
      </trkpt>
      <trkpt lat="46.97671" lon="2.24243">
        <ele>154</ele>
        <time>2018-04-16T17:54:01Z</time>
      </trkpt>
      <trkpt lat="46.97671" lon="2.24243">
        <ele>154</ele>
        <time>2018-04-16T17:54:02Z</time>
      </trkpt>
      <trkpt lat="46.97671" lon="2.24243">
        <ele>154</ele>
        <time>2018-04-16T17:54:14Z</time>
      </trkpt>
      <trkpt lat="46.97671" lon="2.24243">
        <ele>154</ele>
        <time>2018-04-16T17:54:20Z</time>
      </trkpt>
      <trkpt lat="46.97671" lon="2.24243">
        <ele>154</ele>
        <time>2018-04-16T17:54:27Z</time>
      </trkpt>
      <trkpt lat="46.97671" lon="2.24243">
        <ele>154</ele>
        <time>2018-04-16T17:54:31Z</time>
      </trkpt>
      <trkpt lat="46.97671" lon="2.24243">
        <ele>154</ele>
        <time>2018-04-16T17:54:32Z</time>
      </trkpt>
      <trkpt lat="46.97671" lon="2.24243">
        <ele>154</ele>
        <time>2018-04-16T17:54:41Z</time>
      </trkpt>
      <trkpt lat="46.97671" lon="2.24243">
        <ele>154</ele>
        <time>2018-04-16T17:54:43Z</time>
      </trkpt>
      <trkpt lat="46.97671" lon="2.24243">
        <ele>154</ele>
        <time>2018-04-16T17:54:45Z</time>
      </trkpt>
      <trkpt lat="46.97671" lon="2.24243">
        <ele>154</ele>
        <time>2018-04-16T17:54:52Z</time>
      </trkpt>
      <trkpt lat="46.97671" lon="2.24243">
        <ele>154</ele>
        <time>2018-04-16T17:54:58Z</time>
      </trkpt>
      <trkpt lat="46.97671" lon="2.24243">
        <ele>154</ele>
        <time>2018-04-16T17:55:12Z</time>
      </trkpt>
      <trkpt lat="46.97671" lon="2.24243">
        <ele>154</ele>
        <time>2018-04-16T17:55:20Z</time>
      </trkpt>
      <trkpt lat="46.97671" lon="2.24243">
        <ele>154</ele>
        <time>2018-04-16T17:55:29Z</time>
      </trkpt>
      <trkpt lat="46.97671" lon="2.24243">
        <ele>154</ele>
        <time>2018-04-16T17:55:48Z</time>
      </trkpt>
      <trkpt lat="46.97671" lon="2.24245">
        <ele>154</ele>
        <time>2018-04-16T17:56:24Z</time>
      </trkpt>
      <trkpt lat="46.97671" lon="2.24245">
        <ele>154</ele>
        <time>2018-04-16T17:56:33Z</time>
      </trkpt>
      <trkpt lat="46.97672" lon="2.24245">
        <ele>154</ele>
        <time>2018-04-16T17:56:34Z</time>
      </trkpt>
      <trkpt lat="46.97672" lon="2.24246">
        <ele>154</ele>
        <time>2018-04-16T17:56:36Z</time>
      </trkpt>
      <trkpt lat="46.97672" lon="2.24246">
        <ele>154</ele>
        <time>2018-04-16T17:56:38Z</time>
      </trkpt>
      <trkpt lat="46.97672" lon="2.24246">
        <ele>154</ele>
        <time>2018-04-16T17:56:39Z</time>
      </trkpt>
      <trkpt lat="46.97673" lon="2.24245">
        <ele>154</ele>
        <time>2018-04-16T17:56:41Z</time>
      </trkpt>
      <trkpt lat="46.97673" lon="2.24245">
        <ele>154</ele>
        <time>2018-04-16T17:56:42Z</time>
      </trkpt>
      <trkpt lat="46.97673" lon="2.24245">
        <ele>154</ele>
        <time>2018-04-16T17:56:45Z</time>
      </trkpt>
      <trkpt lat="46.97673" lon="2.24245">
        <ele>154</ele>
        <time>2018-04-16T17:56:46Z</time>
      </trkpt>
      <trkpt lat="46.97673" lon="2.24245">
        <ele>154</ele>
        <time>2018-04-16T17:56:47Z</time>
      </trkpt>
      <trkpt lat="46.97673" lon="2.24245">
        <ele>154</ele>
        <time>2018-04-16T17:56:49Z</time>
      </trkpt>
      <trkpt lat="46.97673" lon="2.24245">
        <ele>154</ele>
        <time>2018-04-16T17:57:02Z</time>
      </trkpt>
      <trkpt lat="46.97673" lon="2.24245">
        <ele>154</ele>
        <time>2018-04-16T17:57:04Z</time>
      </trkpt>
      <trkpt lat="46.97673" lon="2.24245">
        <ele>154</ele>
        <time>2018-04-16T17:57:06Z</time>
      </trkpt>
      <trkpt lat="46.97673" lon="2.24245">
        <ele>154</ele>
        <time>2018-04-16T17:57:11Z</time>
      </trkpt>
      <trkpt lat="46.97673" lon="2.24245">
        <ele>154</ele>
        <time>2018-04-16T17:57:19Z</time>
      </trkpt>
      <trkpt lat="46.97673" lon="2.24245">
        <ele>154</ele>
        <time>2018-04-16T17:57:24Z</time>
      </trkpt>
      <trkpt lat="46.97673" lon="2.24245">
        <ele>154</ele>
        <time>2018-04-16T17:58:36Z</time>
      </trkpt>
      <trkpt lat="46.97673" lon="2.24245">
        <ele>154</ele>
        <time>2018-04-16T17:58:43Z</time>
      </trkpt>
      <trkpt lat="46.97673" lon="2.24245">
        <ele>154</ele>
        <time>2018-04-16T17:58:44Z</time>
      </trkpt>
      <trkpt lat="46.97673" lon="2.24244">
        <ele>154</ele>
        <time>2018-04-16T17:58:52Z</time>
      </trkpt>
      <trkpt lat="46.97673" lon="2.24244">
        <ele>154</ele>
        <time>2018-04-16T17:59:10Z</time>
      </trkpt>
      <trkpt lat="46.97673" lon="2.24244">
        <ele>154</ele>
        <time>2018-04-16T17:59:12Z</time>
      </trkpt>
      <trkpt lat="46.97673" lon="2.24244">
        <ele>154</ele>
        <time>2018-04-16T17:59:14Z</time>
      </trkpt>
      <trkpt lat="46.97673" lon="2.24244">
        <ele>154</ele>
        <time>2018-04-16T17:59:15Z</time>
      </trkpt>
      <trkpt lat="46.97673" lon="2.24244">
        <ele>154</ele>
        <time>2018-04-16T17:59:17Z</time>
      </trkpt>
      <trkpt lat="46.97673" lon="2.24244">
        <ele>154</ele>
        <time>2018-04-16T17:59:18Z</time>
      </trkpt>
      <trkpt lat="46.97673" lon="2.24244">
        <ele>154</ele>
        <time>2018-04-16T17:59:21Z</time>
      </trkpt>
      <trkpt lat="46.97673" lon="2.24244">
        <ele>154</ele>
        <time>2018-04-16T17:59:23Z</time>
      </trkpt>
      <trkpt lat="46.97673" lon="2.24244">
        <ele>154</ele>
        <time>2018-04-16T17:59:24Z</time>
      </trkpt>
      <trkpt lat="46.97673" lon="2.24244">
        <ele>154</ele>
        <time>2018-04-16T17:59:56Z</time>
      </trkpt>
      <trkpt lat="46.97673" lon="2.24244">
        <ele>154</ele>
        <time>2018-04-16T18:00:11Z</time>
      </trkpt>
      <trkpt lat="46.97673" lon="2.24243">
        <ele>154</ele>
        <time>2018-04-16T18:00:38Z</time>
      </trkpt>
      <trkpt lat="46.97673" lon="2.24243">
        <ele>154</ele>
        <time>2018-04-16T18:00:40Z</time>
      </trkpt>
      <trkpt lat="46.97673" lon="2.24243">
        <ele>154</ele>
        <time>2018-04-16T18:00:46Z</time>
      </trkpt>
      <trkpt lat="46.97673" lon="2.24243">
        <ele>154</ele>
        <time>2018-04-16T18:00:49Z</time>
      </trkpt>
      <trkpt lat="46.97673" lon="2.24243">
        <ele>154</ele>
        <time>2018-04-16T18:00:56Z</time>
      </trkpt>
      <trkpt lat="46.97673" lon="2.24243">
        <ele>154</ele>
        <time>2018-04-16T18:00:58Z</time>
      </trkpt>
      <trkpt lat="46.97673" lon="2.24243">
        <ele>154</ele>
        <time>2018-04-16T18:00:59Z</time>
      </trkpt>
      <trkpt lat="46.97673" lon="2.24243">
        <ele>154</ele>
        <time>2018-04-16T18:01:00Z</time>
      </trkpt>
      <trkpt lat="46.97673" lon="2.24243">
        <ele>154</ele>
        <time>2018-04-16T18:01:02Z</time>
      </trkpt>
      <trkpt lat="46.97673" lon="2.24244">
        <ele>154</ele>
        <time>2018-04-16T18:01:04Z</time>
      </trkpt>
      <trkpt lat="46.97674" lon="2.24244">
        <ele>154</ele>
        <time>2018-04-16T18:01:09Z</time>
      </trkpt>
      <trkpt lat="46.97674" lon="2.24244">
        <ele>154</ele>
        <time>2018-04-16T18:01:13Z</time>
      </trkpt>
      <trkpt lat="46.97674" lon="2.24244">
        <ele>154</ele>
        <time>2018-04-16T18:01:18Z</time>
      </trkpt>
      <trkpt lat="46.97674" lon="2.24244">
        <ele>154</ele>
        <time>2018-04-16T18:01:23Z</time>
      </trkpt>
      <trkpt lat="46.97674" lon="2.24244">
        <ele>154</ele>
        <time>2018-04-16T18:01:24Z</time>
      </trkpt>
      <trkpt lat="46.97674" lon="2.24244">
        <ele>154</ele>
        <time>2018-04-16T18:01:26Z</time>
      </trkpt>
      <trkpt lat="46.97674" lon="2.24245">
        <ele>154</ele>
        <time>2018-04-16T18:01:58Z</time>
      </trkpt>
      <trkpt lat="46.97674" lon="2.24245">
        <ele>154</ele>
        <time>2018-04-16T18:02:03Z</time>
      </trkpt>
      <trkpt lat="46.97674" lon="2.24245">
        <ele>154</ele>
        <time>2018-04-16T18:02:08Z</time>
      </trkpt>
      <trkpt lat="46.97674" lon="2.24245">
        <ele>154</ele>
        <time>2018-04-16T18:02:14Z</time>
      </trkpt>
      <trkpt lat="46.97674" lon="2.24245">
        <ele>154</ele>
        <time>2018-04-16T18:02:21Z</time>
      </trkpt>
      <trkpt lat="46.97674" lon="2.24245">
        <ele>154</ele>
        <time>2018-04-16T18:02:22Z</time>
      </trkpt>
      <trkpt lat="46.97674" lon="2.24245">
        <ele>154</ele>
        <time>2018-04-16T18:02:23Z</time>
      </trkpt>
      <trkpt lat="46.97674" lon="2.24245">
        <ele>154</ele>
        <time>2018-04-16T18:02:24Z</time>
      </trkpt>
      <trkpt lat="46.97674" lon="2.24245">
        <ele>154</ele>
        <time>2018-04-16T18:02:25Z</time>
      </trkpt>
      <trkpt lat="46.97675" lon="2.24245">
        <ele>154</ele>
        <time>2018-04-16T18:02:43Z</time>
      </trkpt>
      <trkpt lat="46.97675" lon="2.24245">
        <ele>154</ele>
        <time>2018-04-16T18:02:44Z</time>
      </trkpt>
      <trkpt lat="46.97675" lon="2.24245">
        <ele>154</ele>
        <time>2018-04-16T18:02:47Z</time>
      </trkpt>
      <trkpt lat="46.97675" lon="2.24245">
        <ele>154</ele>
        <time>2018-04-16T18:02:49Z</time>
      </trkpt>
      <trkpt lat="46.97675" lon="2.24245">
        <ele>154</ele>
        <time>2018-04-16T18:02:50Z</time>
      </trkpt>
      <trkpt lat="46.97675" lon="2.24245">
        <ele>154</ele>
        <time>2018-04-16T18:02:51Z</time>
      </trkpt>
      <trkpt lat="46.97675" lon="2.24245">
        <ele>154</ele>
        <time>2018-04-16T18:02:52Z</time>
      </trkpt>
      <trkpt lat="46.97676" lon="2.24245">
        <ele>154</ele>
        <time>2018-04-16T18:02:53Z</time>
      </trkpt>
      <trkpt lat="46.97675" lon="2.24245">
        <ele>154</ele>
        <time>2018-04-16T18:02:56Z</time>
      </trkpt>
      <trkpt lat="46.97676" lon="2.24245">
        <ele>154</ele>
        <time>2018-04-16T18:02:58Z</time>
      </trkpt>
      <trkpt lat="46.97675" lon="2.24245">
        <ele>154</ele>
        <time>2018-04-16T18:02:59Z</time>
      </trkpt>
      <trkpt lat="46.97676" lon="2.24244">
        <ele>154</ele>
        <time>2018-04-16T18:03:10Z</time>
      </trkpt>
      <trkpt lat="46.97676" lon="2.24244">
        <ele>154</ele>
        <time>2018-04-16T18:03:28Z</time>
      </trkpt>
      <trkpt lat="46.97676" lon="2.24244">
        <ele>154</ele>
        <time>2018-04-16T18:03:30Z</time>
      </trkpt>
      <trkpt lat="46.97676" lon="2.24244">
        <ele>154</ele>
        <time>2018-04-16T18:03:31Z</time>
      </trkpt>
      <trkpt lat="46.97676" lon="2.24244">
        <ele>154</ele>
        <time>2018-04-16T18:03:32Z</time>
      </trkpt>
      <trkpt lat="46.97676" lon="2.24245">
        <ele>154</ele>
        <time>2018-04-16T18:03:34Z</time>
      </trkpt>
      <trkpt lat="46.97676" lon="2.24245">
        <ele>154</ele>
        <time>2018-04-16T18:03:38Z</time>
      </trkpt>
      <trkpt lat="46.97676" lon="2.24245">
        <ele>154</ele>
        <time>2018-04-16T18:03:39Z</time>
      </trkpt>
      <trkpt lat="46.97676" lon="2.24245">
        <ele>154</ele>
        <time>2018-04-16T18:04:07Z</time>
      </trkpt>
      <trkpt lat="46.97676" lon="2.24244">
        <ele>154</ele>
        <time>2018-04-16T18:04:13Z</time>
      </trkpt>
      <trkpt lat="46.97676" lon="2.24244">
        <ele>154</ele>
        <time>2018-04-16T18:04:20Z</time>
      </trkpt>
      <trkpt lat="46.97676" lon="2.24244">
        <ele>154</ele>
        <time>2018-04-16T18:04:24Z</time>
      </trkpt>
      <trkpt lat="46.97676" lon="2.24244">
        <ele>154</ele>
        <time>2018-04-16T18:04:36Z</time>
      </trkpt>
      <trkpt lat="46.97676" lon="2.24243">
        <ele>154</ele>
        <time>2018-04-16T18:04:55Z</time>
      </trkpt>
      <trkpt lat="46.97676" lon="2.24243">
        <ele>154</ele>
        <time>2018-04-16T18:04:56Z</time>
      </trkpt>
      <trkpt lat="46.97677" lon="2.24243">
        <ele>154</ele>
        <time>2018-04-16T18:04:57Z</time>
      </trkpt>
      <trkpt lat="46.97677" lon="2.24244">
        <ele>154</ele>
        <time>2018-04-16T18:05:01Z</time>
      </trkpt>
      <trkpt lat="46.97677" lon="2.24244">
        <ele>154</ele>
        <time>2018-04-16T18:05:04Z</time>
      </trkpt>
      <trkpt lat="46.97677" lon="2.24244">
        <ele>154</ele>
        <time>2018-04-16T18:05:06Z</time>
      </trkpt>
      <trkpt lat="46.97677" lon="2.24244">
        <ele>154</ele>
        <time>2018-04-16T18:05:09Z</time>
      </trkpt>
      <trkpt lat="46.97677" lon="2.24244">
        <ele>154</ele>
        <time>2018-04-16T18:05:13Z</time>
      </trkpt>
      <trkpt lat="46.97677" lon="2.24244">
        <ele>154</ele>
        <time>2018-04-16T18:05:16Z</time>
      </trkpt>
      <trkpt lat="46.97677" lon="2.24244">
        <ele>154</ele>
        <time>2018-04-16T18:05:17Z</time>
      </trkpt>
      <trkpt lat="46.97679" lon="2.24244">
        <ele>154</ele>
        <time>2018-04-16T18:05:24Z</time>
      </trkpt>
      <trkpt lat="46.9768" lon="2.24244">
        <ele>154</ele>
        <time>2018-04-16T18:05:25Z</time>
      </trkpt>
      <trkpt lat="46.97689" lon="2.24242">
        <ele>154</ele>
        <time>2018-04-16T18:05:29Z</time>
      </trkpt>
      <trkpt lat="46.97744" lon="2.24227">
        <ele>154</ele>
        <time>2018-04-16T18:05:46Z</time>
      </trkpt>
      <trkpt lat="46.9777" lon="2.24213">
        <ele>154</ele>
        <time>2018-04-16T18:05:53Z</time>
      </trkpt>
      <trkpt lat="46.97821" lon="2.24179">
        <ele>155</ele>
        <time>2018-04-16T18:06:07Z</time>
      </trkpt>
      <trkpt lat="46.97842" lon="2.24165">
        <ele>155</ele>
        <time>2018-04-16T18:06:13Z</time>
      </trkpt>
      <trkpt lat="46.97894" lon="2.24127">
        <ele>153</ele>
        <time>2018-04-16T18:06:28Z</time>
      </trkpt>
      <trkpt lat="46.97944" lon="2.24088">
        <ele>152</ele>
        <time>2018-04-16T18:06:42Z</time>
      </trkpt>
      <trkpt lat="46.9799" lon="2.24059">
        <ele>153</ele>
        <time>2018-04-16T18:06:54Z</time>
      </trkpt>
      <trkpt lat="46.98034" lon="2.24031">
        <ele>152</ele>
        <time>2018-04-16T18:07:04Z</time>
      </trkpt>
      <trkpt lat="46.98084" lon="2.23996">
        <ele>152</ele>
        <time>2018-04-16T18:07:18Z</time>
      </trkpt>
      <trkpt lat="46.98136" lon="2.23963">
        <ele>152</ele>
        <time>2018-04-16T18:07:35Z</time>
      </trkpt>
      <trkpt lat="46.98187" lon="2.23929">
        <ele>150</ele>
        <time>2018-04-16T18:07:49Z</time>
      </trkpt>
      <trkpt lat="46.98198" lon="2.23917">
        <ele>150</ele>
        <time>2018-04-16T18:07:57Z</time>
      </trkpt>
      <trkpt lat="46.98198" lon="2.23911">
        <ele>150</ele>
        <time>2018-04-16T18:08:00Z</time>
      </trkpt>
      <trkpt lat="46.98189" lon="2.23885">
        <ele>150</ele>
        <time>2018-04-16T18:08:07Z</time>
      </trkpt>
      <trkpt lat="46.98187" lon="2.23876">
        <ele>149</ele>
        <time>2018-04-16T18:08:09Z</time>
      </trkpt>
      <trkpt lat="46.9819" lon="2.23868">
        <ele>149</ele>
        <time>2018-04-16T18:08:11Z</time>
      </trkpt>
      <trkpt lat="46.98211" lon="2.23873">
        <ele>149</ele>
        <time>2018-04-16T18:08:18Z</time>
      </trkpt>
      <trkpt lat="46.98217" lon="2.23877">
        <ele>149</ele>
        <time>2018-04-16T18:08:22Z</time>
      </trkpt>
      <trkpt lat="46.98216" lon="2.23877">
        <ele>149</ele>
        <time>2018-04-16T18:08:26Z</time>
      </trkpt>
      <trkpt lat="46.98216" lon="2.23877">
        <ele>149</ele>
        <time>2018-04-16T18:08:32Z</time>
      </trkpt>
      <trkpt lat="46.98225" lon="2.23882">
        <ele>149</ele>
        <time>2018-04-16T18:08:43Z</time>
      </trkpt>
      <trkpt lat="46.98277" lon="2.23905">
        <ele>148</ele>
        <time>2018-04-16T18:08:59Z</time>
      </trkpt>
      <trkpt lat="46.98279" lon="2.23905">
        <ele>148</ele>
        <time>2018-04-16T18:09:06Z</time>
      </trkpt>
      <trkpt lat="46.98279" lon="2.23905">
        <ele>148</ele>
        <time>2018-04-16T18:09:07Z</time>
      </trkpt>
      <trkpt lat="46.98279" lon="2.23905">
        <ele>148</ele>
        <time>2018-04-16T18:09:08Z</time>
      </trkpt>
      <trkpt lat="46.98279" lon="2.23905">
        <ele>148</ele>
        <time>2018-04-16T18:09:11Z</time>
      </trkpt>
      <trkpt lat="46.98279" lon="2.23905">
        <ele>148</ele>
        <time>2018-04-16T18:09:13Z</time>
      </trkpt>
      <trkpt lat="46.98277" lon="2.2391">
        <ele>148</ele>
        <time>2018-04-16T18:09:19Z</time>
      </trkpt>
      <trkpt lat="46.98276" lon="2.23936">
        <ele>147</ele>
        <time>2018-04-16T18:09:23Z</time>
      </trkpt>
      <trkpt lat="46.98281" lon="2.24015">
        <ele>146</ele>
        <time>2018-04-16T18:09:32Z</time>
      </trkpt>
      <trkpt lat="46.98282" lon="2.24024">
        <ele>146</ele>
        <time>2018-04-16T18:09:33Z</time>
      </trkpt>
      <trkpt lat="46.98283" lon="2.24033">
        <ele>146</ele>
        <time>2018-04-16T18:09:34Z</time>
      </trkpt>
      <trkpt lat="46.98289" lon="2.24078">
        <ele>145</ele>
        <time>2018-04-16T18:09:39Z</time>
      </trkpt>
      <trkpt lat="46.98291" lon="2.24096">
        <ele>144</ele>
        <time>2018-04-16T18:09:41Z</time>
      </trkpt>
      <trkpt lat="46.98304" lon="2.2418">
        <ele>143</ele>
        <time>2018-04-16T18:09:51Z</time>
      </trkpt>
      <trkpt lat="46.98315" lon="2.24217">
        <ele>143</ele>
        <time>2018-04-16T18:09:56Z</time>
      </trkpt>
      <trkpt lat="46.98323" lon="2.24247">
        <ele>143</ele>
        <time>2018-04-16T18:10:00Z</time>
      </trkpt>
      <trkpt lat="46.98327" lon="2.24261">
        <ele>143</ele>
        <time>2018-04-16T18:10:02Z</time>
      </trkpt>
      <trkpt lat="46.98333" lon="2.24274">
        <ele>143</ele>
        <time>2018-04-16T18:10:04Z</time>
      </trkpt>
      <trkpt lat="46.98364" lon="2.24346">
        <ele>138</ele>
        <time>2018-04-16T18:10:15Z</time>
      </trkpt>
      <trkpt lat="46.98384" lon="2.24381">
        <ele>136</ele>
        <time>2018-04-16T18:10:21Z</time>
      </trkpt>
      <trkpt lat="46.98421" lon="2.24441">
        <ele>131</ele>
        <time>2018-04-16T18:10:32Z</time>
      </trkpt>
      <trkpt lat="46.9845" lon="2.24484">
        <ele>128</ele>
        <time>2018-04-16T18:10:40Z</time>
      </trkpt>
      <trkpt lat="46.98484" lon="2.24545">
        <ele>126</ele>
        <time>2018-04-16T18:10:51Z</time>
      </trkpt>
      <trkpt lat="46.98522" lon="2.24607">
        <ele>125</ele>
        <time>2018-04-16T18:11:02Z</time>
      </trkpt>
      <trkpt lat="46.98561" lon="2.2467">
        <ele>125</ele>
        <time>2018-04-16T18:11:13Z</time>
      </trkpt>
      <trkpt lat="46.98575" lon="2.24692">
        <ele>124</ele>
        <time>2018-04-16T18:11:17Z</time>
      </trkpt>
      <trkpt lat="46.98611" lon="2.24751">
        <ele>121</ele>
        <time>2018-04-16T18:11:27Z</time>
      </trkpt>
      <trkpt lat="46.98636" lon="2.24792">
        <ele>122</ele>
        <time>2018-04-16T18:11:34Z</time>
      </trkpt>
      <trkpt lat="46.98643" lon="2.24804">
        <ele>122</ele>
        <time>2018-04-16T18:11:36Z</time>
      </trkpt>
      <trkpt lat="46.98679" lon="2.24863">
        <ele>127</ele>
        <time>2018-04-16T18:11:46Z</time>
      </trkpt>
      <trkpt lat="46.98704" lon="2.24903">
        <ele>129</ele>
        <time>2018-04-16T18:11:53Z</time>
      </trkpt>
      <trkpt lat="46.98724" lon="2.24937">
        <ele>134</ele>
        <time>2018-04-16T18:11:59Z</time>
      </trkpt>
      <trkpt lat="46.98746" lon="2.24967">
        <ele>137</ele>
        <time>2018-04-16T18:12:05Z</time>
      </trkpt>
      <trkpt lat="46.98756" lon="2.24972">
        <ele>143</ele>
        <time>2018-04-16T18:12:07Z</time>
      </trkpt>
      <trkpt lat="46.98766" lon="2.24976">
        <ele>143</ele>
        <time>2018-04-16T18:12:09Z</time>
      </trkpt>
      <trkpt lat="46.9882" lon="2.24982">
        <ele>145</ele>
        <time>2018-04-16T18:12:25Z</time>
      </trkpt>
      <trkpt lat="46.98838" lon="2.24981">
        <ele>148</ele>
        <time>2018-04-16T18:12:34Z</time>
      </trkpt>
      <trkpt lat="46.98853" lon="2.24982">
        <ele>148</ele>
        <time>2018-04-16T18:13:13Z</time>
      </trkpt>
      <trkpt lat="46.98853" lon="2.24982">
        <ele>148</ele>
        <time>2018-04-16T18:13:27Z</time>
      </trkpt>
      <trkpt lat="46.98854" lon="2.24982">
        <ele>148</ele>
        <time>2018-04-16T18:13:53Z</time>
      </trkpt>
      <trkpt lat="46.98888" lon="2.24984">
        <ele>148</ele>
        <time>2018-04-16T18:14:05Z</time>
      </trkpt>
      <trkpt lat="46.98914" lon="2.24992">
        <ele>149</ele>
        <time>2018-04-16T18:14:13Z</time>
      </trkpt>
      <trkpt lat="46.98917" lon="2.24993">
        <ele>149</ele>
        <time>2018-04-16T18:14:14Z</time>
      </trkpt>
      <trkpt lat="46.98921" lon="2.24994">
        <ele>149</ele>
        <time>2018-04-16T18:14:15Z</time>
      </trkpt>
      <trkpt lat="46.98924" lon="2.24995">
        <ele>148</ele>
        <time>2018-04-16T18:14:16Z</time>
      </trkpt>
      <trkpt lat="46.98927" lon="2.24996">
        <ele>148</ele>
        <time>2018-04-16T18:14:17Z</time>
      </trkpt>
      <trkpt lat="46.98932" lon="2.24997">
        <ele>148</ele>
        <time>2018-04-16T18:14:19Z</time>
      </trkpt>
      <trkpt lat="46.98947" lon="2.25003">
        <ele>148</ele>
        <time>2018-04-16T18:14:26Z</time>
      </trkpt>
      <trkpt lat="46.98954" lon="2.25009">
        <ele>148</ele>
        <time>2018-04-16T18:14:31Z</time>
      </trkpt>
      <trkpt lat="46.98962" lon="2.25015">
        <ele>148</ele>
        <time>2018-04-16T18:14:35Z</time>
      </trkpt>
      <trkpt lat="46.99003" lon="2.25045">
        <ele>146</ele>
        <time>2018-04-16T18:14:45Z</time>
      </trkpt>
      <trkpt lat="46.99023" lon="2.25057">
        <ele>146</ele>
        <time>2018-04-16T18:14:52Z</time>
      </trkpt>
      <trkpt lat="46.99024" lon="2.25051">
        <ele>146</ele>
        <time>2018-04-16T18:14:54Z</time>
      </trkpt>
      <trkpt lat="46.99023" lon="2.25042">
        <ele>146</ele>
        <time>2018-04-16T18:14:56Z</time>
      </trkpt>
      <trkpt lat="46.9902" lon="2.2503">
        <ele>146</ele>
        <time>2018-04-16T18:14:58Z</time>
      </trkpt>
      <trkpt lat="46.99009" lon="2.24997">
        <ele>146</ele>
        <time>2018-04-16T18:15:03Z</time>
      </trkpt>
      <trkpt lat="46.98999" lon="2.24955">
        <ele>146</ele>
        <time>2018-04-16T18:15:09Z</time>
      </trkpt>
      <trkpt lat="46.98996" lon="2.24942">
        <ele>146</ele>
        <time>2018-04-16T18:15:11Z</time>
      </trkpt>
      <trkpt lat="46.98999" lon="2.24931">
        <ele>145</ele>
        <time>2018-04-16T18:15:13Z</time>
      </trkpt>
      <trkpt lat="46.99007" lon="2.24923">
        <ele>144</ele>
        <time>2018-04-16T18:15:15Z</time>
      </trkpt>
      <trkpt lat="46.99059" lon="2.249">
        <ele>140</ele>
        <time>2018-04-16T18:15:27Z</time>
      </trkpt>
      <trkpt lat="46.99064" lon="2.24898">
        <ele>140</ele>
        <time>2018-04-16T18:15:35Z</time>
      </trkpt>
      <trkpt lat="46.99064" lon="2.24898">
        <ele>140</ele>
        <time>2018-04-16T18:15:46Z</time>
      </trkpt>
      <trkpt lat="46.99064" lon="2.24888">
        <ele>140</ele>
        <time>2018-04-16T18:16:03Z</time>
      </trkpt>
      <trkpt lat="46.99066" lon="2.2488">
        <ele>140</ele>
        <time>2018-04-16T18:16:07Z</time>
      </trkpt>
      <trkpt lat="46.99077" lon="2.24883">
        <ele>140</ele>
        <time>2018-04-16T18:16:12Z</time>
      </trkpt>
      <trkpt lat="46.99107" lon="2.24867">
        <ele>138</ele>
        <time>2018-04-16T18:16:19Z</time>
      </trkpt>
      <trkpt lat="46.99159" lon="2.24843">
        <ele>137</ele>
        <time>2018-04-16T18:16:32Z</time>
      </trkpt>
      <trkpt lat="46.99163" lon="2.24835">
        <ele>137</ele>
        <time>2018-04-16T18:16:54Z</time>
      </trkpt>
      <trkpt lat="46.9917" lon="2.24826">
        <ele>137</ele>
        <time>2018-04-16T18:17:00Z</time>
      </trkpt>
      <trkpt lat="46.99147" lon="2.24797">
        <ele>136</ele>
        <time>2018-04-16T18:17:10Z</time>
      </trkpt>
      <trkpt lat="46.99171" lon="2.24724">
        <ele>134</ele>
        <time>2018-04-16T18:17:23Z</time>
      </trkpt>
      <trkpt lat="46.99183" lon="2.24641">
        <ele>130</ele>
        <time>2018-04-16T18:17:33Z</time>
      </trkpt>
      <trkpt lat="46.992" lon="2.24568">
        <ele>127</ele>
        <time>2018-04-16T18:17:50Z</time>
      </trkpt>
      <trkpt lat="46.99204" lon="2.24557">
        <ele>127</ele>
        <time>2018-04-16T18:17:52Z</time>
      </trkpt>
      <trkpt lat="46.99211" lon="2.24548">
        <ele>127</ele>
        <time>2018-04-16T18:17:54Z</time>
      </trkpt>
      <trkpt lat="46.99229" lon="2.24529">
        <ele>127</ele>
        <time>2018-04-16T18:18:27Z</time>
      </trkpt>
      <trkpt lat="46.99229" lon="2.24529">
        <ele>127</ele>
        <time>2018-04-16T18:18:34Z</time>
      </trkpt>
      <trkpt lat="46.99229" lon="2.24529">
        <ele>127</ele>
        <time>2018-04-16T18:18:41Z</time>
      </trkpt>
      <trkpt lat="46.9926" lon="2.245">
        <ele>128</ele>
        <time>2018-04-16T18:18:59Z</time>
      </trkpt>
      <trkpt lat="46.99305" lon="2.24456">
        <ele>127</ele>
        <time>2018-04-16T18:19:18Z</time>
      </trkpt>
      <trkpt lat="46.99306" lon="2.24455">
        <ele>127</ele>
        <time>2018-04-16T18:19:19Z</time>
      </trkpt>
      <trkpt lat="46.99312" lon="2.24455">
        <ele>127</ele>
        <time>2018-04-16T18:19:24Z</time>
      </trkpt>
      <trkpt lat="46.99319" lon="2.24417">
        <ele>127</ele>
        <time>2018-04-16T18:19:34Z</time>
      </trkpt>
      <trkpt lat="46.99336" lon="2.24352">
        <ele>126</ele>
        <time>2018-04-16T18:19:42Z</time>
      </trkpt>
      <trkpt lat="46.99367" lon="2.24305">
        <ele>125</ele>
        <time>2018-04-16T18:19:51Z</time>
      </trkpt>
      <trkpt lat="46.99375" lon="2.243">
        <ele>125</ele>
        <time>2018-04-16T18:19:53Z</time>
      </trkpt>
      <trkpt lat="46.99423" lon="2.24283">
        <ele>125</ele>
        <time>2018-04-16T18:20:11Z</time>
      </trkpt>
      <trkpt lat="46.99423" lon="2.24283">
        <ele>125</ele>
        <time>2018-04-16T18:20:14Z</time>
      </trkpt>
      <trkpt lat="46.99423" lon="2.24283">
        <ele>125</ele>
        <time>2018-04-16T18:20:18Z</time>
      </trkpt>
      <trkpt lat="46.99423" lon="2.24283">
        <ele>125</ele>
        <time>2018-04-16T18:20:19Z</time>
      </trkpt>
      <trkpt lat="46.99423" lon="2.24283">
        <ele>125</ele>
        <time>2018-04-16T18:20:20Z</time>
      </trkpt>
      <trkpt lat="46.99423" lon="2.24283">
        <ele>125</ele>
        <time>2018-04-16T18:20:22Z</time>
      </trkpt>
      <trkpt lat="46.99423" lon="2.24283">
        <ele>125</ele>
        <time>2018-04-16T18:20:24Z</time>
      </trkpt>
      <trkpt lat="46.99424" lon="2.24283">
        <ele>125</ele>
        <time>2018-04-16T18:20:29Z</time>
      </trkpt>
      <trkpt lat="46.99426" lon="2.24281">
        <ele>125</ele>
        <time>2018-04-16T18:20:31Z</time>
      </trkpt>
      <trkpt lat="46.99428" lon="2.24279">
        <ele>125</ele>
        <time>2018-04-16T18:20:33Z</time>
      </trkpt>
      <trkpt lat="46.99429" lon="2.24279">
        <ele>125</ele>
        <time>2018-04-16T18:20:37Z</time>
      </trkpt>
      <trkpt lat="46.99429" lon="2.24279">
        <ele>125</ele>
        <time>2018-04-16T18:20:38Z</time>
      </trkpt>
      <trkpt lat="46.99429" lon="2.24279">
        <ele>125</ele>
        <time>2018-04-16T18:20:39Z</time>
      </trkpt>
      <trkpt lat="46.99429" lon="2.24279">
        <ele>125</ele>
        <time>2018-04-16T18:20:40Z</time>
      </trkpt>
      <trkpt lat="46.9948" lon="2.24235">
        <ele>123</ele>
        <time>2018-04-16T18:21:09Z</time>
      </trkpt>
      <trkpt lat="46.99499" lon="2.24221">
        <ele>123</ele>
        <time>2018-04-16T18:21:13Z</time>
      </trkpt>
      <trkpt lat="46.99508" lon="2.24221">
        <ele>125</ele>
        <time>2018-04-16T18:21:15Z</time>
      </trkpt>
      <trkpt lat="46.99518" lon="2.24225">
        <ele>125</ele>
        <time>2018-04-16T18:21:17Z</time>
      </trkpt>
      <trkpt lat="46.99525" lon="2.24234">
        <ele>125</ele>
        <time>2018-04-16T18:21:19Z</time>
      </trkpt>
      <trkpt lat="46.99529" lon="2.24246">
        <ele>125</ele>
        <time>2018-04-16T18:21:21Z</time>
      </trkpt>
      <trkpt lat="46.99528" lon="2.24259">
        <ele>128</ele>
        <time>2018-04-16T18:21:23Z</time>
      </trkpt>
      <trkpt lat="46.99511" lon="2.24315">
        <ele>128</ele>
        <time>2018-04-16T18:21:36Z</time>
      </trkpt>
      <trkpt lat="46.99513" lon="2.24326">
        <ele>128</ele>
        <time>2018-04-16T18:21:59Z</time>
      </trkpt>
      <trkpt lat="46.9951" lon="2.24327">
        <ele>128</ele>
        <time>2018-04-16T18:22:04Z</time>
      </trkpt>
      <trkpt lat="46.99488" lon="2.24334">
        <ele>128</ele>
        <time>2018-04-16T18:22:12Z</time>
      </trkpt>
      <trkpt lat="46.99474" lon="2.24342">
        <ele>128</ele>
        <time>2018-04-16T18:22:17Z</time>
      </trkpt>
      <trkpt lat="46.99478" lon="2.24368">
        <ele>129</ele>
        <time>2018-04-16T18:22:28Z</time>
      </trkpt>
      <trkpt lat="46.99513" lon="2.24341">
        <ele>129</ele>
        <time>2018-04-16T18:22:59Z</time>
      </trkpt>
      <trkpt lat="46.99516" lon="2.24345">
        <ele>129</ele>
        <time>2018-04-16T18:23:02Z</time>
      </trkpt>
      <trkpt lat="46.99534" lon="2.24368">
        <ele>130</ele>
        <time>2018-04-16T18:23:13Z</time>
      </trkpt>
      <trkpt lat="46.9954" lon="2.24378">
        <ele>130</ele>
        <time>2018-04-16T18:23:17Z</time>
      </trkpt>
      <trkpt lat="46.99541" lon="2.2438">
        <ele>130</ele>
        <time>2018-04-16T18:23:18Z</time>
      </trkpt>
      <trkpt lat="46.99573" lon="2.24444">
        <ele>132</ele>
        <time>2018-04-16T18:23:42Z</time>
      </trkpt>
      <trkpt lat="46.99576" lon="2.24447">
        <ele>132</ele>
        <time>2018-04-16T18:24:10Z</time>
      </trkpt>
      <trkpt lat="46.99576" lon="2.24447">
        <ele>132</ele>
        <time>2018-04-16T18:24:11Z</time>
      </trkpt>
      <trkpt lat="46.99576" lon="2.24447">
        <ele>132</ele>
        <time>2018-04-16T18:24:12Z</time>
      </trkpt>
      <trkpt lat="46.99576" lon="2.24447">
        <ele>132</ele>
        <time>2018-04-16T18:24:13Z</time>
      </trkpt>
      <trkpt lat="46.99576" lon="2.24447">
        <ele>132</ele>
        <time>2018-04-16T18:24:18Z</time>
      </trkpt>
      <trkpt lat="46.99575" lon="2.24448">
        <ele>132</ele>
        <time>2018-04-16T18:24:41Z</time>
      </trkpt>
      <trkpt lat="46.9961" lon="2.24508">
        <ele>135</ele>
        <time>2018-04-16T18:25:13Z</time>
      </trkpt>
      <trkpt lat="46.99616" lon="2.24519">
        <ele>135</ele>
        <time>2018-04-16T18:25:19Z</time>
      </trkpt>
      <trkpt lat="46.99617" lon="2.24521">
        <ele>135</ele>
        <time>2018-04-16T18:25:20Z</time>
      </trkpt>
      <trkpt lat="46.9965" lon="2.24583">
        <ele>136</ele>
        <time>2018-04-16T18:25:39Z</time>
      </trkpt>
      <trkpt lat="46.99658" lon="2.24597">
        <ele>136</ele>
        <time>2018-04-16T18:25:43Z</time>
      </trkpt>
      <trkpt lat="46.9966" lon="2.24601">
        <ele>136</ele>
        <time>2018-04-16T18:25:44Z</time>
      </trkpt>
      <trkpt lat="46.99662" lon="2.24604">
        <ele>136</ele>
        <time>2018-04-16T18:25:45Z</time>
      </trkpt>
      <trkpt lat="46.99677" lon="2.24614">
        <ele>139</ele>
        <time>2018-04-16T18:25:50Z</time>
      </trkpt>
      <trkpt lat="46.9968" lon="2.24616">
        <ele>139</ele>
        <time>2018-04-16T18:25:51Z</time>
      </trkpt>
      <trkpt lat="46.9969" lon="2.24618">
        <ele>139</ele>
        <time>2018-04-16T18:25:54Z</time>
      </trkpt>
      <trkpt lat="46.99699" lon="2.2462">
        <ele>139</ele>
        <time>2018-04-16T18:25:57Z</time>
      </trkpt>
      <trkpt lat="46.99705" lon="2.24622">
        <ele>139</ele>
        <time>2018-04-16T18:25:59Z</time>
      </trkpt>
      <trkpt lat="46.99708" lon="2.24623">
        <ele>139</ele>
        <time>2018-04-16T18:26:00Z</time>
      </trkpt>
      <trkpt lat="46.99715" lon="2.24626">
        <ele>139</ele>
        <time>2018-04-16T18:26:02Z</time>
      </trkpt>
      <trkpt lat="46.99718" lon="2.24627">
        <ele>139</ele>
        <time>2018-04-16T18:26:03Z</time>
      </trkpt>
      <trkpt lat="46.99721" lon="2.24628">
        <ele>139</ele>
        <time>2018-04-16T18:26:04Z</time>
      </trkpt>
      <trkpt lat="46.99728" lon="2.24632">
        <ele>140</ele>
        <time>2018-04-16T18:26:06Z</time>
      </trkpt>
      <trkpt lat="46.99748" lon="2.24647">
        <ele>140</ele>
        <time>2018-04-16T18:26:13Z</time>
      </trkpt>
      <trkpt lat="46.99751" lon="2.24649">
        <ele>141</ele>
        <time>2018-04-16T18:26:14Z</time>
      </trkpt>
      <trkpt lat="46.99758" lon="2.24655">
        <ele>141</ele>
        <time>2018-04-16T18:26:17Z</time>
      </trkpt>
      <trkpt lat="46.99763" lon="2.24659">
        <ele>141</ele>
        <time>2018-04-16T18:26:22Z</time>
      </trkpt>
      <trkpt lat="46.99765" lon="2.24661">
        <ele>141</ele>
        <time>2018-04-16T18:26:25Z</time>
      </trkpt>
      <trkpt lat="46.99765" lon="2.24661">
        <ele>141</ele>
        <time>2018-04-16T18:26:28Z</time>
      </trkpt>
      <trkpt lat="46.99765" lon="2.24661">
        <ele>141</ele>
        <time>2018-04-16T18:26:30Z</time>
      </trkpt>
      <trkpt lat="46.99765" lon="2.24661">
        <ele>141</ele>
        <time>2018-04-16T18:26:37Z</time>
      </trkpt>
      <trkpt lat="46.99768" lon="2.24667">
        <ele>141</ele>
        <time>2018-04-16T18:26:43Z</time>
      </trkpt>
      <trkpt lat="46.99786" lon="2.24696">
        <ele>142</ele>
        <time>2018-04-16T18:26:53Z</time>
      </trkpt>
      <trkpt lat="46.99817" lon="2.24743">
        <ele>142</ele>
        <time>2018-04-16T18:27:06Z</time>
      </trkpt>
      <trkpt lat="46.9982" lon="2.24746">
        <ele>142</ele>
        <time>2018-04-16T18:27:07Z</time>
      </trkpt>
      <trkpt lat="46.99822" lon="2.24749">
        <ele>142</ele>
        <time>2018-04-16T18:27:08Z</time>
      </trkpt>
      <trkpt lat="46.99847" lon="2.2478">
        <ele>144</ele>
        <time>2018-04-16T18:27:17Z</time>
      </trkpt>
      <trkpt lat="46.9985" lon="2.24783">
        <ele>144</ele>
        <time>2018-04-16T18:27:18Z</time>
      </trkpt>
      <trkpt lat="46.9986" lon="2.24796">
        <ele>144</ele>
        <time>2018-04-16T18:27:22Z</time>
      </trkpt>
      <trkpt lat="46.99863" lon="2.24799">
        <ele>144</ele>
        <time>2018-04-16T18:27:23Z</time>
      </trkpt>
      <trkpt lat="46.9988" lon="2.24817">
        <ele>145</ele>
        <time>2018-04-16T18:27:29Z</time>
      </trkpt>
      <trkpt lat="46.99884" lon="2.2482">
        <ele>145</ele>
        <time>2018-04-16T18:27:30Z</time>
      </trkpt>
      <trkpt lat="46.9989" lon="2.24826">
        <ele>145</ele>
        <time>2018-04-16T18:27:32Z</time>
      </trkpt>
      <trkpt lat="46.99918" lon="2.2487">
        <ele>146</ele>
        <time>2018-04-16T18:27:47Z</time>
      </trkpt>
      <trkpt lat="46.99896" lon="2.24888">
        <ele>145</ele>
        <time>2018-04-16T18:27:55Z</time>
      </trkpt>
      <trkpt lat="46.99883" lon="2.24901">
        <ele>145</ele>
        <time>2018-04-16T18:28:00Z</time>
      </trkpt>
      <trkpt lat="46.99875" lon="2.24909">
        <ele>145</ele>
        <time>2018-04-16T18:28:04Z</time>
      </trkpt>
      <trkpt lat="46.99873" lon="2.24911">
        <ele>145</ele>
        <time>2018-04-16T18:28:05Z</time>
      </trkpt>
      <trkpt lat="46.99872" lon="2.24913">
        <ele>145</ele>
        <time>2018-04-16T18:28:06Z</time>
      </trkpt>
      <trkpt lat="46.99871" lon="2.24914">
        <ele>145</ele>
        <time>2018-04-16T18:28:07Z</time>
      </trkpt>
      <trkpt lat="46.99857" lon="2.24956">
        <ele>146</ele>
        <time>2018-04-16T18:28:22Z</time>
      </trkpt>
      <trkpt lat="46.99857" lon="2.24958">
        <ele>146</ele>
        <time>2018-04-16T18:28:23Z</time>
      </trkpt>
      <trkpt lat="46.99854" lon="2.24972">
        <ele>146</ele>
        <time>2018-04-16T18:28:30Z</time>
      </trkpt>
      <trkpt lat="46.99846" lon="2.24974">
        <ele>146</ele>
        <time>2018-04-16T18:28:37Z</time>
      </trkpt>
      <trkpt lat="46.99806" lon="2.24976">
        <ele>144</ele>
        <time>2018-04-16T18:28:49Z</time>
      </trkpt>
      <trkpt lat="46.99792" lon="2.25034">
        <ele>143</ele>
        <time>2018-04-16T18:29:23Z</time>
      </trkpt>
      <trkpt lat="46.9977" lon="2.25105">
        <ele>142</ele>
        <time>2018-04-16T18:29:33Z</time>
      </trkpt>
      <trkpt lat="46.99762" lon="2.25114">
        <ele>142</ele>
        <time>2018-04-16T18:29:35Z</time>
      </trkpt>
      <trkpt lat="46.99754" lon="2.25116">
        <ele>142</ele>
        <time>2018-04-16T18:29:37Z</time>
      </trkpt>
      <trkpt lat="46.99733" lon="2.2512">
        <ele>141</ele>
        <time>2018-04-16T18:29:44Z</time>
      </trkpt>
      <trkpt lat="46.99718" lon="2.25136">
        <ele>141</ele>
        <time>2018-04-16T18:29:53Z</time>
      </trkpt>
      <trkpt lat="46.99708" lon="2.25127">
        <ele>141</ele>
        <time>2018-04-16T18:30:08Z</time>
      </trkpt>
      <trkpt lat="46.99708" lon="2.25128">
        <ele>141</ele>
        <time>2018-04-16T18:30:18Z</time>
      </trkpt>
      <trkpt lat="46.99706" lon="2.2513">
        <ele>141</ele>
        <time>2018-04-16T18:30:28Z</time>
      </trkpt>
      <trkpt lat="46.99703" lon="2.25128">
        <ele>141</ele>
        <time>2018-04-16T18:30:30Z</time>
      </trkpt>
      <trkpt lat="46.997" lon="2.25123">
        <ele>141</ele>
        <time>2018-04-16T18:30:32Z</time>
      </trkpt>
      <trkpt lat="46.99686" lon="2.2511">
        <ele>141</ele>
        <time>2018-04-16T18:30:57Z</time>
      </trkpt>
      <trkpt lat="46.99686" lon="2.2511">
        <ele>141</ele>
        <time>2018-04-16T18:31:05Z</time>
      </trkpt>
      <trkpt lat="46.99686" lon="2.2511">
        <ele>141</ele>
        <time>2018-04-16T18:31:10Z</time>
      </trkpt>
      <trkpt lat="46.99686" lon="2.25111">
        <ele>141</ele>
        <time>2018-04-16T18:31:17Z</time>
      </trkpt>
      <trkpt lat="46.99688" lon="2.25111">
        <ele>141</ele>
        <time>2018-04-16T18:31:43Z</time>
      </trkpt>
      <trkpt lat="46.99688" lon="2.2511">
        <ele>141</ele>
        <time>2018-04-16T18:32:00Z</time>
      </trkpt>
      <trkpt lat="46.99688" lon="2.2511">
        <ele>141</ele>
        <time>2018-04-16T18:32:01Z</time>
      </trkpt>
      <trkpt lat="46.99688" lon="2.2511">
        <ele>141</ele>
        <time>2018-04-16T18:32:03Z</time>
      </trkpt>
      <trkpt lat="46.99688" lon="2.25109">
        <ele>141</ele>
        <time>2018-04-16T18:32:12Z</time>
      </trkpt>
      <trkpt lat="46.99688" lon="2.25109">
        <ele>141</ele>
        <time>2018-04-16T18:32:23Z</time>
      </trkpt>
      <trkpt lat="46.99688" lon="2.2511">
        <ele>141</ele>
        <time>2018-04-16T18:32:42Z</time>
      </trkpt>
      <trkpt lat="46.99712" lon="2.25137">
        <ele>141</ele>
        <time>2018-04-16T18:32:54Z</time>
      </trkpt>
      <trkpt lat="46.99715" lon="2.25142">
        <ele>141</ele>
        <time>2018-04-16T18:32:56Z</time>
      </trkpt>
      <trkpt lat="46.99722" lon="2.2515">
        <ele>141</ele>
        <time>2018-04-16T18:33:01Z</time>
      </trkpt>
      <trkpt lat="46.99726" lon="2.25154">
        <ele>141</ele>
        <time>2018-04-16T18:33:03Z</time>
      </trkpt>
      <trkpt lat="46.99735" lon="2.25166">
        <ele>141</ele>
        <time>2018-04-16T18:33:08Z</time>
      </trkpt>
      <trkpt lat="46.99739" lon="2.25172">
        <ele>142</ele>
        <time>2018-04-16T18:33:10Z</time>
      </trkpt>
      <trkpt lat="46.99744" lon="2.25177">
        <ele>142</ele>
        <time>2018-04-16T18:33:12Z</time>
      </trkpt>
      <trkpt lat="46.99777" lon="2.2522">
        <ele>143</ele>
        <time>2018-04-16T18:33:26Z</time>
      </trkpt>
      <trkpt lat="46.9978" lon="2.25238">
        <ele>143</ele>
        <time>2018-04-16T18:33:39Z</time>
      </trkpt>
      <trkpt lat="46.99779" lon="2.25241">
        <ele>143</ele>
        <time>2018-04-16T18:33:41Z</time>
      </trkpt>
      <trkpt lat="46.99779" lon="2.25252">
        <ele>144</ele>
        <time>2018-04-16T18:33:46Z</time>
      </trkpt>
      <trkpt lat="46.99832" lon="2.25267">
        <ele>144</ele>
        <time>2018-04-16T18:34:03Z</time>
      </trkpt>
      <trkpt lat="46.9985" lon="2.25272">
        <ele>145</ele>
        <time>2018-04-16T18:34:10Z</time>
      </trkpt>
      <trkpt lat="46.99854" lon="2.25277">
        <ele>145</ele>
        <time>2018-04-16T18:34:13Z</time>
      </trkpt>
      <trkpt lat="46.99854" lon="2.25281">
        <ele>145</ele>
        <time>2018-04-16T18:34:16Z</time>
      </trkpt>
      <trkpt lat="46.99855" lon="2.25281">
        <ele>145</ele>
        <time>2018-04-16T18:34:17Z</time>
      </trkpt>
      <trkpt lat="46.99855" lon="2.2528">
        <ele>145</ele>
        <time>2018-04-16T18:34:26Z</time>
      </trkpt>
      <trkpt lat="46.99855" lon="2.2528">
        <ele>145</ele>
        <time>2018-04-16T18:34:30Z</time>
      </trkpt>
      <trkpt lat="46.99853" lon="2.25278">
        <ele>145</ele>
        <time>2018-04-16T18:34:49Z</time>
      </trkpt>
      <trkpt lat="46.99848" lon="2.25276">
        <ele>145</ele>
        <time>2018-04-16T18:34:51Z</time>
      </trkpt>
      <trkpt lat="46.99793" lon="2.2527">
        <ele>144</ele>
        <time>2018-04-16T18:35:07Z</time>
      </trkpt>
      <trkpt lat="46.99772" lon="2.2525">
        <ele>143</ele>
        <time>2018-04-16T18:35:15Z</time>
      </trkpt>
      <trkpt lat="46.99778" lon="2.25236">
        <ele>143</ele>
        <time>2018-04-16T18:35:20Z</time>
      </trkpt>
      <trkpt lat="46.99781" lon="2.25235">
        <ele>143</ele>
        <time>2018-04-16T18:35:24Z</time>
      </trkpt>
      <trkpt lat="46.99781" lon="2.25235">
        <ele>143</ele>
        <time>2018-04-16T18:35:33Z</time>
      </trkpt>
      <trkpt lat="46.99781" lon="2.25235">
        <ele>143</ele>
        <time>2018-04-16T18:35:34Z</time>
      </trkpt>
      <trkpt lat="46.99781" lon="2.25235">
        <ele>143</ele>
        <time>2018-04-16T18:35:35Z</time>
      </trkpt>
      <trkpt lat="46.99781" lon="2.25235">
        <ele>143</ele>
        <time>2018-04-16T18:35:36Z</time>
      </trkpt>
      <trkpt lat="46.99781" lon="2.25235">
        <ele>143</ele>
        <time>2018-04-16T18:35:38Z</time>
      </trkpt>
      <trkpt lat="46.99781" lon="2.25235">
        <ele>143</ele>
        <time>2018-04-16T18:35:48Z</time>
      </trkpt>
      <trkpt lat="46.99781" lon="2.25235">
        <ele>143</ele>
        <time>2018-04-16T18:35:49Z</time>
      </trkpt>
      <trkpt lat="46.99781" lon="2.25235">
        <ele>143</ele>
        <time>2018-04-16T18:35:50Z</time>
      </trkpt>
      <trkpt lat="46.99781" lon="2.25235">
        <ele>143</ele>
        <time>2018-04-16T18:35:53Z</time>
      </trkpt>
      <trkpt lat="46.99782" lon="2.25235">
        <ele>143</ele>
        <time>2018-04-16T18:36:21Z</time>
      </trkpt>
      <trkpt lat="46.99785" lon="2.25236">
        <ele>143</ele>
        <time>2018-04-16T18:36:23Z</time>
      </trkpt>
      <trkpt lat="46.99797" lon="2.25239">
        <ele>143</ele>
        <time>2018-04-16T18:36:28Z</time>
      </trkpt>
      <trkpt lat="46.99807" lon="2.2524">
        <ele>144</ele>
        <time>2018-04-16T18:36:31Z</time>
      </trkpt>
      <trkpt lat="46.9981" lon="2.25241">
        <ele>144</ele>
        <time>2018-04-16T18:36:32Z</time>
      </trkpt>
      <trkpt lat="46.99818" lon="2.25242">
        <ele>144</ele>
        <time>2018-04-16T18:36:34Z</time>
      </trkpt>
      <trkpt lat="46.99824" lon="2.25242">
        <ele>144</ele>
        <time>2018-04-16T18:36:36Z</time>
      </trkpt>
      <trkpt lat="46.99828" lon="2.25242">
        <ele>144</ele>
        <time>2018-04-16T18:36:37Z</time>
      </trkpt>
      <trkpt lat="46.99831" lon="2.25242">
        <ele>144</ele>
        <time>2018-04-16T18:36:38Z</time>
      </trkpt>
      <trkpt lat="46.9987" lon="2.25246">
        <ele>146</ele>
        <time>2018-04-16T18:36:50Z</time>
      </trkpt>
      <trkpt lat="46.99882" lon="2.25246">
        <ele>146</ele>
        <time>2018-04-16T18:36:54Z</time>
      </trkpt>
      <trkpt lat="46.99912" lon="2.25247">
        <ele>147</ele>
        <time>2018-04-16T18:37:04Z</time>
      </trkpt>
      <trkpt lat="46.99921" lon="2.25247">
        <ele>147</ele>
        <time>2018-04-16T18:37:07Z</time>
      </trkpt>
      <trkpt lat="46.99923" lon="2.25247">
        <ele>147</ele>
        <time>2018-04-16T18:37:08Z</time>
      </trkpt>
      <trkpt lat="46.99929" lon="2.25248">
        <ele>148</ele>
        <time>2018-04-16T18:37:10Z</time>
      </trkpt>
      <trkpt lat="46.9994" lon="2.25249">
        <ele>148</ele>
        <time>2018-04-16T18:37:14Z</time>
      </trkpt>
      <trkpt lat="46.99946" lon="2.2525">
        <ele>148</ele>
        <time>2018-04-16T18:37:16Z</time>
      </trkpt>
      <trkpt lat="46.99953" lon="2.25251">
        <ele>148</ele>
        <time>2018-04-16T18:37:18Z</time>
      </trkpt>
      <trkpt lat="46.99956" lon="2.25252">
        <ele>148</ele>
        <time>2018-04-16T18:37:19Z</time>
      </trkpt>
      <trkpt lat="46.99959" lon="2.25252">
        <ele>148</ele>
        <time>2018-04-16T18:37:20Z</time>
      </trkpt>
      <trkpt lat="47.00005" lon="2.25253">
        <ele>149</ele>
        <time>2018-04-16T18:37:35Z</time>
      </trkpt>
      <trkpt lat="47.00032" lon="2.2526">
        <ele>150</ele>
        <time>2018-04-16T18:37:44Z</time>
      </trkpt>
      <trkpt lat="47.00035" lon="2.2526">
        <ele>151</ele>
        <time>2018-04-16T18:37:45Z</time>
      </trkpt>
      <trkpt lat="47.00038" lon="2.25261">
        <ele>151</ele>
        <time>2018-04-16T18:37:46Z</time>
      </trkpt>
      <trkpt lat="47.00048" lon="2.25272">
        <ele>151</ele>
        <time>2018-04-16T18:37:50Z</time>
      </trkpt>
      <trkpt lat="47.00077" lon="2.2534">
        <ele>152</ele>
        <time>2018-04-16T18:38:09Z</time>
      </trkpt>
      <trkpt lat="47.00089" lon="2.25379">
        <ele>152</ele>
        <time>2018-04-16T18:38:24Z</time>
      </trkpt>
      <trkpt lat="47.00123" lon="2.25384">
        <ele>152</ele>
        <time>2018-04-16T18:38:36Z</time>
      </trkpt>
      <trkpt lat="47.00133" lon="2.25385">
        <ele>152</ele>
        <time>2018-04-16T18:38:39Z</time>
      </trkpt>
      <trkpt lat="47.00136" lon="2.25385">
        <ele>152</ele>
        <time>2018-04-16T18:38:40Z</time>
      </trkpt>
      <trkpt lat="47.00192" lon="2.25387">
        <ele>152</ele>
        <time>2018-04-16T18:38:55Z</time>
      </trkpt>
      <trkpt lat="47.00248" lon="2.25392">
        <ele>153</ele>
        <time>2018-04-16T18:39:09Z</time>
      </trkpt>
      <trkpt lat="47.00301" lon="2.25383">
        <ele>153</ele>
        <time>2018-04-16T18:39:23Z</time>
      </trkpt>
      <trkpt lat="47.0031" lon="2.25376">
        <ele>153</ele>
        <time>2018-04-16T18:39:26Z</time>
      </trkpt>
      <trkpt lat="47.0032" lon="2.25367">
        <ele>153</ele>
        <time>2018-04-16T18:39:31Z</time>
      </trkpt>
      <trkpt lat="47.00332" lon="2.25357">
        <ele>153</ele>
        <time>2018-04-16T18:39:53Z</time>
      </trkpt>
      <trkpt lat="47.00348" lon="2.25369">
        <ele>153</ele>
        <time>2018-04-16T18:40:02Z</time>
      </trkpt>
      <trkpt lat="47.00351" lon="2.25399">
        <ele>154</ele>
        <time>2018-04-16T18:40:09Z</time>
      </trkpt>
      <trkpt lat="47.00349" lon="2.25437">
        <ele>154</ele>
        <time>2018-04-16T18:40:18Z</time>
      </trkpt>
      <trkpt lat="47.00337" lon="2.25466">
        <ele>154</ele>
        <time>2018-04-16T18:40:27Z</time>
      </trkpt>
      <trkpt lat="47.00336" lon="2.25469">
        <ele>154</ele>
        <time>2018-04-16T18:40:29Z</time>
      </trkpt>
      <trkpt lat="47.00294" lon="2.25521">
        <ele>155</ele>
        <time>2018-04-16T18:40:49Z</time>
      </trkpt>
      <trkpt lat="47.00273" lon="2.2555">
        <ele>155</ele>
        <time>2018-04-16T18:40:57Z</time>
      </trkpt>
      <trkpt lat="47.00251" lon="2.25585">
        <ele>155</ele>
        <time>2018-04-16T18:41:05Z</time>
      </trkpt>
      <trkpt lat="47.00248" lon="2.25589">
        <ele>155</ele>
        <time>2018-04-16T18:41:06Z</time>
      </trkpt>
      <trkpt lat="47.00223" lon="2.25628">
        <ele>156</ele>
        <time>2018-04-16T18:41:15Z</time>
      </trkpt>
      <trkpt lat="47.00207" lon="2.25656">
        <ele>156</ele>
        <time>2018-04-16T18:41:21Z</time>
      </trkpt>
      <trkpt lat="47.0019" lon="2.25684">
        <ele>156</ele>
        <time>2018-04-16T18:41:27Z</time>
      </trkpt>
      <trkpt lat="47.0015" lon="2.25742">
        <ele>156</ele>
        <time>2018-04-16T18:41:41Z</time>
      </trkpt>
      <trkpt lat="47.00108" lon="2.25798">
        <ele>155</ele>
        <time>2018-04-16T18:41:55Z</time>
      </trkpt>
      <trkpt lat="47.00066" lon="2.25852">
        <ele>155</ele>
        <time>2018-04-16T18:42:09Z</time>
      </trkpt>
      <trkpt lat="47.00033" lon="2.25914">
        <ele>155</ele>
        <time>2018-04-16T18:42:23Z</time>
      </trkpt>
      <trkpt lat="47.00027" lon="2.25938">
        <ele>155</ele>
        <time>2018-04-16T18:42:27Z</time>
      </trkpt>
      <trkpt lat="47.00018" lon="2.25994">
        <ele>156</ele>
        <time>2018-04-16T18:42:37Z</time>
      </trkpt>
      <trkpt lat="46.99997" lon="2.26034">
        <ele>156</ele>
        <time>2018-04-16T18:42:54Z</time>
      </trkpt>
      <trkpt lat="46.99989" lon="2.26023">
        <ele>156</ele>
        <time>2018-04-16T18:43:04Z</time>
      </trkpt>
      <trkpt lat="46.99988" lon="2.26022">
        <ele>156</ele>
        <time>2018-04-16T18:43:18Z</time>
      </trkpt>
      <trkpt lat="46.99988" lon="2.26022">
        <ele>156</ele>
        <time>2018-04-16T18:43:58Z</time>
      </trkpt>
      <trkpt lat="46.99988" lon="2.26022">
        <ele>156</ele>
        <time>2018-04-16T18:44:34Z</time>
      </trkpt>
      <trkpt lat="46.99988" lon="2.26022">
        <ele>156</ele>
        <time>2018-04-16T18:44:41Z</time>
      </trkpt>
      <trkpt lat="46.99988" lon="2.26022">
        <ele>156</ele>
        <time>2018-04-16T18:44:50Z</time>
      </trkpt>
      <trkpt lat="46.99985" lon="2.26026">
        <ele>156</ele>
        <time>2018-04-16T18:44:53Z</time>
      </trkpt>
      <trkpt lat="46.99983" lon="2.26038">
        <ele>156</ele>
        <time>2018-04-16T18:44:57Z</time>
      </trkpt>
      <trkpt lat="46.99992" lon="2.26085">
        <ele>156</ele>
        <time>2018-04-16T18:45:06Z</time>
      </trkpt>
      <trkpt lat="46.99993" lon="2.26089">
        <ele>156</ele>
        <time>2018-04-16T18:45:07Z</time>
      </trkpt>
      <trkpt lat="46.99993" lon="2.26095">
        <ele>156</ele>
        <time>2018-04-16T18:45:14Z</time>
      </trkpt>
      <trkpt lat="46.99993" lon="2.26095">
        <ele>156</ele>
        <time>2018-04-16T18:45:16Z</time>
      </trkpt>
      <trkpt lat="46.99993" lon="2.26095">
        <ele>156</ele>
        <time>2018-04-16T18:45:21Z</time>
      </trkpt>
      <trkpt lat="46.99993" lon="2.26095">
        <ele>156</ele>
        <time>2018-04-16T18:45:24Z</time>
      </trkpt>
      <trkpt lat="46.99993" lon="2.26095">
        <ele>156</ele>
        <time>2018-04-16T18:45:50Z</time>
      </trkpt>
      <trkpt lat="46.99993" lon="2.26095">
        <ele>156</ele>
        <time>2018-04-16T18:45:51Z</time>
      </trkpt>
      <trkpt lat="46.99993" lon="2.26095">
        <ele>156</ele>
        <time>2018-04-16T18:45:58Z</time>
      </trkpt>
      <trkpt lat="46.99993" lon="2.26095">
        <ele>156</ele>
        <time>2018-04-16T18:46:03Z</time>
      </trkpt>
      <trkpt lat="46.99993" lon="2.26095">
        <ele>156</ele>
        <time>2018-04-16T18:46:04Z</time>
      </trkpt>
      <trkpt lat="46.99993" lon="2.26095">
        <ele>156</ele>
        <time>2018-04-16T18:46:05Z</time>
      </trkpt>
      <trkpt lat="46.99993" lon="2.26095">
        <ele>156</ele>
        <time>2018-04-16T18:46:06Z</time>
      </trkpt>
      <trkpt lat="46.99993" lon="2.26095">
        <ele>156</ele>
        <time>2018-04-16T18:46:14Z</time>
      </trkpt>
      <trkpt lat="46.99994" lon="2.26096">
        <ele>156</ele>
        <time>2018-04-16T18:46:20Z</time>
      </trkpt>
      <trkpt lat="46.99994" lon="2.26096">
        <ele>156</ele>
        <time>2018-04-16T18:46:25Z</time>
      </trkpt>
      <trkpt lat="46.99994" lon="2.26096">
        <ele>156</ele>
        <time>2018-04-16T18:46:29Z</time>
      </trkpt>
      <trkpt lat="46.99994" lon="2.26096">
        <ele>156</ele>
        <time>2018-04-16T18:46:31Z</time>
      </trkpt>
      <trkpt lat="46.99994" lon="2.26096">
        <ele>156</ele>
        <time>2018-04-16T18:46:33Z</time>
      </trkpt>
      <trkpt lat="46.99994" lon="2.26096">
        <ele>156</ele>
        <time>2018-04-16T18:46:35Z</time>
      </trkpt>
      <trkpt lat="46.99996" lon="2.26101">
        <ele>156</ele>
        <time>2018-04-16T18:46:50Z</time>
      </trkpt>
      <trkpt lat="47.00016" lon="2.26177">
        <ele>156</ele>
        <time>2018-04-16T18:47:05Z</time>
      </trkpt>
      <trkpt lat="47.00026" lon="2.26214">
        <ele>156</ele>
        <time>2018-04-16T18:47:12Z</time>
      </trkpt>
      <trkpt lat="47.00041" lon="2.26291">
        <ele>156</ele>
        <time>2018-04-16T18:47:28Z</time>
      </trkpt>
      <trkpt lat="47.0004" lon="2.26321">
        <ele>156</ele>
        <time>2018-04-16T18:47:33Z</time>
      </trkpt>
      <trkpt lat="47.00033" lon="2.26397">
        <ele>156</ele>
        <time>2018-04-16T18:47:49Z</time>
      </trkpt>
      <trkpt lat="47.00045" lon="2.26409">
        <ele>156</ele>
        <time>2018-04-16T18:47:52Z</time>
      </trkpt>
      <trkpt lat="47.00096" lon="2.26444">
        <ele>155</ele>
        <time>2018-04-16T18:48:03Z</time>
      </trkpt>
      <trkpt lat="47.00138" lon="2.26474">
        <ele>155</ele>
        <time>2018-04-16T18:48:12Z</time>
      </trkpt>
      <trkpt lat="47.00142" lon="2.26478">
        <ele>155</ele>
        <time>2018-04-16T18:48:13Z</time>
      </trkpt>
      <trkpt lat="47.0016" lon="2.265">
        <ele>154</ele>
        <time>2018-04-16T18:48:17Z</time>
      </trkpt>
      <trkpt lat="47.0019" lon="2.26568">
        <ele>153</ele>
        <time>2018-04-16T18:48:27Z</time>
      </trkpt>
      <trkpt lat="47.00212" lon="2.26641">
        <ele>153</ele>
        <time>2018-04-16T18:48:37Z</time>
      </trkpt>
      <trkpt lat="47.00221" lon="2.26722">
        <ele>152</ele>
        <time>2018-04-16T18:48:48Z</time>
      </trkpt>
      <trkpt lat="47.0023" lon="2.26807">
        <ele>152</ele>
        <time>2018-04-16T18:48:59Z</time>
      </trkpt>
      <trkpt lat="47.00242" lon="2.26883">
        <ele>153</ele>
        <time>2018-04-16T18:49:08Z</time>
      </trkpt>
      <trkpt lat="47.00268" lon="2.2696">
        <ele>155</ele>
        <time>2018-04-16T18:49:18Z</time>
      </trkpt>
      <trkpt lat="47.00303" lon="2.27027">
        <ele>157</ele>
        <time>2018-04-16T18:49:28Z</time>
      </trkpt>
      <trkpt lat="47.00346" lon="2.27081">
        <ele>156</ele>
        <time>2018-04-16T18:49:37Z</time>
      </trkpt>
      <trkpt lat="47.00382" lon="2.27148">
        <ele>158</ele>
        <time>2018-04-16T18:49:47Z</time>
      </trkpt>
      <trkpt lat="47.00415" lon="2.27216">
        <ele>159</ele>
        <time>2018-04-16T18:49:57Z</time>
      </trkpt>
      <trkpt lat="47.00447" lon="2.27287">
        <ele>157</ele>
        <time>2018-04-16T18:50:08Z</time>
      </trkpt>
      <trkpt lat="47.00463" lon="2.27324">
        <ele>157</ele>
        <time>2018-04-16T18:50:14Z</time>
      </trkpt>
      <trkpt lat="47.00471" lon="2.27341">
        <ele>156</ele>
        <time>2018-04-16T18:50:17Z</time>
      </trkpt>
      <trkpt lat="47.00483" lon="2.27365">
        <ele>156</ele>
        <time>2018-04-16T18:50:21Z</time>
      </trkpt>
      <trkpt lat="47.00486" lon="2.27372">
        <ele>156</ele>
        <time>2018-04-16T18:50:22Z</time>
      </trkpt>
      <trkpt lat="47.00489" lon="2.27378">
        <ele>156</ele>
        <time>2018-04-16T18:50:23Z</time>
      </trkpt>
      <trkpt lat="47.00522" lon="2.27444">
        <ele>155</ele>
        <time>2018-04-16T18:50:35Z</time>
      </trkpt>
      <trkpt lat="47.00562" lon="2.27504">
        <ele>156</ele>
        <time>2018-04-16T18:50:47Z</time>
      </trkpt>
      <trkpt lat="47.00573" lon="2.2752">
        <ele>156</ele>
        <time>2018-04-16T18:50:50Z</time>
      </trkpt>
      <trkpt lat="47.00588" lon="2.27554">
        <ele>156</ele>
        <time>2018-04-16T18:50:56Z</time>
      </trkpt>
      <trkpt lat="47.00596" lon="2.27577">
        <ele>156</ele>
        <time>2018-04-16T18:51:00Z</time>
      </trkpt>
      <trkpt lat="47.00616" lon="2.27633">
        <ele>156</ele>
        <time>2018-04-16T18:51:13Z</time>
      </trkpt>
      <trkpt lat="47.00645" lon="2.27701">
        <ele>157</ele>
        <time>2018-04-16T18:51:26Z</time>
      </trkpt>
      <trkpt lat="47.00665" lon="2.27779">
        <ele>160</ele>
        <time>2018-04-16T18:51:39Z</time>
      </trkpt>
      <trkpt lat="47.00674" lon="2.27862">
        <ele>159</ele>
        <time>2018-04-16T18:51:52Z</time>
      </trkpt>
      <trkpt lat="47.00686" lon="2.27941">
        <ele>160</ele>
        <time>2018-04-16T18:52:04Z</time>
      </trkpt>
      <trkpt lat="47.00696" lon="2.28001">
        <ele>159</ele>
        <time>2018-04-16T18:52:14Z</time>
      </trkpt>
      <trkpt lat="47.00701" lon="2.28025">
        <ele>158</ele>
        <time>2018-04-16T18:52:18Z</time>
      </trkpt>
      <trkpt lat="47.00723" lon="2.281">
        <ele>157</ele>
        <time>2018-04-16T18:52:31Z</time>
      </trkpt>
      <trkpt lat="47.00727" lon="2.28117">
        <ele>157</ele>
        <time>2018-04-16T18:52:34Z</time>
      </trkpt>
      <trkpt lat="47.0073" lon="2.28129">
        <ele>158</ele>
        <time>2018-04-16T18:52:36Z</time>
      </trkpt>
      <trkpt lat="47.00736" lon="2.28146">
        <ele>157</ele>
        <time>2018-04-16T18:52:39Z</time>
      </trkpt>
      <trkpt lat="47.00738" lon="2.28151">
        <ele>157</ele>
        <time>2018-04-16T18:52:40Z</time>
      </trkpt>
      <trkpt lat="47.00739" lon="2.28156">
        <ele>157</ele>
        <time>2018-04-16T18:52:41Z</time>
      </trkpt>
      <trkpt lat="47.0074" lon="2.28161">
        <ele>157</ele>
        <time>2018-04-16T18:52:42Z</time>
      </trkpt>
      <trkpt lat="47.00742" lon="2.28167">
        <ele>157</ele>
        <time>2018-04-16T18:52:43Z</time>
      </trkpt>
      <trkpt lat="47.00744" lon="2.28173">
        <ele>157</ele>
        <time>2018-04-16T18:52:44Z</time>
      </trkpt>
      <trkpt lat="47.00745" lon="2.28179">
        <ele>157</ele>
        <time>2018-04-16T18:52:45Z</time>
      </trkpt>
      <trkpt lat="47.00755" lon="2.28219">
        <ele>155</ele>
        <time>2018-04-16T18:52:52Z</time>
      </trkpt>
      <trkpt lat="47.0076" lon="2.28238">
        <ele>155</ele>
        <time>2018-04-16T18:52:55Z</time>
      </trkpt>
      <trkpt lat="47.00768" lon="2.28263">
        <ele>154</ele>
        <time>2018-04-16T18:52:59Z</time>
      </trkpt>
      <trkpt lat="47.00776" lon="2.28289">
        <ele>153</ele>
        <time>2018-04-16T18:53:03Z</time>
      </trkpt>
      <trkpt lat="47.00786" lon="2.28322">
        <ele>153</ele>
        <time>2018-04-16T18:53:08Z</time>
      </trkpt>
      <trkpt lat="47.00799" lon="2.28368">
        <ele>152</ele>
        <time>2018-04-16T18:53:15Z</time>
      </trkpt>
      <trkpt lat="47.00816" lon="2.28421">
        <ele>151</ele>
        <time>2018-04-16T18:53:23Z</time>
      </trkpt>
      <trkpt lat="47.00826" lon="2.28456">
        <ele>151</ele>
        <time>2018-04-16T18:53:28Z</time>
      </trkpt>
      <trkpt lat="47.00848" lon="2.28531">
        <ele>151</ele>
        <time>2018-04-16T18:53:39Z</time>
      </trkpt>
      <trkpt lat="47.0087" lon="2.28609">
        <ele>151</ele>
        <time>2018-04-16T18:53:51Z</time>
      </trkpt>
      <trkpt lat="47.00891" lon="2.28683">
        <ele>150</ele>
        <time>2018-04-16T18:54:01Z</time>
      </trkpt>
      <trkpt lat="47.00913" lon="2.28757">
        <ele>150</ele>
        <time>2018-04-16T18:54:11Z</time>
      </trkpt>
      <trkpt lat="47.00936" lon="2.28838">
        <ele>149</ele>
        <time>2018-04-16T18:54:21Z</time>
      </trkpt>
      <trkpt lat="47.00955" lon="2.28912">
        <ele>148</ele>
        <time>2018-04-16T18:54:31Z</time>
      </trkpt>
      <trkpt lat="47.00977" lon="2.28982">
        <ele>148</ele>
        <time>2018-04-16T18:54:44Z</time>
      </trkpt>
      <trkpt lat="47.00991" lon="2.29031">
        <ele>149</ele>
        <time>2018-04-16T18:54:52Z</time>
      </trkpt>
      <trkpt lat="47.01006" lon="2.29085">
        <ele>152</ele>
        <time>2018-04-16T18:55:02Z</time>
      </trkpt>
      <trkpt lat="47.01014" lon="2.29113">
        <ele>155</ele>
        <time>2018-04-16T18:55:07Z</time>
      </trkpt>
      <trkpt lat="47.01015" lon="2.29118">
        <ele>155</ele>
        <time>2018-04-16T18:55:08Z</time>
      </trkpt>
      <trkpt lat="47.01022" lon="2.29139">
        <ele>155</ele>
        <time>2018-04-16T18:55:12Z</time>
      </trkpt>
      <trkpt lat="47.01035" lon="2.29186">
        <ele>157</ele>
        <time>2018-04-16T18:55:22Z</time>
      </trkpt>
      <trkpt lat="47.01057" lon="2.29251">
        <ele>158</ele>
        <time>2018-04-16T18:55:41Z</time>
      </trkpt>
      <trkpt lat="47.0107" lon="2.29312">
        <ele>158</ele>
        <time>2018-04-16T18:56:03Z</time>
      </trkpt>
      <trkpt lat="47.01077" lon="2.29338">
        <ele>159</ele>
        <time>2018-04-16T18:56:14Z</time>
      </trkpt>
      <trkpt lat="47.01078" lon="2.2934">
        <ele>159</ele>
        <time>2018-04-16T18:56:24Z</time>
      </trkpt>
      <trkpt lat="47.01078" lon="2.2934">
        <ele>159</ele>
        <time>2018-04-16T18:56:40Z</time>
      </trkpt>
      <trkpt lat="47.01078" lon="2.2934">
        <ele>159</ele>
        <time>2018-04-16T18:56:45Z</time>
      </trkpt>
      <trkpt lat="47.01078" lon="2.2934">
        <ele>159</ele>
        <time>2018-04-16T18:56:51Z</time>
      </trkpt>
      <trkpt lat="47.01078" lon="2.2934">
        <ele>159</ele>
        <time>2018-04-16T18:56:56Z</time>
      </trkpt>
      <trkpt lat="47.01078" lon="2.2934">
        <ele>159</ele>
        <time>2018-04-16T18:57:03Z</time>
      </trkpt>
      <trkpt lat="47.01078" lon="2.2934">
        <ele>159</ele>
        <time>2018-04-16T18:57:06Z</time>
      </trkpt>
      <trkpt lat="47.01078" lon="2.2934">
        <ele>159</ele>
        <time>2018-04-16T18:57:11Z</time>
      </trkpt>
      <trkpt lat="47.01078" lon="2.2934">
        <ele>159</ele>
        <time>2018-04-16T18:57:15Z</time>
      </trkpt>
      <trkpt lat="47.01078" lon="2.2934">
        <ele>159</ele>
        <time>2018-04-16T18:57:16Z</time>
      </trkpt>
      <trkpt lat="47.01078" lon="2.2934">
        <ele>159</ele>
        <time>2018-04-16T18:57:19Z</time>
      </trkpt>
      <trkpt lat="47.01078" lon="2.2934">
        <ele>159</ele>
        <time>2018-04-16T18:57:20Z</time>
      </trkpt>
      <trkpt lat="47.01078" lon="2.2934">
        <ele>159</ele>
        <time>2018-04-16T18:57:21Z</time>
      </trkpt>
      <trkpt lat="47.01082" lon="2.29341">
        <ele>159</ele>
        <time>2018-04-16T18:57:27Z</time>
      </trkpt>
      <trkpt lat="47.01084" lon="2.2934">
        <ele>159</ele>
        <time>2018-04-16T18:57:28Z</time>
      </trkpt>
      <trkpt lat="47.01091" lon="2.29336">
        <ele>159</ele>
        <time>2018-04-16T18:57:30Z</time>
      </trkpt>
      <trkpt lat="47.01135" lon="2.29305">
        <ele>159</ele>
        <time>2018-04-16T18:57:45Z</time>
      </trkpt>
      <trkpt lat="47.01159" lon="2.29268">
        <ele>159</ele>
        <time>2018-04-16T18:58:01Z</time>
      </trkpt>
      <trkpt lat="47.01205" lon="2.29224">
        <ele>158</ele>
        <time>2018-04-16T18:58:33Z</time>
      </trkpt>
      <trkpt lat="47.01257" lon="2.2919">
        <ele>155</ele>
        <time>2018-04-16T18:58:46Z</time>
      </trkpt>
      <trkpt lat="47.01276" lon="2.29179">
        <ele>155</ele>
        <time>2018-04-16T18:58:56Z</time>
      </trkpt>
      <trkpt lat="47.01276" lon="2.29179">
        <ele>155</ele>
        <time>2018-04-16T18:59:00Z</time>
      </trkpt>
      <trkpt lat="47.01276" lon="2.29179">
        <ele>155</ele>
        <time>2018-04-16T18:59:03Z</time>
      </trkpt>
      <trkpt lat="47.01276" lon="2.29179">
        <ele>155</ele>
        <time>2018-04-16T18:59:04Z</time>
      </trkpt>
      <trkpt lat="47.01276" lon="2.29179">
        <ele>155</ele>
        <time>2018-04-16T18:59:05Z</time>
      </trkpt>
      <trkpt lat="47.01278" lon="2.29183">
        <ele>155</ele>
        <time>2018-04-16T18:59:11Z</time>
      </trkpt>
      <trkpt lat="47.01278" lon="2.29187">
        <ele>155</ele>
        <time>2018-04-16T18:59:13Z</time>
      </trkpt>
      <trkpt lat="47.01324" lon="2.29231">
        <ele>157</ele>
        <time>2018-04-16T18:59:28Z</time>
      </trkpt>
      <trkpt lat="47.0133" lon="2.29237">
        <ele>157</ele>
        <time>2018-04-16T18:59:30Z</time>
      </trkpt>
      <trkpt lat="47.01333" lon="2.29239">
        <ele>157</ele>
        <time>2018-04-16T18:59:31Z</time>
      </trkpt>
      <trkpt lat="47.01337" lon="2.29241">
        <ele>158</ele>
        <time>2018-04-16T18:59:32Z</time>
      </trkpt>
      <trkpt lat="47.01339" lon="2.29244">
        <ele>158</ele>
        <time>2018-04-16T18:59:33Z</time>
      </trkpt>
      <trkpt lat="47.01342" lon="2.29246">
        <ele>158</ele>
        <time>2018-04-16T18:59:34Z</time>
      </trkpt>
      <trkpt lat="47.01344" lon="2.29248">
        <ele>157</ele>
        <time>2018-04-16T18:59:35Z</time>
      </trkpt>
      <trkpt lat="47.01352" lon="2.29258">
        <ele>158</ele>
        <time>2018-04-16T18:59:38Z</time>
      </trkpt>
      <trkpt lat="47.01357" lon="2.29265">
        <ele>158</ele>
        <time>2018-04-16T18:59:40Z</time>
      </trkpt>
      <trkpt lat="47.0136" lon="2.29268">
        <ele>158</ele>
        <time>2018-04-16T18:59:41Z</time>
      </trkpt>
      <trkpt lat="47.01364" lon="2.29271">
        <ele>158</ele>
        <time>2018-04-16T18:59:42Z</time>
      </trkpt>
      <trkpt lat="47.01366" lon="2.29273">
        <ele>158</ele>
        <time>2018-04-16T18:59:43Z</time>
      </trkpt>
      <trkpt lat="47.01373" lon="2.29279">
        <ele>158</ele>
        <time>2018-04-16T18:59:45Z</time>
      </trkpt>
      <trkpt lat="47.01376" lon="2.29281">
        <ele>158</ele>
        <time>2018-04-16T18:59:46Z</time>
      </trkpt>
      <trkpt lat="47.0139" lon="2.29292">
        <ele>158</ele>
        <time>2018-04-16T18:59:51Z</time>
      </trkpt>
      <trkpt lat="47.01396" lon="2.29296">
        <ele>158</ele>
        <time>2018-04-16T18:59:53Z</time>
      </trkpt>
      <trkpt lat="47.01446" lon="2.2933">
        <ele>158</ele>
        <time>2018-04-16T19:00:08Z</time>
      </trkpt>
      <trkpt lat="47.01498" lon="2.2936">
        <ele>158</ele>
        <time>2018-04-16T19:00:21Z</time>
      </trkpt>
      <trkpt lat="47.01552" lon="2.29395">
        <ele>155</ele>
        <time>2018-04-16T19:00:33Z</time>
      </trkpt>
      <trkpt lat="47.01599" lon="2.29436">
        <ele>153</ele>
        <time>2018-04-16T19:00:47Z</time>
      </trkpt>
      <trkpt lat="47.01646" lon="2.2948">
        <ele>153</ele>
        <time>2018-04-16T19:01:01Z</time>
      </trkpt>
      <trkpt lat="47.01695" lon="2.29525">
        <ele>153</ele>
        <time>2018-04-16T19:01:15Z</time>
      </trkpt>
      <trkpt lat="47.01715" lon="2.29533">
        <ele>153</ele>
        <time>2018-04-16T19:01:53Z</time>
      </trkpt>
      <trkpt lat="47.01715" lon="2.29533">
        <ele>153</ele>
        <time>2018-04-16T19:01:58Z</time>
      </trkpt>
      <trkpt lat="47.01715" lon="2.29533">
        <ele>153</ele>
        <time>2018-04-16T19:02:03Z</time>
      </trkpt>
      <trkpt lat="47.01715" lon="2.29533">
        <ele>153</ele>
        <time>2018-04-16T19:02:09Z</time>
      </trkpt>
      <trkpt lat="47.01715" lon="2.29533">
        <ele>153</ele>
        <time>2018-04-16T19:02:14Z</time>
      </trkpt>
      <trkpt lat="47.01717" lon="2.29534">
        <ele>153</ele>
        <time>2018-04-16T19:02:21Z</time>
      </trkpt>
      <trkpt lat="47.01739" lon="2.29539">
        <ele>153</ele>
        <time>2018-04-16T19:02:29Z</time>
      </trkpt>
      <trkpt lat="47.01742" lon="2.2954">
        <ele>153</ele>
        <time>2018-04-16T19:02:30Z</time>
      </trkpt>
      <trkpt lat="47.01745" lon="2.29541">
        <ele>153</ele>
        <time>2018-04-16T19:02:31Z</time>
      </trkpt>
      <trkpt lat="47.01765" lon="2.29544">
        <ele>155</ele>
        <time>2018-04-16T19:02:38Z</time>
      </trkpt>
      <trkpt lat="47.0178" lon="2.29544">
        <ele>156</ele>
        <time>2018-04-16T19:02:43Z</time>
      </trkpt>
      <trkpt lat="47.018" lon="2.29546">
        <ele>156</ele>
        <time>2018-04-16T19:02:50Z</time>
      </trkpt>
      <trkpt lat="47.01806" lon="2.29546">
        <ele>156</ele>
        <time>2018-04-16T19:02:52Z</time>
      </trkpt>
      <trkpt lat="47.01809" lon="2.29545">
        <ele>156</ele>
        <time>2018-04-16T19:02:53Z</time>
      </trkpt>
      <trkpt lat="47.01812" lon="2.29545">
        <ele>156</ele>
        <time>2018-04-16T19:02:54Z</time>
      </trkpt>
      <trkpt lat="47.01815" lon="2.29545">
        <ele>156</ele>
        <time>2018-04-16T19:02:55Z</time>
      </trkpt>
      <trkpt lat="47.01818" lon="2.29545">
        <ele>156</ele>
        <time>2018-04-16T19:02:56Z</time>
      </trkpt>
      <trkpt lat="47.0182" lon="2.29545">
        <ele>156</ele>
        <time>2018-04-16T19:02:57Z</time>
      </trkpt>
      <trkpt lat="47.01827" lon="2.29544">
        <ele>156</ele>
        <time>2018-04-16T19:02:59Z</time>
      </trkpt>
      <trkpt lat="47.0183" lon="2.29545">
        <ele>156</ele>
        <time>2018-04-16T19:03:00Z</time>
      </trkpt>
      <trkpt lat="47.01844" lon="2.29543">
        <ele>158</ele>
        <time>2018-04-16T19:03:05Z</time>
      </trkpt>
      <trkpt lat="47.01859" lon="2.29543">
        <ele>159</ele>
        <time>2018-04-16T19:03:10Z</time>
      </trkpt>
      <trkpt lat="47.01862" lon="2.29543">
        <ele>159</ele>
        <time>2018-04-16T19:03:11Z</time>
      </trkpt>
      <trkpt lat="47.01865" lon="2.29542">
        <ele>159</ele>
        <time>2018-04-16T19:03:12Z</time>
      </trkpt>
      <trkpt lat="47.01874" lon="2.29543">
        <ele>159</ele>
        <time>2018-04-16T19:03:15Z</time>
      </trkpt>
      <trkpt lat="47.01931" lon="2.29545">
        <ele>160</ele>
        <time>2018-04-16T19:03:31Z</time>
      </trkpt>
      <trkpt lat="47.01985" lon="2.29555">
        <ele>160</ele>
        <time>2018-04-16T19:03:45Z</time>
      </trkpt>
      <trkpt lat="47.02042" lon="2.29565">
        <ele>159</ele>
        <time>2018-04-16T19:03:59Z</time>
      </trkpt>
      <trkpt lat="47.02096" lon="2.29574">
        <ele>159</ele>
        <time>2018-04-16T19:04:13Z</time>
      </trkpt>
      <trkpt lat="47.02129" lon="2.2956">
        <ele>157</ele>
        <time>2018-04-16T19:04:21Z</time>
      </trkpt>
      <trkpt lat="47.02133" lon="2.29556">
        <ele>157</ele>
        <time>2018-04-16T19:04:22Z</time>
      </trkpt>
      <trkpt lat="47.02178" lon="2.29503">
        <ele>154</ele>
        <time>2018-04-16T19:04:32Z</time>
      </trkpt>
      <trkpt lat="47.02201" lon="2.29459">
        <ele>151</ele>
        <time>2018-04-16T19:04:44Z</time>
      </trkpt>
      <trkpt lat="47.02237" lon="2.2952">
        <ele>152</ele>
        <time>2018-04-16T19:05:04Z</time>
      </trkpt>
      <trkpt lat="47.0225" lon="2.29596">
        <ele>153</ele>
        <time>2018-04-16T19:05:19Z</time>
      </trkpt>
      <trkpt lat="47.02248" lon="2.29627">
        <ele>153</ele>
        <time>2018-04-16T19:05:26Z</time>
      </trkpt>
      <trkpt lat="47.022" lon="2.29665">
        <ele>154</ele>
        <time>2018-04-16T19:05:47Z</time>
      </trkpt>
      <trkpt lat="47.02154" lon="2.29713">
        <ele>157</ele>
        <time>2018-04-16T19:06:05Z</time>
      </trkpt>
      <trkpt lat="47.02142" lon="2.29729">
        <ele>157</ele>
        <time>2018-04-16T19:06:10Z</time>
      </trkpt>
      <trkpt lat="47.0211" lon="2.29774">
        <ele>156</ele>
        <time>2018-04-16T19:06:23Z</time>
      </trkpt>
      <trkpt lat="47.02072" lon="2.29833">
        <ele>156</ele>
        <time>2018-04-16T19:06:41Z</time>
      </trkpt>
      <trkpt lat="47.02054" lon="2.29862">
        <ele>156</ele>
        <time>2018-04-16T19:06:55Z</time>
      </trkpt>
      <trkpt lat="47.02046" lon="2.29869">
        <ele>156</ele>
        <time>2018-04-16T19:07:03Z</time>
      </trkpt>
      <trkpt lat="47.02042" lon="2.29868">
        <ele>156</ele>
        <time>2018-04-16T19:07:20Z</time>
      </trkpt>
      <trkpt lat="47.02026" lon="2.29863">
        <ele>156</ele>
        <time>2018-04-16T19:07:28Z</time>
      </trkpt>
      <trkpt lat="47.02025" lon="2.29858">
        <ele>156</ele>
        <time>2018-04-16T19:07:30Z</time>
      </trkpt>
      <trkpt lat="47.02026" lon="2.29856">
        <ele>156</ele>
        <time>2018-04-16T19:07:41Z</time>
      </trkpt>
      <trkpt lat="47.02026" lon="2.29855">
        <ele>156</ele>
        <time>2018-04-16T19:07:51Z</time>
      </trkpt>
      <trkpt lat="47.02026" lon="2.29855">
        <ele>156</ele>
        <time>2018-04-16T19:07:57Z</time>
      </trkpt>
      <trkpt lat="47.02026" lon="2.29855">
        <ele>156</ele>
        <time>2018-04-16T19:08:04Z</time>
      </trkpt>
      <trkpt lat="47.02026" lon="2.29856">
        <ele>156</ele>
        <time>2018-04-16T19:08:18Z</time>
      </trkpt>
      <trkpt lat="47.02026" lon="2.29856">
        <ele>156</ele>
        <time>2018-04-16T19:08:19Z</time>
      </trkpt>
      <trkpt lat="47.02026" lon="2.29856">
        <ele>156</ele>
        <time>2018-04-16T19:08:27Z</time>
      </trkpt>
      <trkpt lat="47.02026" lon="2.29856">
        <ele>156</ele>
        <time>2018-04-16T19:08:28Z</time>
      </trkpt>
      <trkpt lat="47.02026" lon="2.29856">
        <ele>156</ele>
        <time>2018-04-16T19:08:30Z</time>
      </trkpt>
      <trkpt lat="47.02026" lon="2.29856">
        <ele>156</ele>
        <time>2018-04-16T19:08:31Z</time>
      </trkpt>
      <trkpt lat="47.02025" lon="2.29856">
        <ele>156</ele>
        <time>2018-04-16T19:08:34Z</time>
      </trkpt>
      <trkpt lat="47.02025" lon="2.29856">
        <ele>156</ele>
        <time>2018-04-16T19:08:41Z</time>
      </trkpt>
      <trkpt lat="47.02025" lon="2.29855">
        <ele>156</ele>
        <time>2018-04-16T19:08:46Z</time>
      </trkpt>
      <trkpt lat="47.02025" lon="2.29855">
        <ele>156</ele>
        <time>2018-04-16T19:08:48Z</time>
      </trkpt>
      <trkpt lat="47.02025" lon="2.29855">
        <ele>156</ele>
        <time>2018-04-16T19:08:51Z</time>
      </trkpt>
      <trkpt lat="47.02025" lon="2.29855">
        <ele>156</ele>
        <time>2018-04-16T19:08:53Z</time>
      </trkpt>
      <trkpt lat="47.02024" lon="2.29855">
        <ele>156</ele>
        <time>2018-04-16T19:09:04Z</time>
      </trkpt>
      <trkpt lat="47.02025" lon="2.29855">
        <ele>156</ele>
        <time>2018-04-16T19:09:55Z</time>
      </trkpt>
      <trkpt lat="47.02025" lon="2.29855">
        <ele>156</ele>
        <time>2018-04-16T19:10:13Z</time>
      </trkpt>
      <trkpt lat="47.02025" lon="2.29855">
        <ele>156</ele>
        <time>2018-04-16T19:10:15Z</time>
      </trkpt>
      <trkpt lat="47.02025" lon="2.29855">
        <ele>156</ele>
        <time>2018-04-16T19:10:17Z</time>
      </trkpt>
      <trkpt lat="47.02025" lon="2.29855">
        <ele>156</ele>
        <time>2018-04-16T19:10:18Z</time>
      </trkpt>
      <trkpt lat="47.02025" lon="2.29855">
        <ele>156</ele>
        <time>2018-04-16T19:10:21Z</time>
      </trkpt>
      <trkpt lat="47.02025" lon="2.29855">
        <ele>156</ele>
        <time>2018-04-16T19:10:22Z</time>
      </trkpt>
      <trkpt lat="47.02025" lon="2.29855">
        <ele>156</ele>
        <time>2018-04-16T19:10:23Z</time>
      </trkpt>
      <trkpt lat="47.02025" lon="2.29855">
        <ele>156</ele>
        <time>2018-04-16T19:10:25Z</time>
      </trkpt>
      <trkpt lat="47.02025" lon="2.29855">
        <ele>156</ele>
        <time>2018-04-16T19:10:26Z</time>
      </trkpt>
      <trkpt lat="47.02026" lon="2.29856">
        <ele>156</ele>
        <time>2018-04-16T19:10:44Z</time>
      </trkpt>
      <trkpt lat="47.02026" lon="2.2986">
        <ele>156</ele>
        <time>2018-04-16T19:11:17Z</time>
      </trkpt>
      <trkpt lat="47.02027" lon="2.29861">
        <ele>156</ele>
        <time>2018-04-16T19:11:22Z</time>
      </trkpt>
      <trkpt lat="47.02027" lon="2.2986">
        <ele>156</ele>
        <time>2018-04-16T19:11:23Z</time>
      </trkpt>
      <trkpt lat="47.02028" lon="2.2986">
        <ele>156</ele>
        <time>2018-04-16T19:11:24Z</time>
      </trkpt>
      <trkpt lat="47.02027" lon="2.2986">
        <ele>156</ele>
        <time>2018-04-16T19:11:25Z</time>
      </trkpt>
      <trkpt lat="47.02027" lon="2.29859">
        <ele>156</ele>
        <time>2018-04-16T19:11:30Z</time>
      </trkpt>
      <trkpt lat="47.02027" lon="2.29858">
        <ele>156</ele>
        <time>2018-04-16T19:11:31Z</time>
      </trkpt>
      <trkpt lat="47.02027" lon="2.29858">
        <ele>156</ele>
        <time>2018-04-16T19:11:32Z</time>
      </trkpt>
      <trkpt lat="47.02027" lon="2.29858">
        <ele>156</ele>
        <time>2018-04-16T19:11:33Z</time>
      </trkpt>
      <trkpt lat="47.02028" lon="2.29859">
        <ele>156</ele>
        <time>2018-04-16T19:11:56Z</time>
      </trkpt>
      <trkpt lat="47.02029" lon="2.29859">
        <ele>156</ele>
        <time>2018-04-16T19:12:05Z</time>
      </trkpt>
      <trkpt lat="47.02029" lon="2.2986">
        <ele>156</ele>
        <time>2018-04-16T19:12:11Z</time>
      </trkpt>
      <trkpt lat="47.0203" lon="2.2986">
        <ele>156</ele>
        <time>2018-04-16T19:12:25Z</time>
      </trkpt>
      <trkpt lat="47.02031" lon="2.2986">
        <ele>156</ele>
        <time>2018-04-16T19:12:34Z</time>
      </trkpt>
      <trkpt lat="47.02031" lon="2.2986">
        <ele>156</ele>
        <time>2018-04-16T19:12:44Z</time>
      </trkpt>
      <trkpt lat="47.0203" lon="2.29861">
        <ele>156</ele>
        <time>2018-04-16T19:13:35Z</time>
      </trkpt>
      <trkpt lat="47.02033" lon="2.29864">
        <ele>156</ele>
        <time>2018-04-16T19:13:41Z</time>
      </trkpt>
      <trkpt lat="47.0205" lon="2.29873">
        <ele>156</ele>
        <time>2018-04-16T19:13:52Z</time>
      </trkpt>
    </trkseg>
  </trk>
</gpx>